Darstellungsparameter: Aktuell verwendete Einstellungen:
Skalierung der Graphiken ... ?
xyx+y,   Skalierungsfaktor:      Skalierung: Modus: x, Faktor: 1
Darstellungszeitraum ... ?
Vom - - bis: - -   Zeitraum: 21.12.2005 - 19.01.2006
Min/Max/Avg-Anzeige ... ?
Zeige MMA aktuell
Zeige MMA Monat
Zeige MMA alles
Zeige --A aktuell
Zeige --A Monat
Zeige --A alles
Keine MMA-Anzeige
MMA:
Average (ber die Originaldaten)
MMA-Basis: 21.12.2005 - 19.01.2006
Quicknavigation für Darstellung... ?
Tage:      1T, 2T, 3T, 5T -1T -2T -3T -5T +1T +2T +3T +5T
Wochen: 1W, 2W, 3W -1W -2W -3W +1W +2W +3W
Monate: 1M, 3M, 6M -1M -3M -6M +1M +3M +6M
Jahre:    1J, 3J, 5J, 10J -1J -3J -5J -10J +1J +3J +5J +10J
Nutze für die Darstellung ... ?
Originaldaten oder Mittelwerte auf ...
Stundenbasis Tagesbasis Wochenbasis
Monatsbasis Jahresbasis      Datenbasis: Original-Daten
Darstellen als:
Statistik (Auto) Statistik J:M      Darstellung:
Zur Graphik,    zurück zur Übersicht aller Sensoren.
 
Tabellarische Datenbersicht: ?
 
Sensor: Nr:Datum:Temp:Abs-Feuchte:Windchill:Wind:
Aussen-T/F 1 21-12-2005 00:03:45 2.5 C 4.43 g/m*3 2.5 C 0 km/h
2 21-12-2005 00:13:45 2.6 C 4.46 g/m*3 2.6 C 0 km/h
3 21-12-2005 00:23:45 2.6 C 4.46 g/m*3 2.6 C 0 km/h
4 21-12-2005 00:33:44 2.5 C 4.48 g/m*3 2.5 C 0 km/h
5 21-12-2005 00:43:44 2.5 C 4.48 g/m*3 2.5 C 0 km/h
6 21-12-2005 00:53:45 2.5 C 4.48 g/m*3 2.5 C 0 km/h
7 21-12-2005 01:03:45 2.5 C 4.48 g/m*3 2.5 C 0 km/h
8 21-12-2005 01:13:45 2.5 C 4.54 g/m*3 2.5 C 0 km/h
9 21-12-2005 01:23:45 2.4 C 4.51 g/m*3 2.4 C 0 km/h
10 21-12-2005 01:33:45 2.4 C 4.51 g/m*3 2.4 C 0 km/h
11 21-12-2005 01:43:45 2.2 C 4.45 g/m*3 2.2 C 0 km/h
12 21-12-2005 01:53:45 2 C 4.45 g/m*3 2 C 0 km/h
13 21-12-2005 02:03:45 2.2 C 4.51 g/m*3 2.2 C 0 km/h
14 21-12-2005 02:13:45 2.3 C 4.54 g/m*3 2.3 C 0 km/h
15 21-12-2005 02:23:44 2.4 C 4.51 g/m*3 2.4 C 0 km/h
16 21-12-2005 02:33:44 2.4 C 4.51 g/m*3 2.4 C 0 km/h
17 21-12-2005 02:43:44 2.3 C 4.48 g/m*3 2.3 C 0 km/h
18 21-12-2005 02:54:46 2.3 C 4.48 g/m*3 2.3 C 0 km/h
19 21-12-2005 03:04:46 2.3 C 4.48 g/m*3 2.3 C 0 km/h
20 21-12-2005 03:14:46 2.3 C 4.48 g/m*3 2.3 C 0 km/h
21 21-12-2005 03:24:46 2.3 C 4.48 g/m*3 2.3 C 0 km/h
22 21-12-2005 03:34:46 2.3 C 4.48 g/m*3 2.3 C 0 km/h
23 21-12-2005 03:44:47 2.3 C 4.48 g/m*3 2.3 C 0 km/h
24 21-12-2005 03:54:47 2.3 C 4.48 g/m*3 2.3 C 0 km/h
25 21-12-2005 04:04:46 2.2 C 4.45 g/m*3 2.2 C 0 km/h
Sensor: Nr:Datum:Temp:Abs-Feuchte:Windchill:Wind:
Aussen-T/F 26 21-12-2005 04:14:47 2.2 C 4.51 g/m*3 2.2 C 0 km/h
27 21-12-2005 04:24:46 2.2 C 4.51 g/m*3 2.2 C 0 km/h
28 21-12-2005 04:34:46 2.2 C 4.51 g/m*3 2.2 C 0 km/h
29 21-12-2005 04:44:46 2.2 C 4.51 g/m*3 2.2 C 0 km/h
30 21-12-2005 04:54:46 2.2 C 4.51 g/m*3 2.2 C 0 km/h
31 21-12-2005 05:04:46 2.1 C 4.48 g/m*3 2.1 C 0 km/h
32 21-12-2005 05:14:46 2 C 4.45 g/m*3 2 C 0 km/h
33 21-12-2005 05:24:46 2 C 4.45 g/m*3 2 C 0 km/h
34 21-12-2005 05:34:46 1.8 C 4.44 g/m*3 1.8 C 0 km/h
35 21-12-2005 05:44:46 1.7 C 4.41 g/m*3 1.7 C 0 km/h
36 21-12-2005 05:54:46 1.6 C 4.38 g/m*3 1.6 C 0 km/h
37 21-12-2005 06:04:46 1.3 C 4.34 g/m*3 1.3 C 0 km/h
38 21-12-2005 06:14:46 1.4 C 4.43 g/m*3 1.4 C 0 km/h
39 21-12-2005 06:24:46 1.5 C 4.46 g/m*3 1.5 C 0 km/h
40 21-12-2005 06:34:47 1.7 C 4.52 g/m*3 1.7 C 0 km/h
41 21-12-2005 06:44:47 1.7 C 4.46 g/m*3 1.7 C 0 km/h
42 21-12-2005 06:54:47 1.8 C 4.49 g/m*3 1.8 C 0 km/h
43 21-12-2005 07:04:47 1.8 C 4.49 g/m*3 1.8 C 0 km/h
44 21-12-2005 07:14:47 1.9 C 4.47 g/m*3 1.9 C 0 km/h
45 21-12-2005 07:24:46 2 C 4.45 g/m*3 2 C 0 km/h
46 21-12-2005 07:34:46 2 C 4.45 g/m*3 2 C 0 km/h
47 21-12-2005 07:44:46 2 C 4.45 g/m*3 2 C 0 km/h
48 21-12-2005 07:54:47 1.9 C 4.47 g/m*3 1.9 C 0 km/h
49 21-12-2005 08:04:46 1.8 C 4.44 g/m*3 1.8 C 0 km/h
50 21-12-2005 08:14:46 1.9 C 4.47 g/m*3 1.9 C 0 km/h
Sensor: Nr:Datum:Temp:Abs-Feuchte:Windchill:Wind:
Aussen-T/F 51 21-12-2005 08:24:46 1.9 C 4.47 g/m*3 1.9 C 0 km/h
52 21-12-2005 08:34:47 1.9 C 4.42 g/m*3 1.9 C 0 km/h
53 21-12-2005 08:44:47 1.9 C 4.42 g/m*3 1.9 C 0 km/h
54 21-12-2005 08:54:47 2 C 4.39 g/m*3 2 C 0 km/h
55 21-12-2005 09:04:47 2 C 4.33 g/m*3 2 C 0 km/h
56 21-12-2005 09:14:47 2.1 C 4.36 g/m*3 2.1 C 0 km/h
57 21-12-2005 09:24:47 2.1 C 4.31 g/m*3 2.1 C 0 km/h
58 21-12-2005 09:34:46 2.1 C 4.31 g/m*3 2.1 C 0 km/h
59 21-12-2005 09:44:46 2.1 C 4.25 g/m*3 2.1 C 0 km/h
60 21-12-2005 09:54:47 2.3 C 4.31 g/m*3 2.3 C 0 km/h
61 21-12-2005 10:04:47 2.4 C 4.28 g/m*3 2.4 C 0 km/h
62 21-12-2005 10:14:47 2.5 C 4.31 g/m*3 2.5 C 0 km/h
63 21-12-2005 10:24:46 2.6 C 4.28 g/m*3 2.6 C 0 km/h
64 21-12-2005 10:34:47 2.7 C 4.31 g/m*3 2.7 C 0 km/h
65 21-12-2005 10:44:47 2.7 C 4.25 g/m*3 2.7 C 0 km/h
66 21-12-2005 10:54:46 2.7 C 4.25 g/m*3 2.7 C 0 km/h
67 21-12-2005 11:04:47 2.8 C 4.28 g/m*3 2.8 C 0 km/h
68 21-12-2005 11:14:47 3 C 4.28 g/m*3 3 C 0 km/h
69 21-12-2005 11:24:47 3.1 C 4.25 g/m*3 3.1 C 0 km/h
70 21-12-2005 11:34:47 3 C 4.22 g/m*3 3 C 0 km/h
71 21-12-2005 11:44:47 3 C 4.22 g/m*3 3 C 0 km/h
72 21-12-2005 11:54:47 3 C 4.22 g/m*3 3 C 0 km/h
73 21-12-2005 12:04:47 2.9 C 4.25 g/m*3 2.9 C 0 km/h
74 21-12-2005 12:14:47 3 C 4.28 g/m*3 3 C 0 km/h
75 21-12-2005 12:24:47 3.3 C 4.37 g/m*3 3.3 C 0 km/h
Sensor: Nr:Datum:Temp:Abs-Feuchte:Windchill:Wind:
Aussen-T/F 76 21-12-2005 12:34:47 3.3 C 4.31 g/m*3 3.3 C 0 km/h
77 21-12-2005 12:44:47 3.1 C 4.25 g/m*3 3.1 C 0 km/h
78 21-12-2005 12:54:47 3.2 C 4.28 g/m*3 3.2 C 0 km/h
79 21-12-2005 13:04:47 3.3 C 4.31 g/m*3 3.3 C 0 km/h
80 21-12-2005 13:14:47 3.2 C 4.28 g/m*3 3.2 C 0 km/h
81 21-12-2005 13:24:48 3.2 C 4.28 g/m*3 3.2 C 0 km/h
82 21-12-2005 13:34:47 3.3 C 4.25 g/m*3 3.3 C 0 km/h
83 21-12-2005 13:44:47 3.4 C 4.28 g/m*3 3.4 C 0 km/h
84 21-12-2005 13:54:48 3.6 C 4.33 g/m*3 3.6 C 0 km/h
85 21-12-2005 14:04:47 3.6 C 4.27 g/m*3 3.6 C 0 km/h
86 21-12-2005 14:14:48 3.6 C 4.27 g/m*3 3.6 C 0 km/h
87 21-12-2005 14:24:47 3.5 C 4.24 g/m*3 3.5 C 0 km/h
88 21-12-2005 14:34:47 3.5 C 4.24 g/m*3 3.5 C 0 km/h
89 21-12-2005 14:44:47 3.2 C 4.22 g/m*3 3.2 C 0 km/h
90 21-12-2005 14:54:47 3.1 C 4.25 g/m*3 3.1 C 0 km/h
91 21-12-2005 15:04:47 2.8 C 4.22 g/m*3 2.8 C 0 km/h
92 21-12-2005 15:14:47 2.7 C 4.31 g/m*3 2.7 C 0 km/h
93 21-12-2005 15:24:48 2.5 C 4.25 g/m*3 2.5 C 0 km/h
94 21-12-2005 15:34:48 2.4 C 4.28 g/m*3 2.4 C 0 km/h
95 21-12-2005 15:44:48 2.3 C 4.31 g/m*3 2.3 C 0 km/h
96 21-12-2005 15:54:48 2.1 C 4.25 g/m*3 2.1 C 0 km/h
97 21-12-2005 16:04:48 1.9 C 4.3 g/m*3 1.9 C 0 km/h
98 21-12-2005 16:14:48 1.6 C 4.22 g/m*3 1.6 C 0 km/h
99 21-12-2005 16:24:47 1.5 C 4.24 g/m*3 1.5 C 0 km/h
100 21-12-2005 16:34:47 1.2 C 4.16 g/m*3 1.2 C 0 km/h
Sensor: Nr:Datum:Temp:Abs-Feuchte:Windchill:Wind:
Aussen-T/F 101 21-12-2005 16:44:47 1.1 C 4.18 g/m*3 1.1 C 0 km/h
102 21-12-2005 16:54:47 0.9 C 4.18 g/m*3 0.9 C 0 km/h
103 21-12-2005 17:04:47 0.8 C 4.15 g/m*3 0.8 C 0 km/h
104 21-12-2005 17:14:47 0.8 C 4.15 g/m*3 0.8 C 0 km/h
105 21-12-2005 17:24:48 0.8 C 4.2 g/m*3 0.8 C 0 km/h
106 21-12-2005 17:34:48 1.1 C 4.29 g/m*3 1.1 C 0 km/h
107 21-12-2005 17:44:48 1.1 C 4.23 g/m*3 1.1 C 0 km/h
108 21-12-2005 17:54:47 1.2 C 4.26 g/m*3 1.2 C 0 km/h
109 21-12-2005 18:04:48 1.4 C 4.32 g/m*3 1.4 C 0 km/h
110 21-12-2005 18:14:48 1.5 C 4.3 g/m*3 1.5 C 0 km/h
111 21-12-2005 18:24:48 1.7 C 4.3 g/m*3 1.7 C 0 km/h
112 21-12-2005 18:34:48 1.7 C 4.3 g/m*3 1.7 C 0 km/h
113 21-12-2005 18:44:48 1.8 C 4.28 g/m*3 1.8 C 0 km/h
114 21-12-2005 18:54:48 1.8 C 4.28 g/m*3 1.8 C 0 km/h
115 21-12-2005 19:04:48 1.9 C 4.25 g/m*3 1.9 C 0 km/h
116 21-12-2005 19:14:48 1.8 C 4.22 g/m*3 1.8 C 0 km/h
117 21-12-2005 19:24:47 1.8 C 4.22 g/m*3 1.8 C 0 km/h
118 21-12-2005 19:34:48 1.8 C 4.22 g/m*3 1.8 C 0 km/h
119 21-12-2005 19:44:48 1.8 C 4.22 g/m*3 1.8 C 0 km/h
120 21-12-2005 19:54:47 1.9 C 4.25 g/m*3 1.9 C 0 km/h
121 21-12-2005 20:04:48 1.9 C 4.19 g/m*3 1.9 C 0 km/h
122 21-12-2005 20:14:48 1.9 C 4.19 g/m*3 1.9 C 0 km/h
123 21-12-2005 20:24:48 1.9 C 4.19 g/m*3 1.9 C 0 km/h
124 21-12-2005 20:34:48 2 C 4.17 g/m*3 2 C 0 km/h
125 21-12-2005 20:44:48 2.1 C 4.2 g/m*3 2.1 C 0 km/h
Sensor: Nr:Datum:Temp:Abs-Feuchte:Windchill:Wind:
Aussen-T/F 126 21-12-2005 20:54:48 2 C 4.17 g/m*3 2 C 0 km/h
127 21-12-2005 21:04:48 2.1 C 4.2 g/m*3 2.1 C 0 km/h
128 21-12-2005 21:14:48 2.1 C 4.2 g/m*3 2.1 C 0 km/h
129 21-12-2005 21:24:48 2.2 C 4.22 g/m*3 2.2 C 0 km/h
130 21-12-2005 21:34:49 2.2 C 4.22 g/m*3 2.2 C 0 km/h
131 21-12-2005 21:44:49 2.2 C 4.28 g/m*3 2.2 C 0 km/h
132 21-12-2005 21:54:48 2.2 C 4.22 g/m*3 2.2 C 0 km/h
133 21-12-2005 22:04:48 2.1 C 4.25 g/m*3 2.1 C 0 km/h
134 21-12-2005 22:14:48 2.2 C 4.28 g/m*3 2.2 C 0 km/h
135 21-12-2005 22:24:48 2.3 C 4.31 g/m*3 2.3 C 0 km/h
136 21-12-2005 22:34:48 2.3 C 4.31 g/m*3 2.3 C 0 km/h
137 21-12-2005 22:44:48 2.3 C 4.31 g/m*3 2.3 C 0 km/h
138 21-12-2005 22:54:49 2.3 C 4.31 g/m*3 2.3 C 0 km/h
139 21-12-2005 23:04:48 2.3 C 4.31 g/m*3 2.3 C 0 km/h
140 21-12-2005 23:14:48 2.4 C 4.34 g/m*3 2.4 C 0 km/h
141 21-12-2005 23:24:48 2.3 C 4.31 g/m*3 2.3 C 0 km/h
142 21-12-2005 23:34:48 2.4 C 4.34 g/m*3 2.4 C 0 km/h
143 21-12-2005 23:44:48 2.4 C 4.34 g/m*3 2.4 C 0 km/h
144 21-12-2005 23:54:48 2.4 C 4.34 g/m*3 2.4 C 0 km/h
145 22-12-2005 00:04:48 2.3 C 4.31 g/m*3 2.3 C 0 km/h
146 22-12-2005 00:14:48 2.2 C 4.34 g/m*3 2.2 C 0 km/h
147 22-12-2005 00:24:48 2.2 C 4.34 g/m*3 2.2 C 0 km/h
148 22-12-2005 00:34:49 2.2 C 4.34 g/m*3 2.2 C 0 km/h
149 22-12-2005 00:44:49 2.3 C 4.37 g/m*3 2.3 C 0 km/h
150 22-12-2005 00:54:48 2.3 C 4.31 g/m*3 2.3 C 0 km/h
Sensor: Nr:Datum:Temp:Abs-Feuchte:Windchill:Wind:
Aussen-T/F 151 22-12-2005 01:04:48 2.3 C 4.31 g/m*3 2.3 C 0 km/h
152 22-12-2005 01:14:48 2.3 C 4.31 g/m*3 2.3 C 0 km/h
153 22-12-2005 01:24:48 2.3 C 4.31 g/m*3 2.3 C 0 km/h
154 22-12-2005 01:34:48 2.2 C 4.28 g/m*3 2.2 C 0 km/h
155 22-12-2005 01:44:48 2.3 C 4.31 g/m*3 2.3 C 0 km/h
156 22-12-2005 01:54:48 2.3 C 4.31 g/m*3 2.3 C 0 km/h
157 22-12-2005 02:04:48 2.3 C 4.31 g/m*3 2.3 C 0 km/h
158 22-12-2005 02:14:48 2.4 C 4.34 g/m*3 2.4 C 0 km/h
159 22-12-2005 02:24:48 2.4 C 4.34 g/m*3 2.4 C 0 km/h
160 22-12-2005 02:34:48 2.4 C 4.34 g/m*3 2.4 C 0 km/h
161 22-12-2005 02:44:48 2.5 C 4.43 g/m*3 2.5 C 0 km/h
162 22-12-2005 02:55:50 2.5 C 4.37 g/m*3 2.5 C 0 km/h
163 22-12-2005 03:05:50 2.6 C 4.4 g/m*3 2.6 C 0 km/h
164 22-12-2005 03:15:50 2.7 C 4.43 g/m*3 2.7 C 0 km/h
165 22-12-2005 03:25:50 2.7 C 4.37 g/m*3 2.7 C 0 km/h
166 22-12-2005 03:35:50 2.7 C 4.37 g/m*3 2.7 C 0 km/h
167 22-12-2005 03:45:50 2.7 C 4.43 g/m*3 2.7 C 0 km/h
168 22-12-2005 03:55:50 2.8 C 4.46 g/m*3 2.8 C 0 km/h
169 22-12-2005 04:05:50 2.9 C 4.49 g/m*3 2.9 C 0 km/h
170 22-12-2005 04:15:50 3 C 4.46 g/m*3 3 C 0 km/h
171 22-12-2005 04:25:50 3 C 4.46 g/m*3 3 C 0 km/h
172 22-12-2005 04:35:50 3 C 4.52 g/m*3 3 C 0 km/h
173 22-12-2005 04:45:50 3 C 4.52 g/m*3 3 C 0 km/h
174 22-12-2005 04:55:50 3 C 4.52 g/m*3 3 C 0 km/h
175 22-12-2005 05:05:50 3 C 4.58 g/m*3 3 C 0 km/h
Sensor: Nr:Datum:Temp:Abs-Feuchte:Windchill:Wind:
Aussen-T/F 176 22-12-2005 05:15:51 3 C 4.64 g/m*3 3 C 0 km/h
177 22-12-2005 05:25:51 2.9 C 4.67 g/m*3 2.9 C 0 km/h
178 22-12-2005 05:35:51 2.7 C 4.66 g/m*3 2.7 C 0 km/h
179 22-12-2005 05:45:50 2.6 C 4.75 g/m*3 2.6 C 0 km/h
180 22-12-2005 05:55:50 2.3 C 4.76 g/m*3 2.3 C 0 km/h
181 22-12-2005 06:05:51 2.3 C 4.88 g/m*3 2.3 C 0 km/h
182 22-12-2005 06:15:51 2.3 C 4.88 g/m*3 2.3 C 0 km/h
183 22-12-2005 06:25:51 2.3 C 4.88 g/m*3 2.3 C 0 km/h
184 22-12-2005 06:35:50 2.3 C 4.88 g/m*3 2.3 C 0 km/h
185 22-12-2005 06:45:51 2.2 C 4.9 g/m*3 2.2 C 0 km/h
186 22-12-2005 06:55:51 2.3 C 4.93 g/m*3 2.3 C 0 km/h
187 22-12-2005 07:05:50 2.3 C 4.93 g/m*3 2.3 C 0 km/h
188 22-12-2005 07:15:50 2.3 C 4.93 g/m*3 2.3 C 0 km/h
189 22-12-2005 07:25:50 2.3 C 4.99 g/m*3 2.3 C 0 km/h
190 22-12-2005 07:35:50 2.3 C 4.99 g/m*3 2.3 C 0 km/h
191 22-12-2005 07:45:51 2.3 C 4.99 g/m*3 2.3 C 0 km/h
192 22-12-2005 07:55:51 2.3 C 4.99 g/m*3 2.3 C 0 km/h
193 22-12-2005 08:05:50 2.4 C 5.02 g/m*3 2.4 C 0 km/h
194 22-12-2005 08:15:50 2.4 C 5.02 g/m*3 2.4 C 0 km/h
195 22-12-2005 08:25:50 2.4 C 5.02 g/m*3 2.4 C 0 km/h
196 22-12-2005 08:35:51 2.4 C 5.02 g/m*3 2.4 C 0 km/h
197 22-12-2005 08:45:50 2.4 C 5.08 g/m*3 2.4 C 0 km/h
198 22-12-2005 08:55:50 2.4 C 5.02 g/m*3 2.4 C 0 km/h
199 22-12-2005 09:05:51 2.4 C 5.02 g/m*3 2.4 C 0 km/h
200 22-12-2005 09:15:51 2.5 C 5.06 g/m*3 2.5 C 0 km/h
Sensor: Nr:Datum:Temp:Abs-Feuchte:Windchill:Wind:
Aussen-T/F 201 22-12-2005 09:25:52 2.5 C 5.06 g/m*3 2.5 C 0 km/h
202 22-12-2005 09:35:51 2.5 C 5.06 g/m*3 2.5 C 0 km/h
203 22-12-2005 09:45:51 2.5 C 5.06 g/m*3 2.5 C 0 km/h
204 22-12-2005 09:55:51 2.5 C 5.06 g/m*3 2.5 C 0 km/h
205 22-12-2005 10:05:51 2.4 C 5.08 g/m*3 2.4 C 0 km/h
206 22-12-2005 10:15:51 2.5 C 5.12 g/m*3 2.5 C 0 km/h
207 22-12-2005 10:25:51 2.6 C 5.15 g/m*3 2.6 C 0 km/h
208 22-12-2005 10:35:51 2.7 C 5.19 g/m*3 2.7 C 0 km/h
209 22-12-2005 10:45:51 2.7 C 5.19 g/m*3 2.7 C 0 km/h
210 22-12-2005 10:55:51 2.7 C 5.19 g/m*3 2.7 C 0 km/h
211 22-12-2005 11:05:51 2.7 C 5.19 g/m*3 2.7 C 0 km/h
212 22-12-2005 11:15:51 2.8 C 5.22 g/m*3 2.8 C 0 km/h
213 22-12-2005 11:25:51 2.8 C 5.22 g/m*3 2.8 C 0 km/h
214 22-12-2005 11:35:51 2.9 C 5.26 g/m*3 2.9 C 0 km/h
215 22-12-2005 11:45:51 2.9 C 5.32 g/m*3 2.9 C 0 km/h
216 22-12-2005 11:55:51 2.9 C 5.32 g/m*3 2.9 C 0 km/h
217 22-12-2005 12:05:51 3 C 5.29 g/m*3 3 C 0 km/h
218 22-12-2005 12:15:51 3 C 5.29 g/m*3 3 C 0 km/h
219 22-12-2005 12:25:51 3 C 5.29 g/m*3 3 C 0 km/h
220 22-12-2005 12:35:51 3.1 C 5.33 g/m*3 3.1 C 0 km/h
221 22-12-2005 12:45:51 3.2 C 5.36 g/m*3 3.2 C 0 km/h
222 22-12-2005 12:55:51 3.2 C 5.36 g/m*3 3.2 C 0 km/h
223 22-12-2005 13:05:52 3.3 C 5.4 g/m*3 3.3 C 0 km/h
224 22-12-2005 13:15:51 3.3 C 5.4 g/m*3 3.3 C 0 km/h
225 22-12-2005 13:25:51 3.3 C 5.4 g/m*3 3.3 C 0 km/h
Sensor: Nr:Datum:Temp:Abs-Feuchte:Windchill:Wind:
Aussen-T/F 226 22-12-2005 13:35:51 3.2 C 5.36 g/m*3 3.2 C 0 km/h
227 22-12-2005 13:45:51 3.3 C 5.46 g/m*3 3.3 C 0 km/h
228 22-12-2005 13:55:51 3.3 C 5.46 g/m*3 3.3 C 0 km/h
229 22-12-2005 14:05:51 3.3 C 5.46 g/m*3 3.3 C 0 km/h
230 22-12-2005 14:15:51 3.3 C 5.52 g/m*3 3.3 C 0 km/h
231 22-12-2005 14:25:51 3.3 C 5.52 g/m*3 3.3 C 0 km/h
232 22-12-2005 14:35:52 3.5 C 5.6 g/m*3 3.5 C 0 km/h
233 22-12-2005 14:45:52 3.4 C 5.56 g/m*3 3.4 C 0 km/h
234 22-12-2005 14:55:52 3.5 C 5.6 g/m*3 3.5 C 0 km/h
235 22-12-2005 15:05:51 3.6 C 5.63 g/m*3 3.6 C 0 km/h
236 22-12-2005 15:15:51 3.6 C 5.57 g/m*3 3.6 C 0 km/h
237 22-12-2005 15:25:51 3.6 C 5.57 g/m*3 3.6 C 0 km/h
238 22-12-2005 15:35:51 3.7 C 5.61 g/m*3 3.7 C 0 km/h
239 22-12-2005 15:45:52 3.9 C 5.68 g/m*3 3.9 C 0 km/h
240 22-12-2005 15:55:52 3.8 C 5.65 g/m*3 3.8 C 0 km/h
241 22-12-2005 16:05:52 3.7 C 5.55 g/m*3 3.7 C 0 km/h
242 22-12-2005 16:15:51 3.7 C 5.55 g/m*3 3.7 C 0 km/h
243 22-12-2005 16:25:51 3.8 C 5.58 g/m*3 3.8 C 0 km/h
244 22-12-2005 16:35:51 3.7 C 5.55 g/m*3 3.7 C 0 km/h
245 22-12-2005 16:45:51 3.7 C 5.55 g/m*3 3.7 C 0 km/h
246 22-12-2005 16:55:51 3.7 C 5.55 g/m*3 3.7 C 0 km/h
247 22-12-2005 17:05:52 3.7 C 5.55 g/m*3 3.7 C 0 km/h
248 22-12-2005 17:15:52 3.6 C 5.51 g/m*3 3.6 C 0 km/h
249 22-12-2005 17:25:52 3.6 C 5.51 g/m*3 3.6 C 0 km/h
250 22-12-2005 17:35:52 3.6 C 5.45 g/m*3 3.6 C 0 km/h
Sensor: Nr:Datum:Temp:Abs-Feuchte:Windchill:Wind:
Aussen-T/F 251 22-12-2005 17:45:52 3.5 C 5.41 g/m*3 3.5 C 0 km/h
252 22-12-2005 17:55:52 3.6 C 5.45 g/m*3 3.6 C 0 km/h
253 22-12-2005 18:05:52 3.6 C 5.45 g/m*3 3.6 C 0 km/h
254 22-12-2005 18:15:52 3.5 C 5.41 g/m*3 3.5 C 0 km/h
255 22-12-2005 18:25:52 3.5 C 5.41 g/m*3 3.5 C 0 km/h
256 22-12-2005 18:35:51 3.5 C 5.35 g/m*3 3.5 C 0 km/h
257 22-12-2005 18:45:51 3.4 C 5.31 g/m*3 3.4 C 0 km/h
258 22-12-2005 18:55:51 3.5 C 5.35 g/m*3 3.5 C 0 km/h
259 22-12-2005 19:05:52 3.4 C 5.31 g/m*3 3.4 C 0 km/h
260 22-12-2005 19:15:52 3.5 C 5.35 g/m*3 3.5 C 0 km/h
261 22-12-2005 19:25:52 3.4 C 5.31 g/m*3 3.4 C 0 km/h
262 22-12-2005 19:35:52 3.4 C 5.31 g/m*3 3.4 C 0 km/h
263 22-12-2005 19:45:52 3.4 C 5.31 g/m*3 3.4 C 0 km/h
264 22-12-2005 19:55:52 3.4 C 5.31 g/m*3 3.4 C 0 km/h
265 22-12-2005 20:05:52 3.4 C 5.31 g/m*3 3.4 C 0 km/h
266 22-12-2005 20:15:52 3.4 C 5.31 g/m*3 3.4 C 0 km/h
267 22-12-2005 20:25:52 3.4 C 5.31 g/m*3 3.4 C 0 km/h
268 22-12-2005 20:35:52 3.4 C 5.31 g/m*3 3.4 C 0 km/h
269 22-12-2005 20:45:51 3.4 C 5.31 g/m*3 3.4 C 0 km/h
270 22-12-2005 20:55:51 3.5 C 5.35 g/m*3 3.5 C 0 km/h
271 22-12-2005 21:05:52 3.5 C 5.35 g/m*3 3.5 C 0 km/h
272 22-12-2005 21:15:52 3.4 C 5.25 g/m*3 3.4 C 0 km/h
273 22-12-2005 21:25:52 3.5 C 5.29 g/m*3 3.5 C 0 km/h
274 22-12-2005 21:35:52 3.5 C 5.29 g/m*3 3.5 C 0 km/h
275 22-12-2005 21:45:52 3.5 C 5.29 g/m*3 3.5 C 0 km/h
Sensor: Nr:Datum:Temp:Abs-Feuchte:Windchill:Wind:
Aussen-T/F 276 22-12-2005 21:55:52 3.5 C 5.29 g/m*3 3.5 C 0 km/h
277 22-12-2005 22:05:52 3.5 C 5.29 g/m*3 3.5 C 0 km/h
278 22-12-2005 22:15:52 3.3 C 5.22 g/m*3 3.3 C 0 km/h
279 22-12-2005 22:25:52 3.2 C 5.24 g/m*3 3.2 C 0 km/h
280 22-12-2005 22:35:52 3.1 C 5.27 g/m*3 3.1 C 0 km/h
281 22-12-2005 22:45:52 3.2 C 5.3 g/m*3 3.2 C 0 km/h
282 22-12-2005 22:55:52 3.1 C 5.33 g/m*3 3.1 C 0 km/h
283 22-12-2005 23:05:53 3.2 C 5.36 g/m*3 3.2 C 0 km/h
284 22-12-2005 23:15:52 3.2 C 5.36 g/m*3 3.2 C 0 km/h
285 22-12-2005 23:25:52 3.1 C 5.33 g/m*3 3.1 C 0 km/h
286 22-12-2005 23:35:52 3.1 C 5.33 g/m*3 3.1 C 0 km/h
287 22-12-2005 23:45:52 3.1 C 5.39 g/m*3 3.1 C 0 km/h
288 22-12-2005 23:55:52 3.2 C 5.42 g/m*3 3.2 C 0 km/h
289 23-12-2005 00:05:52 3.2 C 5.42 g/m*3 3.2 C 0 km/h
290 23-12-2005 00:15:53 3.2 C 5.42 g/m*3 3.2 C 0 km/h
291 23-12-2005 00:25:53 3.3 C 5.46 g/m*3 3.3 C 0 km/h
292 23-12-2005 00:35:52 3.3 C 5.46 g/m*3 3.3 C 0 km/h
293 23-12-2005 00:45:52 3.3 C 5.46 g/m*3 3.3 C 0 km/h
294 23-12-2005 00:55:52 3.3 C 5.46 g/m*3 3.3 C 0 km/h
295 23-12-2005 01:05:52 3.3 C 5.46 g/m*3 3.3 C 0 km/h
296 23-12-2005 01:15:53 3.3 C 5.46 g/m*3 3.3 C 0 km/h
297 23-12-2005 01:25:53 3.5 C 5.53 g/m*3 3.5 C 0 km/h
298 23-12-2005 01:35:53 3.4 C 5.5 g/m*3 3.4 C 0 km/h
299 23-12-2005 01:45:52 3.5 C 5.53 g/m*3 3.5 C 0 km/h
300 23-12-2005 01:55:52 3.5 C 5.47 g/m*3 3.5 C 0 km/h
Sensor: Nr:Datum:Temp:Abs-Feuchte:Windchill:Wind:
Aussen-T/F 301 23-12-2005 02:05:52 3.6 C 5.51 g/m*3 3.6 C 0 km/h
302 23-12-2005 02:15:52 3.5 C 5.47 g/m*3 3.5 C 0 km/h
303 23-12-2005 02:25:52 3.6 C 5.51 g/m*3 3.6 C 0 km/h
304 23-12-2005 02:35:52 3.6 C 5.51 g/m*3 3.6 C 0 km/h
305 23-12-2005 02:46:54 3.6 C 5.51 g/m*3 3.6 C 0 km/h
306 23-12-2005 02:56:54 3.7 C 5.55 g/m*3 3.7 C 0 km/h
307 23-12-2005 03:06:54 3.7 C 5.55 g/m*3 3.7 C 0 km/h
308 23-12-2005 03:16:54 3.7 C 5.48 g/m*3 3.7 C 0 km/h
309 23-12-2005 03:26:55 3.8 C 5.52 g/m*3 3.8 C 0 km/h
310 23-12-2005 03:36:54 3.8 C 5.52 g/m*3 3.8 C 0 km/h
311 23-12-2005 03:46:54 3.9 C 5.56 g/m*3 3.9 C 0 km/h
312 23-12-2005 03:56:54 3.8 C 5.52 g/m*3 3.8 C 0 km/h
313 23-12-2005 04:06:55 3.8 C 5.58 g/m*3 3.8 C 0 km/h
314 23-12-2005 04:16:54 3.8 C 5.58 g/m*3 3.8 C 0 km/h
315 23-12-2005 04:26:54 3.8 C 5.58 g/m*3 3.8 C 0 km/h
316 23-12-2005 04:36:54 3.8 C 5.58 g/m*3 3.8 C 0 km/h
317 23-12-2005 04:46:54 3.8 C 5.65 g/m*3 3.8 C 0 km/h
318 23-12-2005 04:56:54 3.9 C 5.68 g/m*3 3.9 C 0 km/h
319 23-12-2005 05:06:54 3.8 C 5.65 g/m*3 3.8 C 0 km/h
320 23-12-2005 05:16:54 3.8 C 5.65 g/m*3 3.8 C 0 km/h
321 23-12-2005 05:26:54 3.9 C 5.68 g/m*3 3.9 C 0 km/h
322 23-12-2005 05:36:54 3.9 C 5.68 g/m*3 3.9 C 0 km/h
323 23-12-2005 05:46:54 3.9 C 5.68 g/m*3 3.9 C 0 km/h
324 23-12-2005 05:56:54 4 C 5.72 g/m*3 4 C 0 km/h
325 23-12-2005 06:06:54 4 C 5.66 g/m*3 4 C 0 km/h
Sensor: Nr:Datum:Temp:Abs-Feuchte:Windchill:Wind:
Aussen-T/F 326 23-12-2005 06:16:54 4 C 5.66 g/m*3 4 C 0 km/h
327 23-12-2005 06:26:54 4.1 C 5.7 g/m*3 4.1 C 0 km/h
328 23-12-2005 06:36:55 4.1 C 5.7 g/m*3 4.1 C 0 km/h
329 23-12-2005 06:46:55 4.1 C 5.7 g/m*3 4.1 C 0 km/h
330 23-12-2005 06:56:55 4.1 C 5.7 g/m*3 4.1 C 0 km/h
331 23-12-2005 07:06:55 4.1 C 5.7 g/m*3 4.1 C 0 km/h
332 23-12-2005 07:16:54 4.2 C 5.73 g/m*3 4.2 C 0 km/h
333 23-12-2005 07:26:54 4.2 C 5.73 g/m*3 4.2 C 0 km/h
334 23-12-2005 07:36:54 4.2 C 5.67 g/m*3 4.2 C 0 km/h
335 23-12-2005 07:46:54 4.2 C 5.67 g/m*3 4.2 C 0 km/h
336 23-12-2005 07:56:54 4.2 C 5.67 g/m*3 4.2 C 0 km/h
337 23-12-2005 08:06:54 4.2 C 5.67 g/m*3 4.2 C 0 km/h
338 23-12-2005 08:16:55 4.3 C 5.64 g/m*3 4.3 C 0 km/h
339 23-12-2005 08:26:55 4.3 C 5.64 g/m*3 4.3 C 0 km/h
340 23-12-2005 08:36:55 4.4 C 5.62 g/m*3 4.4 C 0 km/h
341 23-12-2005 08:46:55 4.4 C 5.62 g/m*3 4.4 C 0 km/h
342 23-12-2005 08:56:55 4.4 C 5.62 g/m*3 4.4 C 0 km/h
343 23-12-2005 09:06:55 4.4 C 5.62 g/m*3 4.4 C 0 km/h
344 23-12-2005 09:16:55 4.4 C 5.62 g/m*3 4.4 C 0 km/h
345 23-12-2005 09:26:55 4.5 C 5.65 g/m*3 4.5 C 0 km/h
346 23-12-2005 09:36:54 4.6 C 5.62 g/m*3 4.6 C 0 km/h
347 23-12-2005 09:46:54 4.6 C 5.62 g/m*3 4.6 C 0 km/h
348 23-12-2005 09:56:54 4.7 C 5.6 g/m*3 4.7 C 0 km/h
349 23-12-2005 10:06:55 4.8 C 5.63 g/m*3 4.8 C 0 km/h
350 23-12-2005 10:16:55 4.8 C 5.63 g/m*3 4.8 C 0 km/h
Sensor: Nr:Datum:Temp:Abs-Feuchte:Windchill:Wind:
Aussen-T/F 351 23-12-2005 10:26:55 4.9 C 5.6 g/m*3 4.9 C 0 km/h
352 23-12-2005 10:36:55 5 C 5.57 g/m*3 5 C 0 km/h
353 23-12-2005 10:46:55 5 C 5.57 g/m*3 5 C 0 km/h
354 23-12-2005 10:56:55 5.1 C 5.61 g/m*3 5.1 C 0 km/h
355 23-12-2005 11:06:55 5.1 C 5.61 g/m*3 5.1 C 0 km/h
356 23-12-2005 11:16:55 5.1 C 5.61 g/m*3 5.1 C 0 km/h
357 23-12-2005 11:26:55 5 C 5.57 g/m*3 5 C 0 km/h
358 23-12-2005 11:36:55 5.1 C 5.61 g/m*3 5.1 C 0 km/h
359 23-12-2005 11:46:55 5.1 C 5.61 g/m*3 5.1 C 0 km/h
360 23-12-2005 11:56:55 5.2 C 5.58 g/m*3 5.2 C 0 km/h
361 23-12-2005 12:06:55 5.3 C 5.61 g/m*3 5.3 C 0 km/h
362 23-12-2005 12:16:55 5.4 C 5.65 g/m*3 5.4 C 0 km/h
363 23-12-2005 12:26:55 5.4 C 5.58 g/m*3 5.4 C 0 km/h
364 23-12-2005 12:36:55 5.6 C 5.66 g/m*3 5.6 C 0 km/h
365 23-12-2005 12:46:55 5.6 C 5.59 g/m*3 5.6 C 0 km/h
366 23-12-2005 12:56:55 5.5 C 5.55 g/m*3 5.5 C 0 km/h
367 23-12-2005 13:06:55 5.5 C 5.55 g/m*3 5.5 C 0 km/h
368 23-12-2005 13:16:55 5.5 C 5.55 g/m*3 5.5 C 0 km/h
369 23-12-2005 13:26:55 5.6 C 5.66 g/m*3 5.6 C 0 km/h
370 23-12-2005 13:36:55 5.6 C 5.59 g/m*3 5.6 C 0 km/h
371 23-12-2005 13:46:55 5.7 C 5.69 g/m*3 5.7 C 0 km/h
372 23-12-2005 13:56:55 5.8 C 5.66 g/m*3 5.8 C 0 km/h
373 23-12-2005 14:06:55 5.8 C 5.66 g/m*3 5.8 C 0 km/h
374 23-12-2005 14:16:55 5.8 C 5.66 g/m*3 5.8 C 0 km/h
375 23-12-2005 14:26:55 5.8 C 5.66 g/m*3 5.8 C 0 km/h
Sensor: Nr:Datum:Temp:Abs-Feuchte:Windchill:Wind:
Aussen-T/F 376 23-12-2005 14:36:55 5.7 C 5.62 g/m*3 5.7 C 0 km/h
377 23-12-2005 14:46:56 5.8 C 5.66 g/m*3 5.8 C 0 km/h
378 23-12-2005 14:56:56 5.8 C 5.66 g/m*3 5.8 C 0 km/h
379 23-12-2005 15:06:56 5.8 C 5.66 g/m*3 5.8 C 0 km/h
380 23-12-2005 15:16:55 5.8 C 5.66 g/m*3 5.8 C 0 km/h
381 23-12-2005 15:26:55 5.8 C 5.66 g/m*3 5.8 C 0 km/h
382 23-12-2005 15:36:55 5.8 C 5.66 g/m*3 5.8 C 0 km/h
383 23-12-2005 15:46:55 5.9 C 5.62 g/m*3 5.9 C 0 km/h
384 23-12-2005 15:56:55 5.9 C 5.62 g/m*3 5.9 C 0 km/h
385 23-12-2005 16:06:55 5.9 C 5.62 g/m*3 5.9 C 0 km/h
386 23-12-2005 16:16:56 5.8 C 5.59 g/m*3 5.8 C 0 km/h
387 23-12-2005 16:26:56 5.8 C 5.59 g/m*3 5.8 C 0 km/h
388 23-12-2005 16:36:56 5.8 C 5.59 g/m*3 5.8 C 0 km/h
389 23-12-2005 16:46:56 5.8 C 5.59 g/m*3 5.8 C 0 km/h
390 23-12-2005 16:56:56 5.9 C 5.62 g/m*3 5.9 C 0 km/h
391 23-12-2005 17:06:56 5.9 C 5.62 g/m*3 5.9 C 0 km/h
392 23-12-2005 17:16:55 5.9 C 5.62 g/m*3 5.9 C 0 km/h
393 23-12-2005 17:26:55 5.9 C 5.62 g/m*3 5.9 C 0 km/h
394 23-12-2005 17:36:55 5.9 C 5.62 g/m*3 5.9 C 0 km/h
395 23-12-2005 17:46:55 5.8 C 5.59 g/m*3 5.8 C 0 km/h
396 23-12-2005 17:56:55 5.8 C 5.59 g/m*3 5.8 C 0 km/h
397 23-12-2005 18:06:55 5.8 C 5.66 g/m*3 5.8 C 0 km/h
398 23-12-2005 18:16:56 5.7 C 5.62 g/m*3 5.7 C 0 km/h
399 23-12-2005 18:26:56 5.6 C 5.59 g/m*3 5.6 C 0 km/h
400 23-12-2005 18:36:56 5.6 C 5.59 g/m*3 5.6 C 0 km/h
Sensor: Nr:Datum:Temp:Abs-Feuchte:Windchill:Wind:
Aussen-T/F 401 23-12-2005 18:46:56 5.6 C 5.59 g/m*3 5.6 C 0 km/h
402 23-12-2005 18:56:56 5.6 C 5.59 g/m*3 5.6 C 0 km/h
403 23-12-2005 19:06:56 5.6 C 5.59 g/m*3 5.6 C 0 km/h
404 23-12-2005 19:16:56 5.7 C 5.62 g/m*3 5.7 C 0 km/h
405 23-12-2005 19:26:56 5.8 C 5.59 g/m*3 5.8 C 0 km/h
406 23-12-2005 19:36:55 5.8 C 5.59 g/m*3 5.8 C 0 km/h
407 23-12-2005 19:46:56 5.8 C 5.52 g/m*3 5.8 C 0 km/h
408 23-12-2005 19:56:56 5.8 C 5.52 g/m*3 5.8 C 0 km/h
409 23-12-2005 20:06:55 5.8 C 5.52 g/m*3 5.8 C 0 km/h
410 23-12-2005 20:16:56 5.8 C 5.52 g/m*3 5.8 C 0 km/h
411 23-12-2005 20:26:56 5.8 C 5.44 g/m*3 5.8 C 0 km/h
412 23-12-2005 20:36:56 5.8 C 5.52 g/m*3 5.8 C 0 km/h
413 23-12-2005 20:46:56 5.8 C 5.52 g/m*3 5.8 C 0 km/h
414 23-12-2005 20:56:56 5.8 C 5.52 g/m*3 5.8 C 0 km/h
415 23-12-2005 21:06:56 5.8 C 5.52 g/m*3 5.8 C 0 km/h
416 23-12-2005 21:16:56 5.8 C 5.52 g/m*3 5.8 C 0 km/h
417 23-12-2005 21:26:56 5.8 C 5.52 g/m*3 5.8 C 0 km/h
418 23-12-2005 21:36:56 5.8 C 5.52 g/m*3 5.8 C 0 km/h
419 23-12-2005 21:46:56 5.7 C 5.48 g/m*3 5.7 C 0 km/h
420 23-12-2005 21:56:56 5.6 C 5.44 g/m*3 5.6 C 0 km/h
421 23-12-2005 22:06:56 5.7 C 5.48 g/m*3 5.7 C 0 km/h
422 23-12-2005 22:16:56 5.7 C 5.41 g/m*3 5.7 C 0 km/h
423 23-12-2005 22:26:56 5.7 C 5.41 g/m*3 5.7 C 0 km/h
424 23-12-2005 22:36:56 5.6 C 5.37 g/m*3 5.6 C 0 km/h
425 23-12-2005 22:46:56 5.6 C 5.37 g/m*3 5.6 C 0 km/h
Sensor: Nr:Datum:Temp:Abs-Feuchte:Windchill:Wind:
Aussen-T/F 426 23-12-2005 22:56:56 5.6 C 5.37 g/m*3 5.6 C 0 km/h
427 23-12-2005 23:06:56 5.6 C 5.37 g/m*3 5.6 C 0 km/h
428 23-12-2005 23:16:56 5.6 C 5.44 g/m*3 5.6 C 0 km/h
429 23-12-2005 23:26:56 5.6 C 5.44 g/m*3 5.6 C 0 km/h
430 23-12-2005 23:36:56 5.6 C 5.44 g/m*3 5.6 C 0 km/h
431 23-12-2005 23:46:56 5.6 C 5.37 g/m*3 5.6 C 0 km/h
432 23-12-2005 23:56:56 5.6 C 5.37 g/m*3 5.6 C 0 km/h
433 24-12-2005 00:06:56 5.6 C 5.3 g/m*3 5.6 C 0 km/h
434 24-12-2005 00:16:56 5.7 C 5.34 g/m*3 5.7 C 0 km/h
435 24-12-2005 00:26:56 5.6 C 5.3 g/m*3 5.6 C 0 km/h
436 24-12-2005 00:36:57 5.6 C 5.3 g/m*3 5.6 C 0 km/h
437 24-12-2005 00:46:57 5.5 C 5.27 g/m*3 5.5 C 0 km/h
438 24-12-2005 00:56:57 5.5 C 5.27 g/m*3 5.5 C 0 km/h
439 24-12-2005 01:06:56 5.6 C 5.3 g/m*3 5.6 C 0 km/h
440 24-12-2005 01:16:56 5.6 C 5.23 g/m*3 5.6 C 0 km/h
441 24-12-2005 01:26:56 5.6 C 5.23 g/m*3 5.6 C 0 km/h
442 24-12-2005 01:36:56 5.5 C 5.2 g/m*3 5.5 C 0 km/h
443 24-12-2005 01:46:56 5.6 C 5.23 g/m*3 5.6 C 0 km/h
444 24-12-2005 01:56:56 5.6 C 5.23 g/m*3 5.6 C 0 km/h
445 24-12-2005 02:06:56 5.6 C 5.23 g/m*3 5.6 C 0 km/h
446 24-12-2005 02:16:56 5.6 C 5.23 g/m*3 5.6 C 0 km/h
447 24-12-2005 02:26:56 5.6 C 5.23 g/m*3 5.6 C 0 km/h
448 24-12-2005 02:36:56 5.7 C 5.19 g/m*3 5.7 C 0 km/h
449 24-12-2005 02:47:59 5.6 C 5.23 g/m*3 5.6 C 0 km/h
450 24-12-2005 02:57:59 5.5 C 5.27 g/m*3 5.5 C 0 km/h
Sensor: Nr:Datum:Temp:Abs-Feuchte:Windchill:Wind:
Aussen-T/F 451 24-12-2005 03:07:59 5.6 C 5.23 g/m*3 5.6 C 0 km/h
452 24-12-2005 03:17:58 5.6 C 5.23 g/m*3 5.6 C 0 km/h
453 24-12-2005 03:27:58 5.6 C 5.23 g/m*3 5.6 C 0 km/h
454 24-12-2005 03:37:58 5.5 C 5.27 g/m*3 5.5 C 0 km/h
455 24-12-2005 03:47:58 5.5 C 5.27 g/m*3 5.5 C 0 km/h
456 24-12-2005 03:57:58 5.4 C 5.3 g/m*3 5.4 C 0 km/h
457 24-12-2005 04:07:58 5.4 C 5.3 g/m*3 5.4 C 0 km/h
458 24-12-2005 04:17:58 5.4 C 5.3 g/m*3 5.4 C 0 km/h
459 24-12-2005 04:27:58 5.3 C 5.34 g/m*3 5.3 C 0 km/h
460 24-12-2005 04:37:58 5.1 C 5.47 g/m*3 5.1 C 0 km/h
461 24-12-2005 04:47:58 5 C 5.57 g/m*3 5 C 0 km/h
462 24-12-2005 04:57:58 5.1 C 5.61 g/m*3 5.1 C 0 km/h
463 24-12-2005 05:07:58 5.1 C 5.61 g/m*3 5.1 C 0 km/h
464 24-12-2005 05:17:58 5.1 C 5.61 g/m*3 5.1 C 0 km/h
465 24-12-2005 05:27:58 5.2 C 5.65 g/m*3 5.2 C 0 km/h
466 24-12-2005 05:37:59 5.2 C 5.58 g/m*3 5.2 C 0 km/h
467 24-12-2005 05:47:58 5.2 C 5.58 g/m*3 5.2 C 0 km/h
468 24-12-2005 05:57:58 5.2 C 5.58 g/m*3 5.2 C 0 km/h
469 24-12-2005 06:07:58 5.2 C 5.58 g/m*3 5.2 C 0 km/h
470 24-12-2005 06:17:59 5.3 C 5.54 g/m*3 5.3 C 0 km/h
471 24-12-2005 06:27:59 5.4 C 5.58 g/m*3 5.4 C 0 km/h
472 24-12-2005 06:37:59 5.3 C 5.48 g/m*3 5.3 C 0 km/h
473 24-12-2005 06:47:59 5.3 C 5.48 g/m*3 5.3 C 0 km/h
474 24-12-2005 06:57:59 5.4 C 5.51 g/m*3 5.4 C 0 km/h
475 24-12-2005 07:07:58 5.3 C 5.48 g/m*3 5.3 C 0 km/h
Sensor: Nr:Datum:Temp:Abs-Feuchte:Windchill:Wind:
Aussen-T/F 476 24-12-2005 07:17:58 5.3 C 5.48 g/m*3 5.3 C 0 km/h
477 24-12-2005 07:27:58 5.3 C 5.48 g/m*3 5.3 C 0 km/h
478 24-12-2005 07:37:58 5.3 C 5.48 g/m*3 5.3 C 0 km/h
479 24-12-2005 07:47:58 5.3 C 5.48 g/m*3 5.3 C 0 km/h
480 24-12-2005 07:57:58 5.3 C 5.48 g/m*3 5.3 C 0 km/h
481 24-12-2005 08:07:58 5.3 C 5.48 g/m*3 5.3 C 0 km/h
482 24-12-2005 08:17:59 5.4 C 5.44 g/m*3 5.4 C 0 km/h
483 24-12-2005 08:27:59 5.4 C 5.44 g/m*3 5.4 C 0 km/h
484 24-12-2005 08:37:59 5.4 C 5.44 g/m*3 5.4 C 0 km/h
485 24-12-2005 08:47:59 5.4 C 5.44 g/m*3 5.4 C 0 km/h
486 24-12-2005 08:57:59 5.4 C 5.44 g/m*3 5.4 C 0 km/h
487 24-12-2005 09:07:59 5.5 C 5.48 g/m*3 5.5 C 0 km/h
488 24-12-2005 09:17:59 5.5 C 5.48 g/m*3 5.5 C 0 km/h
489 24-12-2005 09:28:00 5.6 C 5.51 g/m*3 5.6 C 0 km/h
490 24-12-2005 09:37:59 5.7 C 5.55 g/m*3 5.7 C 0 km/h
491 24-12-2005 09:47:59 5.9 C 5.55 g/m*3 5.9 C 0 km/h
492 24-12-2005 09:57:59 5.8 C 5.52 g/m*3 5.8 C 0 km/h
493 24-12-2005 10:07:59 5.8 C 5.52 g/m*3 5.8 C 0 km/h
494 24-12-2005 10:17:59 5.9 C 5.48 g/m*3 5.9 C 0 km/h
495 24-12-2005 10:27:59 6 C 5.44 g/m*3 6 C 0 km/h
496 24-12-2005 10:37:59 6.3 C 5.48 g/m*3 6.3 C 0 km/h
497 24-12-2005 10:47:59 6.3 C 5.48 g/m*3 6.3 C 0 km/h
498 24-12-2005 10:57:59 6.3 C 5.48 g/m*3 6.3 C 0 km/h
499 24-12-2005 11:07:00 6.3 C 5.48 g/m*3 6.3 C 0 km/h
500 24-12-2005 11:17:59 6.2 C 5.52 g/m*3 6.2 C 0 km/h
Sensor: Nr:Datum:Temp:Abs-Feuchte:Windchill:Wind:
Aussen-T/F 501 24-12-2005 11:27:59 6.5 C 5.55 g/m*3 6.5 C 0 km/h
502 24-12-2005 11:37:59 6.6 C 5.59 g/m*3 6.6 C 0 km/h
503 24-12-2005 11:47:59 6.7 C 5.62 g/m*3 6.7 C 0 km/h
504 24-12-2005 11:57:59 6.7 C 5.55 g/m*3 6.7 C 0 km/h
505 24-12-2005 12:07:59 6.8 C 5.58 g/m*3 6.8 C 0 km/h
506 24-12-2005 12:17:59 6.8 C 5.58 g/m*3 6.8 C 0 km/h
507 24-12-2005 12:27:59 6.8 C 5.58 g/m*3 6.8 C 0 km/h
508 24-12-2005 12:36:59 6.9 C 5.62 g/m*3 6.9 C 0 km/h
509 24-12-2005 12:47:59 7 C 5.58 g/m*3 7 C 0 km/h
510 24-12-2005 12:57:59 6.9 C 5.62 g/m*3 6.9 C 0 km/h
511 24-12-2005 13:07:59 6.9 C 5.62 g/m*3 6.9 C 0 km/h
512 24-12-2005 13:16:59 6.8 C 5.58 g/m*3 6.8 C 0 km/h
513 24-12-2005 13:26:59 6.7 C 5.55 g/m*3 6.7 C 0 km/h
514 24-12-2005 13:37:59 6.7 C 5.62 g/m*3 6.7 C 0 km/h
515 24-12-2005 13:47:59 6.7 C 5.62 g/m*3 6.7 C 0 km/h
516 24-12-2005 13:57:59 6.7 C 5.62 g/m*3 6.7 C 0 km/h
517 24-12-2005 14:07:59 6.7 C 5.62 g/m*3 6.7 C 0 km/h
518 24-12-2005 14:17:59 6.7 C 5.62 g/m*3 6.7 C 0 km/h
519 24-12-2005 14:27:59 6.7 C 5.62 g/m*3 6.7 C 0 km/h
520 24-12-2005 14:37:59 6.7 C 5.62 g/m*3 6.7 C 0 km/h
521 24-12-2005 14:47:59 6.7 C 5.62 g/m*3 6.7 C 0 km/h
522 24-12-2005 14:57:59 6.7 C 5.62 g/m*3 6.7 C 0 km/h
523 24-12-2005 15:07:59 6.6 C 5.66 g/m*3 6.6 C 0 km/h
524 24-12-2005 15:17:00 6.6 C 5.74 g/m*3 6.6 C 0 km/h
525 24-12-2005 15:27:00 6.6 C 5.74 g/m*3 6.6 C 0 km/h
Sensor: Nr:Datum:Temp:Abs-Feuchte:Windchill:Wind:
Aussen-T/F 526 24-12-2005 15:36:59 6.5 C 5.7 g/m*3 6.5 C 0 km/h
527 24-12-2005 15:47:59 6.5 C 5.7 g/m*3 6.5 C 0 km/h
528 24-12-2005 15:57:59 6.5 C 5.7 g/m*3 6.5 C 0 km/h
529 24-12-2005 16:07:00 6.4 C 5.74 g/m*3 6.4 C 0 km/h
530 24-12-2005 16:16:59 6.3 C 5.77 g/m*3 6.3 C 0 km/h
531 24-12-2005 16:26:59 6.2 C 5.81 g/m*3 6.2 C 0 km/h
532 24-12-2005 16:37:59 6.2 C 5.88 g/m*3 6.2 C 0 km/h
533 24-12-2005 16:47:00 6.2 C 5.88 g/m*3 6.2 C 0 km/h
534 24-12-2005 16:57:00 6.3 C 5.92 g/m*3 6.3 C 0 km/h
535 24-12-2005 17:07:00 6.3 C 5.85 g/m*3 6.3 C 0 km/h
536 24-12-2005 17:17:00 6.3 C 5.85 g/m*3 6.3 C 0 km/h
537 24-12-2005 17:27:00 6.3 C 5.85 g/m*3 6.3 C 0 km/h
538 24-12-2005 17:37:00 6.3 C 5.85 g/m*3 6.3 C 0 km/h
539 24-12-2005 17:47:00 6.3 C 5.85 g/m*3 6.3 C 0 km/h
540 24-12-2005 17:57:00 6.3 C 5.85 g/m*3 6.3 C 0 km/h
541 24-12-2005 18:07:00 6.2 C 5.81 g/m*3 6.2 C 0 km/h
542 24-12-2005 18:17:59 6.2 C 5.88 g/m*3 6.2 C 0 km/h
543 24-12-2005 18:26:59 6.1 C 5.84 g/m*3 6.1 C 0 km/h
544 24-12-2005 18:37:59 6.1 C 5.84 g/m*3 6.1 C 0 km/h
545 24-12-2005 18:47:59 6.2 C 5.88 g/m*3 6.2 C 0 km/h
546 24-12-2005 18:56:59 6.2 C 5.81 g/m*3 6.2 C 0 km/h
547 24-12-2005 19:07:59 6.2 C 5.81 g/m*3 6.2 C 0 km/h
548 24-12-2005 19:17:00 6.2 C 5.81 g/m*3 6.2 C 0 km/h
549 24-12-2005 19:27:00 6.2 C 5.74 g/m*3 6.2 C 0 km/h
550 24-12-2005 19:37:00 6.1 C 5.77 g/m*3 6.1 C 0 km/h
Sensor: Nr:Datum:Temp:Abs-Feuchte:Windchill:Wind:
Aussen-T/F 551 24-12-2005 19:47:00 6 C 5.73 g/m*3 6 C 0 km/h
552 24-12-2005 19:57:00 6 C 5.73 g/m*3 6 C 0 km/h
553 24-12-2005 20:07:00 6.1 C 5.7 g/m*3 6.1 C 0 km/h
554 24-12-2005 20:17:00 6.1 C 5.7 g/m*3 6.1 C 0 km/h
555 24-12-2005 20:27:00 6 C 5.73 g/m*3 6 C 0 km/h
556 24-12-2005 20:37:00 6 C 5.73 g/m*3 6 C 0 km/h
557 24-12-2005 20:47:00 6.1 C 5.7 g/m*3 6.1 C 0 km/h
558 24-12-2005 20:57:00 6.1 C 5.7 g/m*3 6.1 C 0 km/h
559 24-12-2005 21:07:00 6.1 C 5.7 g/m*3 6.1 C 0 km/h
560 24-12-2005 21:17:00 6 C 5.66 g/m*3 6 C 0 km/h
561 24-12-2005 21:27:00 6 C 5.73 g/m*3 6 C 0 km/h
562 24-12-2005 21:37:00 6 C 5.73 g/m*3 6 C 0 km/h
563 24-12-2005 21:47:00 5.9 C 5.77 g/m*3 5.9 C 0 km/h
564 24-12-2005 21:57:00 5.9 C 5.77 g/m*3 5.9 C 0 km/h
565 24-12-2005 22:07:00 5.9 C 5.77 g/m*3 5.9 C 0 km/h
566 24-12-2005 22:17:00 5.9 C 5.7 g/m*3 5.9 C 0 km/h
567 24-12-2005 22:27:00 5.8 C 5.73 g/m*3 5.8 C 0 km/h
568 24-12-2005 22:37:00 5.8 C 5.73 g/m*3 5.8 C 0 km/h
569 24-12-2005 22:47:00 5.8 C 5.66 g/m*3 5.8 C 0 km/h
570 24-12-2005 22:57:00 5.9 C 5.62 g/m*3 5.9 C 0 km/h
571 24-12-2005 23:07:00 5.9 C 5.55 g/m*3 5.9 C 0 km/h
572 24-12-2005 23:17:00 5.8 C 5.59 g/m*3 5.8 C 0 km/h
573 24-12-2005 23:27:00 5.9 C 5.55 g/m*3 5.9 C 0 km/h
574 24-12-2005 23:37:00 5.8 C 5.44 g/m*3 5.8 C 0 km/h
575 24-12-2005 23:47:00 5.9 C 5.62 g/m*3 5.9 C 0 km/h
Sensor: Nr:Datum:Temp:Abs-Feuchte:Windchill:Wind:
Aussen-T/F 576 24-12-2005 23:57:00 5.6 C 5.44 g/m*3 5.6 C 0 km/h
577 25-12-2005 00:07:01 5.7 C 5.48 g/m*3 5.7 C 0 km/h
578 25-12-2005 00:17:00 5.8 C 5.44 g/m*3 5.8 C 0 km/h
579 25-12-2005 00:27:00 5.8 C 5.37 g/m*3 5.8 C 0 km/h
580 25-12-2005 00:37:01 5.9 C 5.41 g/m*3 5.9 C 0 km/h
581 25-12-2005 00:47:01 5.9 C 5.48 g/m*3 5.9 C 0 km/h
582 25-12-2005 00:57:01 5.9 C 5.48 g/m*3 5.9 C 0 km/h
583 25-12-2005 01:07:01 5.9 C 5.48 g/m*3 5.9 C 0 km/h
584 25-12-2005 01:17:01 5.8 C 5.52 g/m*3 5.8 C 0 km/h
585 25-12-2005 01:27:01 5.9 C 5.55 g/m*3 5.9 C 0 km/h
586 25-12-2005 01:37:00 5.6 C 5.51 g/m*3 5.6 C 0 km/h
587 25-12-2005 01:47:01 5.5 C 5.48 g/m*3 5.5 C 0 km/h
588 25-12-2005 01:57:01 5.5 C 5.48 g/m*3 5.5 C 0 km/h
589 25-12-2005 02:07:00 5.7 C 5.55 g/m*3 5.7 C 0 km/h
590 25-12-2005 02:17:01 5.9 C 5.62 g/m*3 5.9 C 0 km/h
591 25-12-2005 02:27:01 5.9 C 5.48 g/m*3 5.9 C 0 km/h
592 25-12-2005 02:37:00 5.9 C 5.48 g/m*3 5.9 C 0 km/h
593 25-12-2005 02:48:02 5.9 C 5.41 g/m*3 5.9 C 0 km/h
594 25-12-2005 02:58:02 5.9 C 5.41 g/m*3 5.9 C 0 km/h
595 25-12-2005 03:08:02 5.9 C 5.41 g/m*3 5.9 C 0 km/h
596 25-12-2005 03:18:02 5.9 C 5.34 g/m*3 5.9 C 0 km/h
597 25-12-2005 03:28:03 5.9 C 5.34 g/m*3 5.9 C 0 km/h
598 25-12-2005 03:38:02 5.8 C 5.3 g/m*3 5.8 C 0 km/h
599 25-12-2005 03:48:02 5.8 C 5.3 g/m*3 5.8 C 0 km/h
600 25-12-2005 03:58:02 5.3 C 5.2 g/m*3 5.3 C 0 km/h
Sensor: Nr:Datum:Temp:Abs-Feuchte:Windchill:Wind:
Aussen-T/F 601 25-12-2005 04:08:02 5.1 C 5.2 g/m*3 5.1 C 0 km/h
602 25-12-2005 04:18:02 5.1 C 5.27 g/m*3 5.1 C 0 km/h
603 25-12-2005 04:28:02 5.3 C 5.27 g/m*3 5.3 C 0 km/h
604 25-12-2005 04:38:02 5.4 C 5.23 g/m*3 5.4 C 0 km/h
605 25-12-2005 04:48:02 5.3 C 5.2 g/m*3 5.3 C 0 km/h
606 25-12-2005 04:58:02 5.3 C 5.2 g/m*3 5.3 C 0 km/h
607 25-12-2005 05:08:02 5.2 C 5.16 g/m*3 5.2 C 0 km/h
608 25-12-2005 05:18:02 5 C 5.23 g/m*3 5 C 0 km/h
609 25-12-2005 05:28:02 5 C 5.23 g/m*3 5 C 0 km/h
610 25-12-2005 05:38:02 5 C 5.3 g/m*3 5 C 0 km/h
611 25-12-2005 05:48:02 4.9 C 5.33 g/m*3 4.9 C 0 km/h
612 25-12-2005 05:58:02 4.8 C 5.3 g/m*3 4.8 C 0 km/h
613 25-12-2005 06:08:01 4.8 C 5.36 g/m*3 4.8 C 0 km/h
614 25-12-2005 06:18:02 4.7 C 5.4 g/m*3 4.7 C 0 km/h
615 25-12-2005 06:28:02 4.7 C 5.4 g/m*3 4.7 C 0 km/h
616 25-12-2005 06:38:02 4.8 C 5.36 g/m*3 4.8 C 0 km/h
617 25-12-2005 06:48:02 4.8 C 5.36 g/m*3 4.8 C 0 km/h
618 25-12-2005 06:58:02 4.7 C 5.33 g/m*3 4.7 C 0 km/h
619 25-12-2005 07:08:02 4.8 C 5.36 g/m*3 4.8 C 0 km/h
620 25-12-2005 07:18:02 4.8 C 5.36 g/m*3 4.8 C 0 km/h
621 25-12-2005 07:28:02 4.7 C 5.33 g/m*3 4.7 C 0 km/h
622 25-12-2005 07:38:02 4.7 C 5.33 g/m*3 4.7 C 0 km/h
623 25-12-2005 07:48:02 4.6 C 5.36 g/m*3 4.6 C 0 km/h
624 25-12-2005 07:58:02 4.5 C 5.32 g/m*3 4.5 C 0 km/h
625 25-12-2005 08:08:02 4.5 C 5.39 g/m*3 4.5 C 0 km/h
Sensor: Nr:Datum:Temp:Abs-Feuchte:Windchill:Wind:
Aussen-T/F 626 25-12-2005 08:18:02 4.4 C 5.35 g/m*3 4.4 C 0 km/h
627 25-12-2005 08:28:02 4.5 C 5.32 g/m*3 4.5 C 0 km/h
628 25-12-2005 08:38:02 4.5 C 5.32 g/m*3 4.5 C 0 km/h
629 25-12-2005 08:48:02 4.5 C 5.26 g/m*3 4.5 C 0 km/h
630 25-12-2005 08:58:02 4.6 C 5.23 g/m*3 4.6 C 0 km/h
631 25-12-2005 09:08:02 4.5 C 5.26 g/m*3 4.5 C 0 km/h
632 25-12-2005 09:18:03 4.5 C 5.32 g/m*3 4.5 C 0 km/h
633 25-12-2005 09:28:03 4.5 C 5.39 g/m*3 4.5 C 0 km/h
634 25-12-2005 09:38:02 4.4 C 5.35 g/m*3 4.4 C 0 km/h
635 25-12-2005 09:48:03 4.5 C 5.46 g/m*3 4.5 C 0 km/h
636 25-12-2005 09:58:03 4.5 C 5.52 g/m*3 4.5 C 0 km/h
637 25-12-2005 10:08:02 4.5 C 5.59 g/m*3 4.5 C 0 km/h
638 25-12-2005 10:18:02 4.4 C 5.62 g/m*3 4.4 C 0 km/h
639 25-12-2005 10:28:02 4.5 C 5.72 g/m*3 4.5 C 0 km/h
640 25-12-2005 10:38:02 4.6 C 5.76 g/m*3 4.6 C 0 km/h
641 25-12-2005 10:48:02 4.7 C 5.8 g/m*3 4.7 C 0 km/h
642 25-12-2005 10:58:02 4.8 C 5.83 g/m*3 4.8 C 0 km/h
643 25-12-2005 11:08:02 4.8 C 5.83 g/m*3 4.8 C 0 km/h
644 25-12-2005 11:18:02 4.8 C 5.83 g/m*3 4.8 C 0 km/h
645 25-12-2005 11:28:02 4.9 C 5.87 g/m*3 4.9 C 0 km/h
646 25-12-2005 11:38:03 5.1 C 5.95 g/m*3 5.1 C 0 km/h
647 25-12-2005 11:48:03 5.2 C 5.92 g/m*3 5.2 C 0 km/h
648 25-12-2005 11:58:03 5.2 C 5.85 g/m*3 5.2 C 0 km/h
649 25-12-2005 12:08:03 5.7 C 6.12 g/m*3 5.7 C 0 km/h
650 25-12-2005 12:18:02 5.7 C 5.98 g/m*3 5.7 C 0 km/h
Sensor: Nr:Datum:Temp:Abs-Feuchte:Windchill:Wind:
Aussen-T/F 651 25-12-2005 12:28:02 6 C 6.02 g/m*3 6 C 0 km/h
652 25-12-2005 12:38:02 6.1 C 5.99 g/m*3 6.1 C 0 km/h
653 25-12-2005 12:48:02 6.3 C 6 g/m*3 6.3 C 0 km/h
654 25-12-2005 12:58:02 6.4 C 5.89 g/m*3 6.4 C 0 km/h
655 25-12-2005 13:08:02 6.4 C 5.81 g/m*3 6.4 C 0 km/h
656 25-12-2005 13:18:03 6.4 C 5.81 g/m*3 6.4 C 0 km/h
657 25-12-2005 13:28:03 6.4 C 5.59 g/m*3 6.4 C 0 km/h
658 25-12-2005 13:38:03 6.4 C 5.51 g/m*3 6.4 C 0 km/h
659 25-12-2005 13:48:02 6.3 C 5.33 g/m*3 6.3 C 0 km/h
660 25-12-2005 13:58:02 6.2 C 5.29 g/m*3 6.2 C 0 km/h
661 25-12-2005 14:08:03 6.1 C 5.19 g/m*3 6.1 C 0 km/h
662 25-12-2005 14:18:03 6 C 5.15 g/m*3 6 C 0 km/h
663 25-12-2005 14:28:03 6 C 5.3 g/m*3 6 C 0 km/h
664 25-12-2005 14:38:03 5.8 C 5.23 g/m*3 5.8 C 0 km/h
665 25-12-2005 14:48:03 5.6 C 5.3 g/m*3 5.6 C 0 km/h
666 25-12-2005 14:58:03 5.4 C 5.23 g/m*3 5.4 C 0 km/h
667 25-12-2005 15:08:03 5.2 C 5.16 g/m*3 5.2 C 0 km/h
668 25-12-2005 15:18:03 5 C 5.1 g/m*3 5 C 0 km/h
669 25-12-2005 15:28:03 4.9 C 5.06 g/m*3 4.9 C 0 km/h
670 25-12-2005 15:38:03 4.8 C 5.1 g/m*3 4.8 C 0 km/h
671 25-12-2005 15:48:03 5.2 C 5.1 g/m*3 5.2 C 0 km/h
672 25-12-2005 15:58:03 5.4 C 5.16 g/m*3 5.4 C 0 km/h
673 25-12-2005 16:08:03 5 C 4.89 g/m*3 5 C 0 km/h
674 25-12-2005 16:18:02 4.6 C 4.83 g/m*3 4.6 C 0 km/h
675 25-12-2005 16:28:02 4.2 C 4.77 g/m*3 4.2 C 0 km/h
Sensor: Nr:Datum:Temp:Abs-Feuchte:Windchill:Wind:
Aussen-T/F 676 25-12-2005 16:38:03 3.8 C 4.77 g/m*3 3.8 C 0 km/h
677 25-12-2005 16:48:03 3.3 C 4.73 g/m*3 3.3 C 0 km/h
678 25-12-2005 16:58:03 3.1 C 4.79 g/m*3 3.1 C 0 km/h
679 25-12-2005 17:08:03 3 C 4.76 g/m*3 3 C 0 km/h
680 25-12-2005 17:18:03 2.7 C 4.72 g/m*3 2.7 C 0 km/h
681 25-12-2005 17:28:03 2.5 C 4.71 g/m*3 2.5 C 0 km/h
682 25-12-2005 17:38:03 2.3 C 4.65 g/m*3 2.3 C 0 km/h
683 25-12-2005 17:48:03 2.2 C 4.62 g/m*3 2.2 C 0 km/h
684 25-12-2005 17:58:03 2.3 C 4.65 g/m*3 2.3 C 0 km/h
685 25-12-2005 18:08:03 2.3 C 4.65 g/m*3 2.3 C 0 km/h
686 25-12-2005 18:18:03 2.2 C 4.68 g/m*3 2.2 C 0 km/h
687 25-12-2005 18:28:03 2 C 4.61 g/m*3 2 C 0 km/h
688 25-12-2005 18:38:04 1.8 C 4.6 g/m*3 1.8 C 0 km/h
689 25-12-2005 18:48:03 1.6 C 4.54 g/m*3 1.6 C 0 km/h
690 25-12-2005 18:58:03 1.6 C 4.6 g/m*3 1.6 C 0 km/h
691 25-12-2005 19:08:04 1.5 C 4.62 g/m*3 1.5 C 0 km/h
692 25-12-2005 19:18:03 1.3 C 4.56 g/m*3 1.3 C 0 km/h
693 25-12-2005 19:28:03 1.2 C 4.53 g/m*3 1.2 C 0 km/h
694 25-12-2005 19:38:03 1.2 C 4.53 g/m*3 1.2 C 0 km/h
695 25-12-2005 19:48:03 1.1 C 4.55 g/m*3 1.1 C 0 km/h
696 25-12-2005 19:58:03 1.1 C 4.55 g/m*3 1.1 C 0 km/h
697 25-12-2005 20:08:03 1.1 C 4.6 g/m*3 1.1 C 0 km/h
698 25-12-2005 20:18:03 1.1 C 4.6 g/m*3 1.1 C 0 km/h
699 25-12-2005 20:28:03 1.2 C 4.63 g/m*3 1.2 C 0 km/h
700 25-12-2005 20:38:04 1.3 C 4.72 g/m*3 1.3 C 0 km/h
Sensor: Nr:Datum:Temp:Abs-Feuchte:Windchill:Wind:
Aussen-T/F 701 25-12-2005 20:48:03 1.5 C 4.78 g/m*3 1.5 C 0 km/h
702 25-12-2005 20:58:03 1.5 C 4.78 g/m*3 1.5 C 0 km/h
703 25-12-2005 21:08:04 1.5 C 4.83 g/m*3 1.5 C 0 km/h
704 25-12-2005 21:18:03 1.3 C 4.72 g/m*3 1.3 C 0 km/h
705 25-12-2005 21:28:03 1.3 C 4.72 g/m*3 1.3 C 0 km/h
706 25-12-2005 21:38:03 1.2 C 4.68 g/m*3 1.2 C 0 km/h
707 25-12-2005 21:48:03 1.1 C 4.65 g/m*3 1.1 C 0 km/h
708 25-12-2005 21:58:03 0.9 C 4.64 g/m*3 0.9 C 0 km/h
709 25-12-2005 22:08:03 1.2 C 4.74 g/m*3 1.2 C 0 km/h
710 25-12-2005 22:18:03 1.2 C 4.74 g/m*3 1.2 C 0 km/h
711 25-12-2005 22:28:03 0.9 C 4.64 g/m*3 0.9 C 0 km/h
712 25-12-2005 22:38:04 1.1 C 4.7 g/m*3 1.1 C 0 km/h
713 25-12-2005 22:48:03 1.4 C 4.85 g/m*3 1.4 C 0 km/h
714 25-12-2005 22:58:03 1.5 C 4.89 g/m*3 1.5 C 0 km/h
715 25-12-2005 23:08:03 1.4 C 4.85 g/m*3 1.4 C 0 km/h
716 25-12-2005 23:18:03 1.2 C 4.74 g/m*3 1.2 C 0 km/h
717 25-12-2005 23:28:03 1.3 C 4.77 g/m*3 1.3 C 0 km/h
718 25-12-2005 23:38:04 1.3 C 4.82 g/m*3 1.3 C 0 km/h
719 25-12-2005 23:48:03 1.3 C 4.77 g/m*3 1.3 C 0 km/h
720 25-12-2005 23:58:03 1.3 C 4.77 g/m*3 1.3 C 0 km/h
721 26-12-2005 00:08:04 1.4 C 4.85 g/m*3 1.4 C 0 km/h
722 26-12-2005 00:18:04 1.3 C 4.77 g/m*3 1.3 C 0 km/h
723 26-12-2005 00:28:04 1.3 C 4.77 g/m*3 1.3 C 0 km/h
724 26-12-2005 00:38:03 1.4 C 4.75 g/m*3 1.4 C 0 km/h
725 26-12-2005 00:48:04 1.4 C 4.75 g/m*3 1.4 C 0 km/h
Sensor: Nr:Datum:Temp:Abs-Feuchte:Windchill:Wind:
Aussen-T/F 726 26-12-2005 00:58:04 1.4 C 4.69 g/m*3 1.4 C 0 km/h
727 26-12-2005 01:08:04 1.4 C 4.64 g/m*3 1.4 C 0 km/h
728 26-12-2005 01:18:04 1.4 C 4.64 g/m*3 1.4 C 0 km/h
729 26-12-2005 01:28:04 1.3 C 4.61 g/m*3 1.3 C 0 km/h
730 26-12-2005 01:38:04 1.3 C 4.61 g/m*3 1.3 C 0 km/h
731 26-12-2005 01:48:04 1.2 C 4.63 g/m*3 1.2 C 0 km/h
732 26-12-2005 01:58:04 1.3 C 4.66 g/m*3 1.3 C 0 km/h
733 26-12-2005 02:08:04 1.3 C 4.66 g/m*3 1.3 C 0 km/h
734 26-12-2005 02:18:04 1.4 C 4.69 g/m*3 1.4 C 0 km/h
735 26-12-2005 02:28:04 1.5 C 4.67 g/m*3 1.5 C 0 km/h
736 26-12-2005 02:38:04 1.5 C 4.67 g/m*3 1.5 C 0 km/h
737 26-12-2005 02:49:05 1.5 C 4.62 g/m*3 1.5 C 0 km/h
738 26-12-2005 02:59:05 1.6 C 4.65 g/m*3 1.6 C 0 km/h
739 26-12-2005 03:09:05 1.6 C 4.65 g/m*3 1.6 C 0 km/h
740 26-12-2005 03:19:05 1.6 C 4.6 g/m*3 1.6 C 0 km/h
741 26-12-2005 03:29:06 1.7 C 4.57 g/m*3 1.7 C 0 km/h
742 26-12-2005 03:39:06 1.7 C 4.57 g/m*3 1.7 C 0 km/h
743 26-12-2005 03:49:06 1.7 C 4.57 g/m*3 1.7 C 0 km/h
744 26-12-2005 03:59:06 1.7 C 4.57 g/m*3 1.7 C 0 km/h
745 26-12-2005 04:09:05 1.7 C 4.57 g/m*3 1.7 C 0 km/h
746 26-12-2005 04:19:06 1.8 C 4.6 g/m*3 1.8 C 0 km/h
747 26-12-2005 04:29:06 1.8 C 4.6 g/m*3 1.8 C 0 km/h
748 26-12-2005 04:39:06 1.8 C 4.6 g/m*3 1.8 C 0 km/h
749 26-12-2005 04:49:06 1.8 C 4.6 g/m*3 1.8 C 0 km/h
750 26-12-2005 04:59:06 1.8 C 4.6 g/m*3 1.8 C 0 km/h
Sensor: Nr:Datum:Temp:Abs-Feuchte:Windchill:Wind:
Aussen-T/F 751 26-12-2005 05:09:06 1.8 C 4.66 g/m*3 1.8 C 0 km/h
752 26-12-2005 05:19:06 1.7 C 4.63 g/m*3 1.7 C 0 km/h
753 26-12-2005 05:29:06 1.7 C 4.68 g/m*3 1.7 C 0 km/h
754 26-12-2005 05:39:06 1.6 C 4.65 g/m*3 1.6 C 0 km/h
755 26-12-2005 05:49:06 1.7 C 4.74 g/m*3 1.7 C 0 km/h
756 26-12-2005 05:59:06 1.7 C 4.74 g/m*3 1.7 C 0 km/h
757 26-12-2005 06:09:05 1.8 C 4.82 g/m*3 1.8 C 0 km/h
758 26-12-2005 06:19:06 1.7 C 4.79 g/m*3 1.7 C 0 km/h
759 26-12-2005 06:29:06 1.8 C 4.82 g/m*3 1.8 C 0 km/h
760 26-12-2005 06:39:06 2 C 4.89 g/m*3 2 C 0 km/h
761 26-12-2005 06:49:06 2.1 C 4.87 g/m*3 2.1 C 0 km/h
762 26-12-2005 06:59:06 2.1 C 4.87 g/m*3 2.1 C 0 km/h
763 26-12-2005 07:09:06 2.3 C 4.93 g/m*3 2.3 C 0 km/h
764 26-12-2005 07:19:05 2.4 C 4.91 g/m*3 2.4 C 0 km/h
765 26-12-2005 07:29:05 2.4 C 4.85 g/m*3 2.4 C 0 km/h
766 26-12-2005 07:39:06 2.5 C 4.89 g/m*3 2.5 C 0 km/h
767 26-12-2005 07:49:06 2.5 C 4.89 g/m*3 2.5 C 0 km/h
768 26-12-2005 07:59:06 2.5 C 4.83 g/m*3 2.5 C 0 km/h
769 26-12-2005 08:09:06 2.5 C 4.83 g/m*3 2.5 C 0 km/h
770 26-12-2005 08:19:06 2.5 C 4.77 g/m*3 2.5 C 0 km/h
771 26-12-2005 08:29:06 2.5 C 4.77 g/m*3 2.5 C 0 km/h
772 26-12-2005 08:39:06 2.5 C 4.77 g/m*3 2.5 C 0 km/h
773 26-12-2005 08:49:06 2.4 C 4.74 g/m*3 2.4 C 0 km/h
774 26-12-2005 08:59:06 2.1 C 4.64 g/m*3 2.1 C 0 km/h
775 26-12-2005 09:09:06 1.9 C 4.64 g/m*3 1.9 C 0 km/h
Sensor: Nr:Datum:Temp:Abs-Feuchte:Windchill:Wind:
Aussen-T/F 776 26-12-2005 09:19:06 2 C 4.67 g/m*3 2 C 0 km/h
777 26-12-2005 09:29:06 1.9 C 4.64 g/m*3 1.9 C 0 km/h
778 26-12-2005 09:39:07 1.8 C 4.6 g/m*3 1.8 C 0 km/h
779 26-12-2005 09:49:06 1.6 C 4.54 g/m*3 1.6 C 0 km/h
780 26-12-2005 09:59:06 1.3 C 4.45 g/m*3 1.3 C 0 km/h
781 26-12-2005 10:09:06 1.2 C 4.42 g/m*3 1.2 C 0 km/h
782 26-12-2005 10:19:07 1.2 C 4.47 g/m*3 1.2 C 0 km/h
783 26-12-2005 10:29:07 1.2 C 4.47 g/m*3 1.2 C 0 km/h
784 26-12-2005 10:39:06 1.8 C 4.71 g/m*3 1.8 C 0 km/h
785 26-12-2005 10:49:06 2.3 C 4.65 g/m*3 2.3 C 0 km/h
786 26-12-2005 10:59:06 2.2 C 4.45 g/m*3 2.2 C 0 km/h
787 26-12-2005 11:09:06 2 C 4.39 g/m*3 2 C 0 km/h
788 26-12-2005 11:19:07 2.3 C 4.37 g/m*3 2.3 C 0 km/h
789 26-12-2005 11:29:07 2.6 C 4.28 g/m*3 2.6 C 0 km/h
790 26-12-2005 11:39:06 2.8 C 4.34 g/m*3 2.8 C 0 km/h
791 26-12-2005 11:49:07 3 C 4.28 g/m*3 3 C 0 km/h
792 26-12-2005 11:59:07 3 C 4.16 g/m*3 3 C 0 km/h
793 26-12-2005 12:09:06 3 C 4.1 g/m*3 3 C 0 km/h
794 26-12-2005 12:19:06 3.1 C 4.01 g/m*3 3.1 C 0 km/h
795 26-12-2005 12:29:06 3.2 C 3.98 g/m*3 3.2 C 0 km/h
796 26-12-2005 12:39:06 3 C 3.92 g/m*3 3 C 0 km/h
797 26-12-2005 12:49:06 2.8 C 3.81 g/m*3 2.8 C 0 km/h
798 26-12-2005 12:59:06 3.1 C 3.65 g/m*3 3.1 C 0 km/h
799 26-12-2005 13:09:07 3.1 C 3.59 g/m*3 3.1 C 0 km/h
800 26-12-2005 13:19:07 2.9 C 3.84 g/m*3 2.9 C 0 km/h
Sensor: Nr:Datum:Temp:Abs-Feuchte:Windchill:Wind:
Aussen-T/F 801 26-12-2005 13:29:07 2.7 C 3.61 g/m*3 2.7 C 0 km/h
802 26-12-2005 13:39:07 2.3 C 3.63 g/m*3 2.3 C 0 km/h
803 26-12-2005 13:49:06 2.1 C 3.64 g/m*3 2.1 C 0 km/h
804 26-12-2005 13:59:06 2.2 C 3.55 g/m*3 2.2 C 0 km/h
805 26-12-2005 14:09:07 2.3 C 3.52 g/m*3 2.3 C 0 km/h
806 26-12-2005 14:19:07 2.2 C 3.55 g/m*3 2.2 C 0 km/h
807 26-12-2005 14:29:07 1.9 C 3.48 g/m*3 1.9 C 0 km/h
808 26-12-2005 14:39:07 1.7 C 3.54 g/m*3 1.7 C 0 km/h
809 26-12-2005 14:49:07 1.6 C 3.62 g/m*3 1.6 C 0 km/h
810 26-12-2005 14:59:07 1.9 C 3.7 g/m*3 1.9 C 0 km/h
811 26-12-2005 15:09:06 2.2 C 3.66 g/m*3 2.2 C 0 km/h
812 26-12-2005 15:19:07 2.4 C 3.54 g/m*3 2.4 C 0 km/h
813 26-12-2005 15:29:07 2.5 C 3.56 g/m*3 2.5 C 0 km/h
814 26-12-2005 15:39:08 2.5 C 3.62 g/m*3 2.5 C 0 km/h
815 26-12-2005 15:49:07 2.5 C 3.62 g/m*3 2.5 C 0 km/h
816 26-12-2005 15:59:07 2.6 C 3.53 g/m*3 2.6 C 0 km/h
817 26-12-2005 16:09:08 2.6 C 3.47 g/m*3 2.6 C 0 km/h
818 26-12-2005 16:19:07 2.6 C 3.47 g/m*3 2.6 C 0 km/h
819 26-12-2005 16:29:07 2.3 C 3.46 g/m*3 2.3 C 0 km/h
820 26-12-2005 16:39:09 1.9 C 3.59 g/m*3 1.9 C 0 km/h
821 26-12-2005 16:49:07 1.9 C 3.64 g/m*3 1.9 C 0 km/h
822 26-12-2005 16:59:07 1.8 C 3.67 g/m*3 1.8 C 0 km/h
823 26-12-2005 17:09:09 2.2 C 3.66 g/m*3 2.2 C 0 km/h
824 26-12-2005 17:19:07 2.1 C 3.64 g/m*3 2.1 C 0 km/h
825 26-12-2005 17:29:07 2 C 3.67 g/m*3 2 C 0 km/h
Sensor: Nr:Datum:Temp:Abs-Feuchte:Windchill:Wind:
Aussen-T/F 826 26-12-2005 17:39:08 2 C 3.67 g/m*3 2 C 0 km/h
827 26-12-2005 17:49:07 1.8 C 3.73 g/m*3 1.8 C 0 km/h
828 26-12-2005 17:59:08 1.8 C 3.78 g/m*3 1.8 C 0 km/h
829 26-12-2005 18:09:07 1.8 C 3.78 g/m*3 1.8 C 0 km/h
830 26-12-2005 18:19:07 1.8 C 3.78 g/m*3 1.8 C 0 km/h
831 26-12-2005 18:29:08 1.8 C 3.78 g/m*3 1.8 C 0 km/h
832 26-12-2005 18:39:07 1.9 C 3.81 g/m*3 1.9 C 0 km/h
833 26-12-2005 18:49:08 1.2 C 4 g/m*3 1.2 C 0 km/h
834 26-12-2005 18:59:08 0.8 C 4.15 g/m*3 0.8 C 0 km/h
835 26-12-2005 19:09:07 0.5 C 4.11 g/m*3 0.5 C 0 km/h
836 26-12-2005 19:19:07 0.4 C 4.18 g/m*3 0.4 C 0 km/h
837 26-12-2005 19:29:08 0.3 C 4.2 g/m*3 0.3 C 0 km/h
838 26-12-2005 19:39:07 0.3 C 4.25 g/m*3 0.3 C 0 km/h
839 26-12-2005 19:49:07 0.3 C 4.3 g/m*3 0.3 C 0 km/h
840 26-12-2005 19:59:08 0.3 C 4.3 g/m*3 0.3 C 0 km/h
841 26-12-2005 20:09:08 0.2 C 4.32 g/m*3 0.2 C 0 km/h
842 26-12-2005 20:19:07 0.2 C 4.32 g/m*3 0.2 C 0 km/h
843 26-12-2005 20:29:07 0 C 4.26 g/m*3 0 C 0 km/h
844 26-12-2005 20:39:09 -0.1 C 4.23 g/m*3 -0.1 C 0 km/h
845 26-12-2005 20:49:08 -0.2 C 4.16 g/m*3 -0.2 C 0 km/h
846 26-12-2005 20:59:08 -0.2 C 4.06 g/m*3 -0.2 C 0 km/h
847 26-12-2005 21:09:11 -0.3 C 3.99 g/m*3 -0.3 C 0 km/h
848 26-12-2005 21:19:08 -0.4 C 3.91 g/m*3 -0.4 C 0 km/h
849 26-12-2005 21:29:08 -0.4 C 3.91 g/m*3 -0.4 C 0 km/h
850 26-12-2005 21:39:09 -0.4 C 3.91 g/m*3 -0.4 C 0 km/h
Sensor: Nr:Datum:Temp:Abs-Feuchte:Windchill:Wind:
Aussen-T/F 851 26-12-2005 21:49:08 -0.5 C 3.88 g/m*3 -0.5 C 0 km/h
852 26-12-2005 21:59:08 -0.5 C 3.88 g/m*3 -0.5 C 0 km/h
853 26-12-2005 22:09:10 -0.4 C 3.91 g/m*3 -0.4 C 0 km/h
854 26-12-2005 22:19:08 -0.6 C 3.76 g/m*3 -0.6 C 0 km/h
855 26-12-2005 22:29:08 -0.8 C 3.58 g/m*3 -0.8 C 0 km/h
856 26-12-2005 22:39:08 -1 C 3.44 g/m*3 -1 C 0 km/h
857 26-12-2005 22:49:07 -1 C 3.39 g/m*3 -1 C 0 km/h
858 26-12-2005 22:59:07 -1.1 C 3.37 g/m*3 -1.1 C 0 km/h
859 26-12-2005 23:09:07 -1.1 C 3.32 g/m*3 -1.1 C 0 km/h
860 26-12-2005 23:19:08 -1.2 C 3.3 g/m*3 -1.2 C 0 km/h
861 26-12-2005 23:29:08 -1.2 C 3.34 g/m*3 -1.2 C 0 km/h
862 26-12-2005 23:39:08 -1.3 C 3.36 g/m*3 -1.3 C 0 km/h
863 26-12-2005 23:49:07 -1.3 C 3.32 g/m*3 -1.3 C 0 km/h
864 26-12-2005 23:59:07 -1.4 C 3.3 g/m*3 -1.4 C 0 km/h
865 27-12-2005 00:09:08 -1.4 C 3.34 g/m*3 -1.4 C 0 km/h
866 27-12-2005 00:19:08 -1.5 C 3.27 g/m*3 -1.5 C 0 km/h
867 27-12-2005 00:29:08 -1.5 C 3.27 g/m*3 -1.5 C 0 km/h
868 27-12-2005 00:39:08 -1.6 C 3.21 g/m*3 -1.6 C 0 km/h
869 27-12-2005 00:49:08 -1.7 C 3.14 g/m*3 -1.7 C 0 km/h
870 27-12-2005 00:59:08 -1.8 C 3.12 g/m*3 -1.8 C 0 km/h
871 27-12-2005 01:09:08 -1.9 C 3.14 g/m*3 -1.9 C 0 km/h
872 27-12-2005 01:19:08 -2 C 3.08 g/m*3 -2 C 0 km/h
873 27-12-2005 01:29:08 -2.1 C 3.06 g/m*3 -2.1 C 0 km/h
874 27-12-2005 01:39:08 -2.3 C 3.05 g/m*3 -2.3 C 0 km/h
875 27-12-2005 01:49:08 -2.3 C 3.05 g/m*3 -2.3 C 0 km/h
Sensor: Nr:Datum:Temp:Abs-Feuchte:Windchill:Wind:
Aussen-T/F 876 27-12-2005 01:59:09 -2.4 C 3.07 g/m*3 -2.4 C 0 km/h
877 27-12-2005 02:09:08 -2.5 C 3.09 g/m*3 -2.5 C 0 km/h
878 27-12-2005 02:19:08 -2.6 C 3.11 g/m*3 -2.6 C 0 km/h
879 27-12-2005 02:29:08 -2.6 C 3.11 g/m*3 -2.6 C 0 km/h
880 27-12-2005 02:39:08 -2.6 C 3.15 g/m*3 -2.6 C 0 km/h
881 27-12-2005 02:50:09 -2.6 C 3.15 g/m*3 -2.6 C 0 km/h
882 27-12-2005 03:00:09 -2.8 C 3.11 g/m*3 -2.8 C 0 km/h
883 27-12-2005 03:10:09 -2.8 C 3.11 g/m*3 -2.8 C 0 km/h
884 27-12-2005 03:20:09 -2.8 C 3.11 g/m*3 -2.8 C 0 km/h
885 27-12-2005 03:30:09 -2.8 C 3.11 g/m*3 -2.8 C 0 km/h
886 27-12-2005 03:40:10 -2.6 C 3.19 g/m*3 -2.6 C 0 km/h
887 27-12-2005 03:50:10 -2.5 C 3.21 g/m*3 -2.5 C 0 km/h
888 27-12-2005 04:00:10 -2.4 C 3.24 g/m*3 -2.4 C 0 km/h
889 27-12-2005 04:10:10 -2.3 C 3.26 g/m*3 -2.3 C 0 km/h
890 27-12-2005 04:20:10 -2.3 C 3.26 g/m*3 -2.3 C 0 km/h
891 27-12-2005 04:30:10 -2.3 C 3.26 g/m*3 -2.3 C 0 km/h
892 27-12-2005 04:40:10 -2.3 C 3.26 g/m*3 -2.3 C 0 km/h
893 27-12-2005 04:50:10 -2.3 C 3.26 g/m*3 -2.3 C 0 km/h
894 27-12-2005 05:00:10 -2.2 C 3.28 g/m*3 -2.2 C 0 km/h
895 27-12-2005 05:10:09 -2.3 C 3.26 g/m*3 -2.3 C 0 km/h
896 27-12-2005 05:20:09 -2.2 C 3.28 g/m*3 -2.2 C 0 km/h
897 27-12-2005 05:30:09 -2.2 C 3.28 g/m*3 -2.2 C 0 km/h
898 27-12-2005 05:40:09 -2.3 C 3.26 g/m*3 -2.3 C 0 km/h
899 27-12-2005 05:50:10 -2.4 C 3.16 g/m*3 -2.4 C 0 km/h
900 27-12-2005 06:00:10 -2.4 C 3.11 g/m*3 -2.4 C 0 km/h
Sensor: Nr:Datum:Temp:Abs-Feuchte:Windchill:Wind:
Aussen-T/F 901 27-12-2005 06:10:10 -2.3 C 3.18 g/m*3 -2.3 C 0 km/h
902 27-12-2005 06:20:10 -2.4 C 3.11 g/m*3 -2.4 C 0 km/h
903 27-12-2005 06:30:10 -2.4 C 3.11 g/m*3 -2.4 C 0 km/h
904 27-12-2005 06:40:09 -2.4 C 3.16 g/m*3 -2.4 C 0 km/h
905 27-12-2005 06:50:10 -2.5 C 3.09 g/m*3 -2.5 C 0 km/h
906 27-12-2005 07:00:10 -2.4 C 3.16 g/m*3 -2.4 C 0 km/h
907 27-12-2005 07:10:09 -2.4 C 3.16 g/m*3 -2.4 C 0 km/h
908 27-12-2005 07:20:10 -2.3 C 3.22 g/m*3 -2.3 C 0 km/h
909 27-12-2005 07:30:10 -2.3 C 3.26 g/m*3 -2.3 C 0 km/h
910 27-12-2005 07:40:10 -2.3 C 3.26 g/m*3 -2.3 C 0 km/h
911 27-12-2005 07:50:10 -2.3 C 3.26 g/m*3 -2.3 C 0 km/h
912 27-12-2005 08:00:10 -2.4 C 3.24 g/m*3 -2.4 C 0 km/h
913 27-12-2005 08:10:10 -2.4 C 3.24 g/m*3 -2.4 C 0 km/h
914 27-12-2005 08:20:10 -2.4 C 3.2 g/m*3 -2.4 C 0 km/h
915 27-12-2005 08:30:10 -2.4 C 3.24 g/m*3 -2.4 C 0 km/h
916 27-12-2005 08:40:10 -2.3 C 3.26 g/m*3 -2.3 C 0 km/h
917 27-12-2005 08:50:10 -2.3 C 3.26 g/m*3 -2.3 C 0 km/h
918 27-12-2005 09:00:10 -2.2 C 3.28 g/m*3 -2.2 C 0 km/h
919 27-12-2005 09:10:10 -2.3 C 3.3 g/m*3 -2.3 C 0 km/h
920 27-12-2005 09:20:11 -2.3 C 3.3 g/m*3 -2.3 C 0 km/h
921 27-12-2005 09:30:11 -2.3 C 3.3 g/m*3 -2.3 C 0 km/h
922 27-12-2005 09:40:11 -2.2 C 3.37 g/m*3 -2.2 C 0 km/h
923 27-12-2005 09:50:11 -2.2 C 3.37 g/m*3 -2.2 C 0 km/h
924 27-12-2005 10:00:11 -2.2 C 3.33 g/m*3 -2.2 C 0 km/h
925 27-12-2005 10:10:11 -2.2 C 3.33 g/m*3 -2.2 C 0 km/h
Sensor: Nr:Datum:Temp:Abs-Feuchte:Windchill:Wind:
Aussen-T/F 926 27-12-2005 10:20:11 -2.1 C 3.35 g/m*3 -2.1 C 0 km/h
927 27-12-2005 10:30:11 -2 C 3.37 g/m*3 -2 C 0 km/h
928 27-12-2005 10:40:11 -2 C 3.37 g/m*3 -2 C 0 km/h
929 27-12-2005 10:50:10 -1.8 C 3.42 g/m*3 -1.8 C 0 km/h
930 27-12-2005 11:00:10 -2 C 3.33 g/m*3 -2 C 0 km/h
931 27-12-2005 11:10:10 -1.9 C 3.35 g/m*3 -1.9 C 0 km/h
932 27-12-2005 11:20:10 -1.7 C 3.4 g/m*3 -1.7 C 0 km/h
933 27-12-2005 11:30:10 -1.6 C 3.42 g/m*3 -1.6 C 0 km/h
934 27-12-2005 11:40:11 -1.3 C 3.5 g/m*3 -1.3 C 0 km/h
935 27-12-2005 11:50:10 -1.3 C 3.5 g/m*3 -1.3 C 0 km/h
936 27-12-2005 12:00:10 -1.2 C 3.52 g/m*3 -1.2 C 0 km/h
937 27-12-2005 12:10:11 -1 C 3.57 g/m*3 -1 C 0 km/h
938 27-12-2005 12:20:11 -1 C 3.53 g/m*3 -1 C 0 km/h
939 27-12-2005 12:30:11 -0.9 C 3.55 g/m*3 -0.9 C 0 km/h
940 27-12-2005 12:40:11 -0.7 C 3.6 g/m*3 -0.7 C 0 km/h
941 27-12-2005 12:50:11 -0.6 C 3.58 g/m*3 -0.6 C 0 km/h
942 27-12-2005 13:00:11 -0.5 C 3.56 g/m*3 -0.5 C 0 km/h
943 27-12-2005 13:10:11 -0.4 C 3.44 g/m*3 -0.4 C 0 km/h
944 27-12-2005 13:20:11 -0.3 C 3.46 g/m*3 -0.3 C 0 km/h
945 27-12-2005 13:30:11 -0.2 C 3.49 g/m*3 -0.2 C 0 km/h
946 27-12-2005 13:40:10 -0.3 C 3.46 g/m*3 -0.3 C 0 km/h
947 27-12-2005 13:50:11 -0.3 C 3.46 g/m*3 -0.3 C 0 km/h
948 27-12-2005 14:00:11 -0.3 C 3.51 g/m*3 -0.3 C 0 km/h
949 27-12-2005 14:10:10 -0.3 C 3.51 g/m*3 -0.3 C 0 km/h
950 27-12-2005 14:20:10 -0.3 C 3.51 g/m*3 -0.3 C 0 km/h
Sensor: Nr:Datum:Temp:Abs-Feuchte:Windchill:Wind:
Aussen-T/F 951 27-12-2005 14:30:10 -0.4 C 3.49 g/m*3 -0.4 C 0 km/h
952 27-12-2005 14:40:11 -0.4 C 3.53 g/m*3 -0.4 C 0 km/h
953 27-12-2005 14:50:10 -0.5 C 3.46 g/m*3 -0.5 C 0 km/h
954 27-12-2005 15:00:10 -0.4 C 3.53 g/m*3 -0.4 C 0 km/h
955 27-12-2005 15:10:10 -0.4 C 3.53 g/m*3 -0.4 C 0 km/h
956 27-12-2005 15:20:11 -0.4 C 3.53 g/m*3 -0.4 C 0 km/h
957 27-12-2005 15:30:11 -0.5 C 3.51 g/m*3 -0.5 C 0 km/h
958 27-12-2005 15:40:11 -0.5 C 3.51 g/m*3 -0.5 C 0 km/h
959 27-12-2005 15:50:11 -0.5 C 3.56 g/m*3 -0.5 C 0 km/h
960 27-12-2005 16:00:11 -0.5 C 3.56 g/m*3 -0.5 C 0 km/h
961 27-12-2005 16:10:11 -0.5 C 3.56 g/m*3 -0.5 C 0 km/h
962 27-12-2005 16:20:11 -0.5 C 3.6 g/m*3 -0.5 C 0 km/h
963 27-12-2005 16:30:12 -0.5 C 3.6 g/m*3 -0.5 C 0 km/h
964 27-12-2005 16:40:11 -0.6 C 3.58 g/m*3 -0.6 C 0 km/h
965 27-12-2005 16:50:11 -0.6 C 3.58 g/m*3 -0.6 C 0 km/h
966 27-12-2005 17:00:11 -0.6 C 3.58 g/m*3 -0.6 C 0 km/h
967 27-12-2005 17:10:11 -0.6 C 3.63 g/m*3 -0.6 C 0 km/h
968 27-12-2005 17:20:11 -0.7 C 3.6 g/m*3 -0.7 C 0 km/h
969 27-12-2005 17:30:11 -0.7 C 3.6 g/m*3 -0.7 C 0 km/h
970 27-12-2005 17:40:11 -0.7 C 3.65 g/m*3 -0.7 C 0 km/h
971 27-12-2005 17:50:12 -0.7 C 3.65 g/m*3 -0.7 C 0 km/h
972 27-12-2005 18:00:12 -0.7 C 3.65 g/m*3 -0.7 C 0 km/h
973 27-12-2005 18:10:12 -0.8 C 3.67 g/m*3 -0.8 C 0 km/h
974 27-12-2005 18:20:11 -0.8 C 3.67 g/m*3 -0.8 C 0 km/h
975 27-12-2005 18:30:12 -0.8 C 3.67 g/m*3 -0.8 C 0 km/h
Sensor: Nr:Datum:Temp:Abs-Feuchte:Windchill:Wind:
Aussen-T/F 976 27-12-2005 18:40:11 -0.8 C 3.71 g/m*3 -0.8 C 0 km/h
977 27-12-2005 18:50:11 -0.8 C 3.67 g/m*3 -0.8 C 0 km/h
978 27-12-2005 19:00:12 -0.8 C 3.67 g/m*3 -0.8 C 0 km/h
979 27-12-2005 19:10:11 -0.8 C 3.67 g/m*3 -0.8 C 0 km/h
980 27-12-2005 19:20:11 -0.9 C 3.6 g/m*3 -0.9 C 0 km/h
981 27-12-2005 19:30:11 -0.9 C 3.6 g/m*3 -0.9 C 0 km/h
982 27-12-2005 19:40:11 -0.9 C 3.55 g/m*3 -0.9 C 0 km/h
983 27-12-2005 19:50:11 -0.9 C 3.55 g/m*3 -0.9 C 0 km/h
984 27-12-2005 20:00:11 -1 C 3.53 g/m*3 -1 C 0 km/h
985 27-12-2005 20:10:12 -1 C 3.53 g/m*3 -1 C 0 km/h
986 27-12-2005 20:20:11 -0.9 C 3.51 g/m*3 -0.9 C 0 km/h
987 27-12-2005 20:30:11 -0.9 C 3.51 g/m*3 -0.9 C 0 km/h
988 27-12-2005 20:40:11 -0.9 C 3.55 g/m*3 -0.9 C 0 km/h
989 27-12-2005 20:50:11 -0.9 C 3.6 g/m*3 -0.9 C 0 km/h
990 27-12-2005 21:00:12 -0.9 C 3.6 g/m*3 -0.9 C 0 km/h
991 27-12-2005 21:10:11 -0.9 C 3.64 g/m*3 -0.9 C 0 km/h
992 27-12-2005 21:20:11 -0.9 C 3.6 g/m*3 -0.9 C 0 km/h
993 27-12-2005 21:30:11 -0.9 C 3.6 g/m*3 -0.9 C 0 km/h
994 27-12-2005 21:40:12 -0.9 C 3.6 g/m*3 -0.9 C 0 km/h
995 27-12-2005 21:50:11 -0.9 C 3.55 g/m*3 -0.9 C 0 km/h
996 27-12-2005 22:00:11 -1 C 3.48 g/m*3 -1 C 0 km/h
997 27-12-2005 22:10:12 -1 C 3.44 g/m*3 -1 C 0 km/h
998 27-12-2005 22:20:12 -1 C 3.44 g/m*3 -1 C 0 km/h
999 27-12-2005 22:30:12 -1.1 C 3.37 g/m*3 -1.1 C 0 km/h
1000 27-12-2005 22:40:11 -1.1 C 3.37 g/m*3 -1.1 C 0 km/h
Sensor: Nr:Datum:Temp:Abs-Feuchte:Windchill:Wind:
Aussen-T/F 1001 27-12-2005 22:50:11 -1 C 3.39 g/m*3 -1 C 0 km/h
1002 27-12-2005 23:00:11 -1.1 C 3.32 g/m*3 -1.1 C 0 km/h
1003 27-12-2005 23:10:12 -1.1 C 3.32 g/m*3 -1.1 C 0 km/h
1004 27-12-2005 23:20:12 -1.1 C 3.37 g/m*3 -1.1 C 0 km/h
1005 27-12-2005 23:30:12 -1.1 C 3.41 g/m*3 -1.1 C 0 km/h
1006 27-12-2005 23:40:11 -1.2 C 3.39 g/m*3 -1.2 C 0 km/h
1007 27-12-2005 23:50:12 -1.2 C 3.43 g/m*3 -1.2 C 0 km/h
1008 28-12-2005 00:00:12 -1.2 C 3.43 g/m*3 -1.2 C 0 km/h
1009 28-12-2005 00:10:11 -1.2 C 3.48 g/m*3 -1.2 C 0 km/h
1010 28-12-2005 00:20:12 -1.1 C 3.5 g/m*3 -1.1 C 0 km/h
1011 28-12-2005 00:30:12 -1.1 C 3.5 g/m*3 -1.1 C 0 km/h
1012 28-12-2005 00:40:12 -1.1 C 3.5 g/m*3 -1.1 C 0 km/h
1013 28-12-2005 00:50:12 -1.1 C 3.5 g/m*3 -1.1 C 0 km/h
1014 28-12-2005 01:00:12 -1.2 C 3.48 g/m*3 -1.2 C 0 km/h
1015 28-12-2005 01:10:12 -1.2 C 3.48 g/m*3 -1.2 C 0 km/h
1016 28-12-2005 01:20:12 -1.2 C 3.52 g/m*3 -1.2 C 0 km/h
1017 28-12-2005 01:30:12 -1.2 C 3.57 g/m*3 -1.2 C 0 km/h
1018 28-12-2005 01:40:12 -1.3 C 3.54 g/m*3 -1.3 C 0 km/h
1019 28-12-2005 01:50:12 -1.3 C 3.59 g/m*3 -1.3 C 0 km/h
1020 28-12-2005 02:00:12 -1.4 C 3.56 g/m*3 -1.4 C 0 km/h
1021 28-12-2005 02:10:12 -1.3 C 3.63 g/m*3 -1.3 C 0 km/h
1022 28-12-2005 02:20:12 -1.4 C 3.6 g/m*3 -1.4 C 0 km/h
1023 28-12-2005 02:30:12 -1.5 C 3.62 g/m*3 -1.5 C 0 km/h
1024 28-12-2005 02:40:12 -1.5 C 3.62 g/m*3 -1.5 C 0 km/h
1025 28-12-2005 02:51:13 -1.6 C 3.6 g/m*3 -1.6 C 0 km/h
Sensor: Nr:Datum:Temp:Abs-Feuchte:Windchill:Wind:
Aussen-T/F 1026 28-12-2005 03:01:13 -1.6 C 3.55 g/m*3 -1.6 C 0 km/h
1027 28-12-2005 03:11:13 -1.7 C 3.53 g/m*3 -1.7 C 0 km/h
1028 28-12-2005 03:21:14 -1.7 C 3.53 g/m*3 -1.7 C 0 km/h
1029 28-12-2005 03:31:14 -1.7 C 3.57 g/m*3 -1.7 C 0 km/h
1030 28-12-2005 03:41:14 -1.7 C 3.57 g/m*3 -1.7 C 0 km/h
1031 28-12-2005 03:51:14 -1.7 C 3.57 g/m*3 -1.7 C 0 km/h
1032 28-12-2005 04:01:14 -1.8 C 3.51 g/m*3 -1.8 C 0 km/h
1033 28-12-2005 04:11:14 -1.8 C 3.55 g/m*3 -1.8 C 0 km/h
1034 28-12-2005 04:21:13 -1.8 C 3.55 g/m*3 -1.8 C 0 km/h
1035 28-12-2005 04:31:13 -1.8 C 3.55 g/m*3 -1.8 C 0 km/h
1036 28-12-2005 04:41:13 -1.8 C 3.55 g/m*3 -1.8 C 0 km/h
1037 28-12-2005 04:51:14 -1.8 C 3.55 g/m*3 -1.8 C 0 km/h
1038 28-12-2005 05:01:14 -1.8 C 3.55 g/m*3 -1.8 C 0 km/h
1039 28-12-2005 05:11:14 -1.9 C 3.52 g/m*3 -1.9 C 0 km/h
1040 28-12-2005 05:21:13 -1.8 C 3.51 g/m*3 -1.8 C 0 km/h
1041 28-12-2005 05:31:13 -1.9 C 3.48 g/m*3 -1.9 C 0 km/h
1042 28-12-2005 05:41:14 -1.9 C 3.48 g/m*3 -1.9 C 0 km/h
1043 28-12-2005 05:51:13 -1.8 C 3.51 g/m*3 -1.8 C 0 km/h
1044 28-12-2005 06:01:13 -1.9 C 3.48 g/m*3 -1.9 C 0 km/h
1045 28-12-2005 06:11:14 -1.9 C 3.44 g/m*3 -1.9 C 0 km/h
1046 28-12-2005 06:21:14 -1.9 C 3.44 g/m*3 -1.9 C 0 km/h
1047 28-12-2005 06:31:14 -1.8 C 3.46 g/m*3 -1.8 C 0 km/h
1048 28-12-2005 06:41:14 -1.8 C 3.42 g/m*3 -1.8 C 0 km/h
1049 28-12-2005 06:51:14 -1.8 C 3.42 g/m*3 -1.8 C 0 km/h
1050 28-12-2005 07:01:14 -1.9 C 3.4 g/m*3 -1.9 C 0 km/h
Sensor: Nr:Datum:Temp:Abs-Feuchte:Windchill:Wind:
Aussen-T/F 1051 28-12-2005 07:11:14 -2 C 3.37 g/m*3 -2 C 0 km/h
1052 28-12-2005 07:21:14 -2.1 C 3.35 g/m*3 -2.1 C 0 km/h
1053 28-12-2005 07:31:14 -2.1 C 3.35 g/m*3 -2.1 C 0 km/h
1054 28-12-2005 07:41:14 -2.1 C 3.35 g/m*3 -2.1 C 0 km/h
1055 28-12-2005 07:51:14 -2.1 C 3.39 g/m*3 -2.1 C 0 km/h
1056 28-12-2005 08:01:14 -2.1 C 3.39 g/m*3 -2.1 C 0 km/h
1057 28-12-2005 08:11:14 -2 C 3.41 g/m*3 -2 C 0 km/h
1058 28-12-2005 08:21:14 -1.9 C 3.44 g/m*3 -1.9 C 0 km/h
1059 28-12-2005 08:31:14 -1.8 C 3.46 g/m*3 -1.8 C 0 km/h
1060 28-12-2005 08:41:14 -1.8 C 3.46 g/m*3 -1.8 C 0 km/h
1061 28-12-2005 08:51:14 -1.7 C 3.49 g/m*3 -1.7 C 0 km/h
1062 28-12-2005 09:01:14 -1.7 C 3.49 g/m*3 -1.7 C 0 km/h
1063 28-12-2005 09:11:14 -1.7 C 3.49 g/m*3 -1.7 C 0 km/h
1064 28-12-2005 09:21:14 -1.7 C 3.44 g/m*3 -1.7 C 0 km/h
1065 28-12-2005 09:31:14 -1.5 C 3.54 g/m*3 -1.5 C 0 km/h
1066 28-12-2005 09:41:14 -1.3 C 3.59 g/m*3 -1.3 C 0 km/h
1067 28-12-2005 09:51:14 -1.2 C 3.61 g/m*3 -1.2 C 0 km/h
1068 28-12-2005 10:01:14 -1.1 C 3.64 g/m*3 -1.1 C 0 km/h
1069 28-12-2005 10:11:14 -1 C 3.62 g/m*3 -1 C 0 km/h
1070 28-12-2005 10:21:14 -0.9 C 3.64 g/m*3 -0.9 C 0 km/h
1071 28-12-2005 10:31:14 -0.8 C 3.67 g/m*3 -0.8 C 0 km/h
1072 28-12-2005 10:41:15 -0.7 C 3.65 g/m*3 -0.7 C 0 km/h
1073 28-12-2005 10:51:14 -0.7 C 3.65 g/m*3 -0.7 C 0 km/h
1074 28-12-2005 11:01:14 -0.7 C 3.6 g/m*3 -0.7 C 0 km/h
1075 28-12-2005 11:11:14 -0.6 C 3.63 g/m*3 -0.6 C 0 km/h
Sensor: Nr:Datum:Temp:Abs-Feuchte:Windchill:Wind:
Aussen-T/F 1076 28-12-2005 11:21:15 -0.4 C 3.63 g/m*3 -0.4 C 0 km/h
1077 28-12-2005 11:31:15 -0.4 C 3.58 g/m*3 -0.4 C 0 km/h
1078 28-12-2005 11:41:14 -0.3 C 3.56 g/m*3 -0.3 C 0 km/h
1079 28-12-2005 11:51:15 -0.4 C 3.49 g/m*3 -0.4 C 0 km/h
1080 28-12-2005 12:01:15 -0.1 C 3.61 g/m*3 -0.1 C 0 km/h
1081 28-12-2005 12:11:14 -0.1 C 3.61 g/m*3 -0.1 C 0 km/h
1082 28-12-2005 12:21:14 0.1 C 3.66 g/m*3 0.1 C 0 km/h
1083 28-12-2005 12:31:14 0.1 C 3.66 g/m*3 0.1 C 0 km/h
1084 28-12-2005 12:41:14 0.1 C 3.61 g/m*3 0.1 C 0 km/h
1085 28-12-2005 12:51:14 0.2 C 3.64 g/m*3 0.2 C 0 km/h
1086 28-12-2005 13:01:14 0.2 C 3.64 g/m*3 0.2 C 0 km/h
1087 28-12-2005 13:11:14 0.3 C 3.61 g/m*3 0.3 C 0 km/h
1088 28-12-2005 13:21:14 0.1 C 3.56 g/m*3 0.1 C 0 km/h
1089 28-12-2005 13:31:14 -0.1 C 3.56 g/m*3 -0.1 C 0 km/h
1090 28-12-2005 13:41:15 -0.3 C 3.51 g/m*3 -0.3 C 0 km/h
1091 28-12-2005 13:51:14 -0.4 C 3.53 g/m*3 -0.4 C 0 km/h
1092 28-12-2005 14:01:15 -0.3 C 3.61 g/m*3 -0.3 C 0 km/h
1093 28-12-2005 14:11:15 -0.2 C 3.63 g/m*3 -0.2 C 0 km/h
1094 28-12-2005 14:21:15 -0.4 C 3.53 g/m*3 -0.4 C 0 km/h
1095 28-12-2005 14:31:15 -0.5 C 3.32 g/m*3 -0.5 C 0 km/h
1096 28-12-2005 14:41:14 -0.6 C 3.3 g/m*3 -0.6 C 0 km/h
1097 28-12-2005 14:51:14 -0.8 C 3.16 g/m*3 -0.8 C 0 km/h
1098 28-12-2005 15:01:14 -0.9 C 3.19 g/m*3 -0.9 C 0 km/h
1099 28-12-2005 15:11:15 -0.8 C 3.21 g/m*3 -0.8 C 0 km/h
1100 28-12-2005 15:21:15 -0.7 C 3.23 g/m*3 -0.7 C 0 km/h
Sensor: Nr:Datum:Temp:Abs-Feuchte:Windchill:Wind:
Aussen-T/F 1101 28-12-2005 15:31:15 -0.7 C 3.14 g/m*3 -0.7 C 0 km/h
1102 28-12-2005 15:41:15 -0.8 C 3.12 g/m*3 -0.8 C 0 km/h
1103 28-12-2005 15:51:15 -1.3 C 3.28 g/m*3 -1.3 C 0 km/h
1104 28-12-2005 16:01:15 -1.4 C 3.3 g/m*3 -1.4 C 0 km/h
1105 28-12-2005 16:11:15 -1.4 C 3.34 g/m*3 -1.4 C 0 km/h
1106 28-12-2005 16:21:15 -1.4 C 3.39 g/m*3 -1.4 C 0 km/h
1107 28-12-2005 16:31:16 -1.3 C 3.41 g/m*3 -1.3 C 0 km/h
1108 28-12-2005 16:41:15 -1.3 C 3.41 g/m*3 -1.3 C 0 km/h
1109 28-12-2005 16:51:15 -1.3 C 3.45 g/m*3 -1.3 C 0 km/h
1110 28-12-2005 17:01:15 -1.3 C 3.45 g/m*3 -1.3 C 0 km/h
1111 28-12-2005 17:11:15 -1.3 C 3.45 g/m*3 -1.3 C 0 km/h
1112 28-12-2005 17:21:15 -1.5 C 3.36 g/m*3 -1.5 C 0 km/h
1113 28-12-2005 17:31:16 -1.6 C 3.21 g/m*3 -1.6 C 0 km/h
1114 28-12-2005 17:41:15 -1.6 C 3.16 g/m*3 -1.6 C 0 km/h
1115 28-12-2005 17:51:15 -1.6 C 3.16 g/m*3 -1.6 C 0 km/h
1116 28-12-2005 18:01:15 -1.6 C 3.16 g/m*3 -1.6 C 0 km/h
1117 28-12-2005 18:11:15 -1.6 C 3.21 g/m*3 -1.6 C 0 km/h
1118 28-12-2005 18:21:15 -1.7 C 3.19 g/m*3 -1.7 C 0 km/h
1119 28-12-2005 18:31:16 -1.8 C 3.08 g/m*3 -1.8 C 0 km/h
1120 28-12-2005 18:41:15 -1.8 C 2.99 g/m*3 -1.8 C 0 km/h
1121 28-12-2005 18:51:15 -1.9 C 2.93 g/m*3 -1.9 C 0 km/h
1122 28-12-2005 19:01:15 -1.9 C 2.97 g/m*3 -1.9 C 0 km/h
1123 28-12-2005 19:11:15 -2 C 2.91 g/m*3 -2 C 0 km/h
1124 28-12-2005 19:21:15 -2 C 2.95 g/m*3 -2 C 0 km/h
1125 28-12-2005 19:31:15 -2 C 2.87 g/m*3 -2 C 0 km/h
Sensor: Nr:Datum:Temp:Abs-Feuchte:Windchill:Wind:
Aussen-T/F 1126 28-12-2005 19:41:15 -2 C 2.82 g/m*3 -2 C 0 km/h
1127 28-12-2005 19:51:15 -2 C 2.87 g/m*3 -2 C 0 km/h
1128 28-12-2005 20:01:15 -2 C 2.91 g/m*3 -2 C 0 km/h
1129 28-12-2005 20:11:15 -2 C 2.99 g/m*3 -2 C 0 km/h
1130 28-12-2005 20:21:15 -2.1 C 3.01 g/m*3 -2.1 C 0 km/h
1131 28-12-2005 20:31:15 -2.1 C 3.06 g/m*3 -2.1 C 0 km/h
1132 28-12-2005 20:41:15 -2.2 C 3.03 g/m*3 -2.2 C 0 km/h
1133 28-12-2005 20:51:15 -2.2 C 3.08 g/m*3 -2.2 C 0 km/h
1134 28-12-2005 21:01:15 -2.3 C 3.1 g/m*3 -2.3 C 0 km/h
1135 28-12-2005 21:11:15 -2.3 C 3.1 g/m*3 -2.3 C 0 km/h
1136 28-12-2005 21:21:16 -2.3 C 3.14 g/m*3 -2.3 C 0 km/h
1137 28-12-2005 21:31:16 -2.4 C 3.16 g/m*3 -2.4 C 0 km/h
1138 28-12-2005 21:41:15 -2.5 C 3.13 g/m*3 -2.5 C 0 km/h
1139 28-12-2005 21:51:15 -2.5 C 3.17 g/m*3 -2.5 C 0 km/h
1140 28-12-2005 22:01:15 -2.6 C 3.15 g/m*3 -2.6 C 0 km/h
1141 28-12-2005 22:11:16 -2.6 C 3.15 g/m*3 -2.6 C 0 km/h
1142 28-12-2005 22:21:16 -2.6 C 3.15 g/m*3 -2.6 C 0 km/h
1143 28-12-2005 22:31:16 -2.6 C 3.15 g/m*3 -2.6 C 0 km/h
1144 28-12-2005 22:41:15 -2.7 C 3.09 g/m*3 -2.7 C 0 km/h
1145 28-12-2005 22:51:16 -2.7 C 3.13 g/m*3 -2.7 C 0 km/h
1146 28-12-2005 23:01:16 -2.7 C 3.13 g/m*3 -2.7 C 0 km/h
1147 28-12-2005 23:11:15 -2.8 C 3.11 g/m*3 -2.8 C 0 km/h
1148 28-12-2005 23:21:15 -2.9 C 3.09 g/m*3 -2.9 C 0 km/h
1149 28-12-2005 23:31:15 -2.9 C 3.09 g/m*3 -2.9 C 0 km/h
1150 28-12-2005 23:41:15 -3 C 3.06 g/m*3 -3 C 0 km/h
Sensor: Nr:Datum:Temp:Abs-Feuchte:Windchill:Wind:
Aussen-T/F 1151 28-12-2005 23:51:15 -3.2 C 2.98 g/m*3 -3.2 C 0 km/h
1152 29-12-2005 00:01:15 -3.5 C 2.92 g/m*3 -3.5 C 0 km/h
1153 29-12-2005 00:11:16 -3.7 C 2.88 g/m*3 -3.7 C 0 km/h
1154 29-12-2005 00:21:15 -3.8 C 2.86 g/m*3 -3.8 C 0 km/h
1155 29-12-2005 00:31:15 -3.7 C 2.92 g/m*3 -3.7 C 0 km/h
1156 29-12-2005 00:41:16 -3.8 C 2.89 g/m*3 -3.8 C 0 km/h
1157 29-12-2005 00:51:16 -3.8 C 2.89 g/m*3 -3.8 C 0 km/h
1158 29-12-2005 01:01:16 -3.8 C 2.89 g/m*3 -3.8 C 0 km/h
1159 29-12-2005 01:11:16 -3.8 C 2.89 g/m*3 -3.8 C 0 km/h
1160 29-12-2005 01:21:16 -3.5 C 2.96 g/m*3 -3.5 C 0 km/h
1161 29-12-2005 01:31:16 -3.5 C 2.96 g/m*3 -3.5 C 0 km/h
1162 29-12-2005 01:41:16 -3.5 C 2.92 g/m*3 -3.5 C 0 km/h
1163 29-12-2005 01:51:16 -3.4 C 2.94 g/m*3 -3.4 C 0 km/h
1164 29-12-2005 02:01:16 -3.5 C 2.88 g/m*3 -3.5 C 0 km/h
1165 29-12-2005 02:11:16 -3.5 C 2.88 g/m*3 -3.5 C 0 km/h
1166 29-12-2005 02:21:16 -3.5 C 2.88 g/m*3 -3.5 C 0 km/h
1167 29-12-2005 02:31:16 -3.5 C 2.88 g/m*3 -3.5 C 0 km/h
1168 29-12-2005 02:41:16 -3.6 C 2.86 g/m*3 -3.6 C 0 km/h
1169 29-12-2005 02:52:17 -3.5 C 2.88 g/m*3 -3.5 C 0 km/h
1170 29-12-2005 03:02:17 -3.5 C 2.88 g/m*3 -3.5 C 0 km/h
1171 29-12-2005 03:12:18 -3.5 C 2.88 g/m*3 -3.5 C 0 km/h
1172 29-12-2005 03:22:18 -3.5 C 2.88 g/m*3 -3.5 C 0 km/h
1173 29-12-2005 03:32:17 -3.5 C 2.88 g/m*3 -3.5 C 0 km/h
1174 29-12-2005 03:42:18 -3.6 C 2.86 g/m*3 -3.6 C 0 km/h
1175 29-12-2005 03:52:18 -3.6 C 2.86 g/m*3 -3.6 C 0 km/h
Sensor: Nr:Datum:Temp:Abs-Feuchte:Windchill:Wind:
Aussen-T/F 1176 29-12-2005 04:02:17 -3.7 C 2.88 g/m*3 -3.7 C 0 km/h
1177 29-12-2005 04:12:17 -3.7 C 2.88 g/m*3 -3.7 C 0 km/h
1178 29-12-2005 04:22:18 -3.7 C 2.88 g/m*3 -3.7 C 0 km/h
1179 29-12-2005 04:32:18 -3.8 C 2.89 g/m*3 -3.8 C 0 km/h
1180 29-12-2005 04:42:18 -3.9 C 2.87 g/m*3 -3.9 C 0 km/h
1181 29-12-2005 04:52:18 -3.9 C 2.87 g/m*3 -3.9 C 0 km/h
1182 29-12-2005 05:02:17 -3.8 C 2.89 g/m*3 -3.8 C 0 km/h
1183 29-12-2005 05:12:17 -3.8 C 2.89 g/m*3 -3.8 C 0 km/h
1184 29-12-2005 05:22:18 -3.8 C 2.89 g/m*3 -3.8 C 0 km/h
1185 29-12-2005 05:32:18 -3.7 C 2.92 g/m*3 -3.7 C 0 km/h
1186 29-12-2005 05:42:18 -3.7 C 2.88 g/m*3 -3.7 C 0 km/h
1187 29-12-2005 05:52:17 -3.7 C 2.88 g/m*3 -3.7 C 0 km/h
1188 29-12-2005 06:02:18 -3.7 C 2.88 g/m*3 -3.7 C 0 km/h
1189 29-12-2005 06:12:18 -3.7 C 2.92 g/m*3 -3.7 C 0 km/h
1190 29-12-2005 06:22:18 -3.7 C 2.92 g/m*3 -3.7 C 0 km/h
1191 29-12-2005 06:32:18 -3.7 C 2.95 g/m*3 -3.7 C 0 km/h
1192 29-12-2005 06:42:19 -3.7 C 2.99 g/m*3 -3.7 C 0 km/h
1193 29-12-2005 06:52:18 -3.6 C 3.01 g/m*3 -3.6 C 0 km/h
1194 29-12-2005 07:02:18 -3.5 C 2.99 g/m*3 -3.5 C 0 km/h
1195 29-12-2005 07:12:19 -3.5 C 2.99 g/m*3 -3.5 C 0 km/h
1196 29-12-2005 07:22:18 -3.4 C 3.02 g/m*3 -3.4 C 0 km/h
1197 29-12-2005 07:32:17 -3.4 C 3.05 g/m*3 -3.4 C 0 km/h
1198 29-12-2005 07:42:17 -3.4 C 3.05 g/m*3 -3.4 C 0 km/h
1199 29-12-2005 07:52:18 -3.4 C 3.05 g/m*3 -3.4 C 0 km/h
1200 29-12-2005 08:02:18 -3.4 C 3.09 g/m*3 -3.4 C 0 km/h
Sensor: Nr:Datum:Temp:Abs-Feuchte:Windchill:Wind:
Aussen-T/F 1201 29-12-2005 08:12:18 -3.4 C 3.09 g/m*3 -3.4 C 0 km/h
1202 29-12-2005 08:22:17 -3.4 C 3.09 g/m*3 -3.4 C 0 km/h
1203 29-12-2005 08:32:18 -3.4 C 3.09 g/m*3 -3.4 C 0 km/h
1204 29-12-2005 08:42:18 -3.4 C 3.09 g/m*3 -3.4 C 0 km/h
1205 29-12-2005 08:52:18 -3.3 C 3.11 g/m*3 -3.3 C 0 km/h
1206 29-12-2005 09:02:17 -3.3 C 3.11 g/m*3 -3.3 C 0 km/h
1207 29-12-2005 09:12:17 -3.2 C 3.14 g/m*3 -3.2 C 0 km/h
1208 29-12-2005 09:22:18 -3.2 C 3.14 g/m*3 -3.2 C 0 km/h
1209 29-12-2005 09:32:18 -3.2 C 3.14 g/m*3 -3.2 C 0 km/h
1210 29-12-2005 09:42:18 -3 C 3.14 g/m*3 -3 C 0 km/h
1211 29-12-2005 09:52:18 -2.9 C 3.13 g/m*3 -2.9 C 0 km/h
1212 29-12-2005 10:02:18 -2.9 C 3.13 g/m*3 -2.9 C 0 km/h
1213 29-12-2005 10:12:18 -2.9 C 3.13 g/m*3 -2.9 C 0 km/h
1214 29-12-2005 10:22:18 -2.8 C 3.11 g/m*3 -2.8 C 0 km/h
1215 29-12-2005 10:32:18 -2.7 C 3.13 g/m*3 -2.7 C 0 km/h
1216 29-12-2005 10:42:18 -2.7 C 3.09 g/m*3 -2.7 C 0 km/h
1217 29-12-2005 10:52:18 -2.7 C 3.09 g/m*3 -2.7 C 0 km/h
1218 29-12-2005 11:02:18 -2.6 C 3.11 g/m*3 -2.6 C 0 km/h
1219 29-12-2005 11:12:18 -2.5 C 3.09 g/m*3 -2.5 C 0 km/h
1220 29-12-2005 11:22:18 -2.5 C 3.09 g/m*3 -2.5 C 0 km/h
1221 29-12-2005 11:32:19 -2.4 C 3.11 g/m*3 -2.4 C 0 km/h
1222 29-12-2005 11:42:19 -2.3 C 3.14 g/m*3 -2.3 C 0 km/h
1223 29-12-2005 11:52:18 -2.4 C 3.07 g/m*3 -2.4 C 0 km/h
1224 29-12-2005 12:02:18 -2.3 C 3.1 g/m*3 -2.3 C 0 km/h
1225 29-12-2005 12:12:18 -2.1 C 3.1 g/m*3 -2.1 C 0 km/h
Sensor: Nr:Datum:Temp:Abs-Feuchte:Windchill:Wind:
Aussen-T/F 1226 29-12-2005 12:22:18 -1.9 C 3.1 g/m*3 -1.9 C 0 km/h
1227 29-12-2005 12:32:18 -1.7 C 3.14 g/m*3 -1.7 C 0 km/h
1228 29-12-2005 12:42:18 -1.6 C 3.21 g/m*3 -1.6 C 0 km/h
1229 29-12-2005 12:52:18 -1.7 C 3.19 g/m*3 -1.7 C 0 km/h
1230 29-12-2005 13:02:18 -1.6 C 3.25 g/m*3 -1.6 C 0 km/h
1231 29-12-2005 13:12:18 -1.5 C 3.32 g/m*3 -1.5 C 0 km/h
1232 29-12-2005 13:22:18 -1.5 C 3.27 g/m*3 -1.5 C 0 km/h
1233 29-12-2005 13:32:19 -1.5 C 3.27 g/m*3 -1.5 C 0 km/h
1234 29-12-2005 13:42:19 -1.3 C 3.32 g/m*3 -1.3 C 0 km/h
1235 29-12-2005 13:52:19 -1.2 C 3.3 g/m*3 -1.2 C 0 km/h
1236 29-12-2005 14:02:19 -1.2 C 3.17 g/m*3 -1.2 C 0 km/h
1237 29-12-2005 14:12:19 -1 C 3.25 g/m*3 -1 C 0 km/h
1238 29-12-2005 14:22:19 -1 C 3.16 g/m*3 -1 C 0 km/h
1239 29-12-2005 14:32:19 -1.1 C 3.14 g/m*3 -1.1 C 0 km/h
1240 29-12-2005 14:42:19 -1.1 C 3.19 g/m*3 -1.1 C 0 km/h
1241 29-12-2005 14:52:19 -1.3 C 3.14 g/m*3 -1.3 C 0 km/h
1242 29-12-2005 15:02:19 -1.3 C 3.1 g/m*3 -1.3 C 0 km/h
1243 29-12-2005 15:12:19 -1.2 C 3.12 g/m*3 -1.2 C 0 km/h
1244 29-12-2005 15:22:19 -1.2 C 3.12 g/m*3 -1.2 C 0 km/h
1245 29-12-2005 15:32:18 -1.3 C 3.1 g/m*3 -1.3 C 0 km/h
1246 29-12-2005 15:42:18 -1.4 C 3.12 g/m*3 -1.4 C 0 km/h
1247 29-12-2005 15:52:19 -1.4 C 3.12 g/m*3 -1.4 C 0 km/h
1248 29-12-2005 16:02:19 -1.5 C 3.1 g/m*3 -1.5 C 0 km/h
1249 29-12-2005 16:12:19 -1.6 C 3.03 g/m*3 -1.6 C 0 km/h
1250 29-12-2005 16:22:19 -1.7 C 3.01 g/m*3 -1.7 C 0 km/h
Sensor: Nr:Datum:Temp:Abs-Feuchte:Windchill:Wind:
Aussen-T/F 1251 29-12-2005 16:32:18 -2 C 2.95 g/m*3 -2 C 0 km/h
1252 29-12-2005 16:42:18 -2.2 C 2.91 g/m*3 -2.2 C 0 km/h
1253 29-12-2005 16:52:19 -2.3 C 2.93 g/m*3 -2.3 C 0 km/h
1254 29-12-2005 17:02:18 -2.4 C 2.95 g/m*3 -2.4 C 0 km/h
1255 29-12-2005 17:12:18 -2.5 C 2.97 g/m*3 -2.5 C 0 km/h
1256 29-12-2005 17:22:18 -2.5 C 2.97 g/m*3 -2.5 C 0 km/h
1257 29-12-2005 17:32:19 -2.5 C 2.97 g/m*3 -2.5 C 0 km/h
1258 29-12-2005 17:42:19 -2.4 C 3.03 g/m*3 -2.4 C 0 km/h
1259 29-12-2005 17:52:18 -2.4 C 2.99 g/m*3 -2.4 C 0 km/h
1260 29-12-2005 18:02:20 -2.4 C 3.03 g/m*3 -2.4 C 0 km/h
1261 29-12-2005 18:12:20 -2.4 C 3.03 g/m*3 -2.4 C 0 km/h
1262 29-12-2005 18:22:19 -2.5 C 2.97 g/m*3 -2.5 C 0 km/h
1263 29-12-2005 18:32:19 -2.7 C 2.93 g/m*3 -2.7 C 0 km/h
1264 29-12-2005 18:42:19 -3 C 2.87 g/m*3 -3 C 0 km/h
1265 29-12-2005 18:52:19 -3.1 C 2.89 g/m*3 -3.1 C 0 km/h
1266 29-12-2005 19:02:19 -3.2 C 2.87 g/m*3 -3.2 C 0 km/h
1267 29-12-2005 19:12:20 -3.4 C 2.83 g/m*3 -3.4 C 0 km/h
1268 29-12-2005 19:22:19 -3.4 C 2.86 g/m*3 -3.4 C 0 km/h
1269 29-12-2005 19:32:19 -3.5 C 2.84 g/m*3 -3.5 C 0 km/h
1270 29-12-2005 19:42:19 -3.5 C 2.81 g/m*3 -3.5 C 0 km/h
1271 29-12-2005 19:52:19 -3.5 C 2.81 g/m*3 -3.5 C 0 km/h
1272 29-12-2005 20:02:19 -3.5 C 2.81 g/m*3 -3.5 C 0 km/h
1273 29-12-2005 20:12:19 -3.5 C 2.77 g/m*3 -3.5 C 0 km/h
1274 29-12-2005 20:22:19 -3.4 C 2.79 g/m*3 -3.4 C 0 km/h
1275 29-12-2005 20:32:19 -3.4 C 2.75 g/m*3 -3.4 C 0 km/h
Sensor: Nr:Datum:Temp:Abs-Feuchte:Windchill:Wind:
Aussen-T/F 1276 29-12-2005 20:42:19 -3.2 C 2.83 g/m*3 -3.2 C 0 km/h
1277 29-12-2005 20:52:19 -3.1 C 2.81 g/m*3 -3.1 C 0 km/h
1278 29-12-2005 21:02:20 -3 C 2.79 g/m*3 -3 C 0 km/h
1279 29-12-2005 21:12:20 -2.9 C 2.81 g/m*3 -2.9 C 0 km/h
1280 29-12-2005 21:22:19 -2.8 C 2.83 g/m*3 -2.8 C 0 km/h
1281 29-12-2005 21:32:19 -2.7 C 2.89 g/m*3 -2.7 C 0 km/h
1282 29-12-2005 21:42:19 -2.7 C 2.89 g/m*3 -2.7 C 0 km/h
1283 29-12-2005 21:52:19 -2.7 C 2.85 g/m*3 -2.7 C 0 km/h
1284 29-12-2005 22:02:19 -2.7 C 2.89 g/m*3 -2.7 C 0 km/h
1285 29-12-2005 22:12:19 -2.6 C 2.87 g/m*3 -2.6 C 0 km/h
1286 29-12-2005 22:22:19 -2.7 C 2.89 g/m*3 -2.7 C 0 km/h
1287 29-12-2005 22:32:19 -2.7 C 2.89 g/m*3 -2.7 C 0 km/h
1288 29-12-2005 22:42:19 -2.8 C 2.87 g/m*3 -2.8 C 0 km/h
1289 29-12-2005 22:52:19 -2.9 C 2.85 g/m*3 -2.9 C 0 km/h
1290 29-12-2005 23:02:19 -2.9 C 2.89 g/m*3 -2.9 C 0 km/h
1291 29-12-2005 23:12:19 -2.8 C 2.91 g/m*3 -2.8 C 0 km/h
1292 29-12-2005 23:22:19 -2.7 C 2.93 g/m*3 -2.7 C 0 km/h
1293 29-12-2005 23:32:20 -2.7 C 2.93 g/m*3 -2.7 C 0 km/h
1294 29-12-2005 23:42:20 -2.6 C 2.95 g/m*3 -2.6 C 0 km/h
1295 29-12-2005 23:52:19 -2.6 C 2.95 g/m*3 -2.6 C 0 km/h
1296 30-12-2005 00:02:20 -2.6 C 2.91 g/m*3 -2.6 C 0 km/h
1297 30-12-2005 00:12:20 -2.6 C 2.91 g/m*3 -2.6 C 0 km/h
1298 30-12-2005 00:22:19 -2.6 C 2.91 g/m*3 -2.6 C 0 km/h
1299 30-12-2005 00:32:19 -2.6 C 2.91 g/m*3 -2.6 C 0 km/h
1300 30-12-2005 00:42:19 -2.6 C 2.91 g/m*3 -2.6 C 0 km/h
Sensor: Nr:Datum:Temp:Abs-Feuchte:Windchill:Wind:
Aussen-T/F 1301 30-12-2005 00:52:19 -2.6 C 2.91 g/m*3 -2.6 C 0 km/h
1302 30-12-2005 01:02:19 -2.6 C 2.91 g/m*3 -2.6 C 0 km/h
1303 30-12-2005 01:12:19 -2.6 C 2.91 g/m*3 -2.6 C 0 km/h
1304 30-12-2005 01:22:19 -2.6 C 2.91 g/m*3 -2.6 C 0 km/h
1305 30-12-2005 01:32:20 -2.6 C 2.91 g/m*3 -2.6 C 0 km/h
1306 30-12-2005 01:42:21 -2.6 C 2.91 g/m*3 -2.6 C 0 km/h
1307 30-12-2005 01:52:20 -2.6 C 2.91 g/m*3 -2.6 C 0 km/h
1308 30-12-2005 02:02:20 -2.5 C 2.93 g/m*3 -2.5 C 0 km/h
1309 30-12-2005 02:12:20 -2.6 C 2.95 g/m*3 -2.6 C 0 km/h
1310 30-12-2005 02:22:20 -2.6 C 2.99 g/m*3 -2.6 C 0 km/h
1311 30-12-2005 02:32:20 -2.6 C 3.03 g/m*3 -2.6 C 0 km/h
1312 30-12-2005 02:42:20 -2.5 C 3.05 g/m*3 -2.5 C 0 km/h
1313 30-12-2005 02:53:21 -2.5 C 3.05 g/m*3 -2.5 C 0 km/h
1314 30-12-2005 03:03:22 -2.5 C 3.01 g/m*3 -2.5 C 0 km/h
1315 30-12-2005 03:13:21 -2.5 C 2.97 g/m*3 -2.5 C 0 km/h
1316 30-12-2005 03:23:21 -2.5 C 2.97 g/m*3 -2.5 C 0 km/h
1317 30-12-2005 03:33:21 -2.5 C 2.97 g/m*3 -2.5 C 0 km/h
1318 30-12-2005 03:43:21 -2.5 C 2.97 g/m*3 -2.5 C 0 km/h
1319 30-12-2005 03:53:21 -2.5 C 2.97 g/m*3 -2.5 C 0 km/h
1320 30-12-2005 04:03:21 -2.5 C 2.97 g/m*3 -2.5 C 0 km/h
1321 30-12-2005 04:13:21 -2.5 C 2.97 g/m*3 -2.5 C 0 km/h
1322 30-12-2005 04:23:21 -2.5 C 2.97 g/m*3 -2.5 C 0 km/h
1323 30-12-2005 04:33:21 -2.5 C 2.97 g/m*3 -2.5 C 0 km/h
1324 30-12-2005 04:43:21 -2.6 C 2.95 g/m*3 -2.6 C 0 km/h
1325 30-12-2005 04:53:21 -2.6 C 2.95 g/m*3 -2.6 C 0 km/h
Sensor: Nr:Datum:Temp:Abs-Feuchte:Windchill:Wind:
Aussen-T/F 1326 30-12-2005 05:03:21 -2.5 C 2.97 g/m*3 -2.5 C 0 km/h
1327 30-12-2005 05:13:21 -2.5 C 2.97 g/m*3 -2.5 C 0 km/h
1328 30-12-2005 05:23:21 -2.7 C 2.93 g/m*3 -2.7 C 0 km/h
1329 30-12-2005 05:33:21 -2.9 C 2.89 g/m*3 -2.9 C 0 km/h
1330 30-12-2005 05:43:21 -3.1 C 2.85 g/m*3 -3.1 C 0 km/h
1331 30-12-2005 05:53:21 -3.3 C 2.81 g/m*3 -3.3 C 0 km/h
1332 30-12-2005 06:03:21 -3.5 C 2.81 g/m*3 -3.5 C 0 km/h
1333 30-12-2005 06:13:22 -3.7 C 2.77 g/m*3 -3.7 C 0 km/h
1334 30-12-2005 06:23:21 -3.6 C 2.82 g/m*3 -3.6 C 0 km/h
1335 30-12-2005 06:33:21 -3.5 C 2.88 g/m*3 -3.5 C 0 km/h
1336 30-12-2005 06:43:21 -3.4 C 2.86 g/m*3 -3.4 C 0 km/h
1337 30-12-2005 06:53:21 -3.4 C 2.83 g/m*3 -3.4 C 0 km/h
1338 30-12-2005 07:03:22 -3.8 C 2.71 g/m*3 -3.8 C 0 km/h
1339 30-12-2005 07:13:22 -4.1 C 2.69 g/m*3 -4.1 C 0 km/h
1340 30-12-2005 07:23:22 -4.5 C 2.61 g/m*3 -4.5 C 0 km/h
1341 30-12-2005 07:33:21 -4.8 C 2.56 g/m*3 -4.8 C 0 km/h
1342 30-12-2005 07:43:21 -4.9 C 2.54 g/m*3 -4.9 C 0 km/h
1343 30-12-2005 07:53:22 -5.1 C 2.57 g/m*3 -5.1 C 0 km/h
1344 30-12-2005 08:03:21 -5.3 C 2.53 g/m*3 -5.3 C 0 km/h
1345 30-12-2005 08:13:22 -5.3 C 2.57 g/m*3 -5.3 C 0 km/h
1346 30-12-2005 08:23:21 -5.2 C 2.62 g/m*3 -5.2 C 0 km/h
1347 30-12-2005 08:33:21 -5.2 C 2.62 g/m*3 -5.2 C 0 km/h
1348 30-12-2005 08:43:21 -5.2 C 2.62 g/m*3 -5.2 C 0 km/h
1349 30-12-2005 08:53:21 -5.2 C 2.58 g/m*3 -5.2 C 0 km/h
1350 30-12-2005 09:03:21 -5.4 C 2.55 g/m*3 -5.4 C 0 km/h
Sensor: Nr:Datum:Temp:Abs-Feuchte:Windchill:Wind:
Aussen-T/F 1351 30-12-2005 09:13:21 -5.4 C 2.55 g/m*3 -5.4 C 0 km/h
1352 30-12-2005 09:23:21 -5.1 C 2.64 g/m*3 -5.1 C 0 km/h
1353 30-12-2005 09:33:22 -5.2 C 2.58 g/m*3 -5.2 C 0 km/h
1354 30-12-2005 09:43:22 -5.2 C 2.58 g/m*3 -5.2 C 0 km/h
1355 30-12-2005 09:53:21 -5.3 C 2.57 g/m*3 -5.3 C 0 km/h
1356 30-12-2005 10:03:22 -5.3 C 2.57 g/m*3 -5.3 C 0 km/h
1357 30-12-2005 10:13:22 -5 C 2.62 g/m*3 -5 C 0 km/h
1358 30-12-2005 10:23:22 -4.8 C 2.66 g/m*3 -4.8 C 0 km/h
1359 30-12-2005 10:33:22 -4.7 C 2.68 g/m*3 -4.7 C 0 km/h
1360 30-12-2005 10:43:23 -4.6 C 2.7 g/m*3 -4.6 C 0 km/h
1361 30-12-2005 10:53:22 -4.2 C 2.78 g/m*3 -4.2 C 0 km/h
1362 30-12-2005 11:03:22 -4 C 2.78 g/m*3 -4 C 0 km/h
1363 30-12-2005 11:13:22 -3.8 C 2.82 g/m*3 -3.8 C 0 km/h
1364 30-12-2005 11:23:22 -3.5 C 2.84 g/m*3 -3.5 C 0 km/h
1365 30-12-2005 11:33:21 -3.1 C 2.89 g/m*3 -3.1 C 0 km/h
1366 30-12-2005 11:43:21 -3 C 2.83 g/m*3 -3 C 0 km/h
1367 30-12-2005 11:53:22 -2.8 C 2.83 g/m*3 -2.8 C 0 km/h
1368 30-12-2005 12:03:22 -2.9 C 2.77 g/m*3 -2.9 C 0 km/h
1369 30-12-2005 12:13:22 -2.8 C 2.79 g/m*3 -2.8 C 0 km/h
1370 30-12-2005 12:23:22 -2.5 C 2.85 g/m*3 -2.5 C 0 km/h
1371 30-12-2005 12:33:22 -2 C 2.87 g/m*3 -2 C 0 km/h
1372 30-12-2005 12:43:22 -1.9 C 2.76 g/m*3 -1.9 C 0 km/h
1373 30-12-2005 12:53:21 -1.9 C 2.72 g/m*3 -1.9 C 0 km/h
1374 30-12-2005 13:03:22 -2 C 2.7 g/m*3 -2 C 0 km/h
1375 30-12-2005 13:13:22 -2 C 2.7 g/m*3 -2 C 0 km/h
Sensor: Nr:Datum:Temp:Abs-Feuchte:Windchill:Wind:
Aussen-T/F 1376 30-12-2005 13:23:22 -2.1 C 2.68 g/m*3 -2.1 C 0 km/h
1377 30-12-2005 13:33:22 -2.2 C 2.7 g/m*3 -2.2 C 0 km/h
1378 30-12-2005 13:43:22 -2.1 C 2.72 g/m*3 -2.1 C 0 km/h
1379 30-12-2005 13:53:22 -1.9 C 2.76 g/m*3 -1.9 C 0 km/h
1380 30-12-2005 14:03:22 -1.8 C 2.78 g/m*3 -1.8 C 0 km/h
1381 30-12-2005 14:13:22 -1.7 C 2.8 g/m*3 -1.7 C 0 km/h
1382 30-12-2005 14:23:22 -1.7 C 2.8 g/m*3 -1.7 C 0 km/h
1383 30-12-2005 14:33:22 -1.7 C 2.8 g/m*3 -1.7 C 0 km/h
1384 30-12-2005 14:43:22 -1.7 C 2.8 g/m*3 -1.7 C 0 km/h
1385 30-12-2005 14:53:22 -1.6 C 2.82 g/m*3 -1.6 C 0 km/h
1386 30-12-2005 15:03:22 -1.7 C 2.8 g/m*3 -1.7 C 0 km/h
1387 30-12-2005 15:13:22 -1.9 C 2.76 g/m*3 -1.9 C 0 km/h
1388 30-12-2005 15:23:23 -2 C 2.78 g/m*3 -2 C 0 km/h
1389 30-12-2005 15:33:22 -2.1 C 2.8 g/m*3 -2.1 C 0 km/h
1390 30-12-2005 15:43:22 -2.3 C 2.72 g/m*3 -2.3 C 0 km/h
1391 30-12-2005 15:53:22 -2.4 C 2.7 g/m*3 -2.4 C 0 km/h
1392 30-12-2005 16:03:23 -2.6 C 2.71 g/m*3 -2.6 C 0 km/h
1393 30-12-2005 16:13:23 -2.7 C 2.69 g/m*3 -2.7 C 0 km/h
1394 30-12-2005 16:23:22 -2.7 C 2.69 g/m*3 -2.7 C 0 km/h
1395 30-12-2005 16:33:22 -2.7 C 2.69 g/m*3 -2.7 C 0 km/h
1396 30-12-2005 16:43:23 -2.8 C 2.67 g/m*3 -2.8 C 0 km/h
1397 30-12-2005 16:53:22 -2.8 C 2.67 g/m*3 -2.8 C 0 km/h
1398 30-12-2005 17:03:22 -2.9 C 2.65 g/m*3 -2.9 C 0 km/h
1399 30-12-2005 17:13:22 -3 C 2.59 g/m*3 -3 C 0 km/h
1400 30-12-2005 17:23:22 -3.2 C 2.56 g/m*3 -3.2 C 0 km/h
Sensor: Nr:Datum:Temp:Abs-Feuchte:Windchill:Wind:
Aussen-T/F 1401 30-12-2005 17:33:23 -3.2 C 2.56 g/m*3 -3.2 C 0 km/h
1402 30-12-2005 17:43:23 -3.3 C 2.5 g/m*3 -3.3 C 0 km/h
1403 30-12-2005 17:53:22 -3.3 C 2.46 g/m*3 -3.3 C 0 km/h
1404 30-12-2005 18:03:23 -3.3 C 2.46 g/m*3 -3.3 C 0 km/h
1405 30-12-2005 18:13:23 -3.3 C 2.46 g/m*3 -3.3 C 0 km/h
1406 30-12-2005 18:23:23 -3.2 C 2.48 g/m*3 -3.2 C 0 km/h
1407 30-12-2005 18:33:22 -3.2 C 2.48 g/m*3 -3.2 C 0 km/h
1408 30-12-2005 18:43:23 -3.2 C 2.48 g/m*3 -3.2 C 0 km/h
1409 30-12-2005 18:53:23 -3.1 C 2.5 g/m*3 -3.1 C 0 km/h
1410 30-12-2005 19:03:22 -3.2 C 2.48 g/m*3 -3.2 C 0 km/h
1411 30-12-2005 19:13:23 -3.1 C 2.5 g/m*3 -3.1 C 0 km/h
1412 30-12-2005 19:23:22 -3 C 2.47 g/m*3 -3 C 0 km/h
1413 30-12-2005 19:33:22 -3 C 2.47 g/m*3 -3 C 0 km/h
1414 30-12-2005 19:43:22 -3 C 2.47 g/m*3 -3 C 0 km/h
1415 30-12-2005 19:53:22 -3 C 2.44 g/m*3 -3 C 0 km/h
1416 30-12-2005 20:03:23 -3 C 2.47 g/m*3 -3 C 0 km/h
1417 30-12-2005 20:13:23 -3.1 C 2.46 g/m*3 -3.1 C 0 km/h
1418 30-12-2005 20:23:23 -3.1 C 2.5 g/m*3 -3.1 C 0 km/h
1419 30-12-2005 20:33:23 -3.3 C 2.58 g/m*3 -3.3 C 0 km/h
1420 30-12-2005 20:43:24 -3.4 C 2.71 g/m*3 -3.4 C 0 km/h
1421 30-12-2005 20:53:23 -3.5 C 2.81 g/m*3 -3.5 C 0 km/h
1422 30-12-2005 21:03:23 -3.6 C 2.86 g/m*3 -3.6 C 0 km/h
1423 30-12-2005 21:13:24 -3.5 C 2.92 g/m*3 -3.5 C 0 km/h
1424 30-12-2005 21:23:23 -3.5 C 2.96 g/m*3 -3.5 C 0 km/h
1425 30-12-2005 21:33:22 -3.5 C 2.99 g/m*3 -3.5 C 0 km/h
Sensor: Nr:Datum:Temp:Abs-Feuchte:Windchill:Wind:
Aussen-T/F 1426 30-12-2005 21:43:22 -3.5 C 2.99 g/m*3 -3.5 C 0 km/h
1427 30-12-2005 21:53:23 -3.4 C 3.02 g/m*3 -3.4 C 0 km/h
1428 30-12-2005 22:03:22 -3.4 C 3.02 g/m*3 -3.4 C 0 km/h
1429 30-12-2005 22:13:22 -3.2 C 3.02 g/m*3 -3.2 C 0 km/h
1430 30-12-2005 22:23:23 -3.2 C 3.06 g/m*3 -3.2 C 0 km/h
1431 30-12-2005 22:33:23 -3.2 C 3.06 g/m*3 -3.2 C 0 km/h
1432 30-12-2005 22:43:23 -3.1 C 3.08 g/m*3 -3.1 C 0 km/h
1433 30-12-2005 22:53:23 -3 C 3.1 g/m*3 -3 C 0 km/h
1434 30-12-2005 23:03:23 -3 C 3.06 g/m*3 -3 C 0 km/h
1435 30-12-2005 23:13:23 -3 C 3.06 g/m*3 -3 C 0 km/h
1436 30-12-2005 23:23:23 -2.9 C 3.09 g/m*3 -2.9 C 0 km/h
1437 30-12-2005 23:33:23 -3 C 3.06 g/m*3 -3 C 0 km/h
1438 30-12-2005 23:43:23 -3 C 3.06 g/m*3 -3 C 0 km/h
1439 30-12-2005 23:53:23 -3 C 3.06 g/m*3 -3 C 0 km/h
1440 31-12-2005 00:03:23 -3 C 3.06 g/m*3 -3 C 0 km/h
1441 31-12-2005 00:13:23 -3 C 3.06 g/m*3 -3 C 0 km/h
1442 31-12-2005 00:23:23 -3 C 3.06 g/m*3 -3 C 0 km/h
1443 31-12-2005 00:33:23 -2.9 C 3.09 g/m*3 -2.9 C 0 km/h
1444 31-12-2005 00:43:23 -2.8 C 3.11 g/m*3 -2.8 C 0 km/h
1445 31-12-2005 00:53:23 -2.7 C 3.13 g/m*3 -2.7 C 0 km/h
1446 31-12-2005 01:03:23 -2.3 C 3.26 g/m*3 -2.3 C 0 km/h
1447 31-12-2005 01:13:23 -2.3 C 3.26 g/m*3 -2.3 C 0 km/h
1448 31-12-2005 01:23:23 -1.5 C 3.54 g/m*3 -1.5 C 0 km/h
1449 31-12-2005 01:33:23 -1.5 C 3.54 g/m*3 -1.5 C 0 km/h
1450 31-12-2005 01:43:23 -1.8 C 3.42 g/m*3 -1.8 C 0 km/h
Sensor: Nr:Datum:Temp:Abs-Feuchte:Windchill:Wind:
Aussen-T/F 1451 31-12-2005 01:53:23 -2 C 3.37 g/m*3 -2 C 0 km/h
1452 31-12-2005 02:03:24 -2.1 C 3.39 g/m*3 -2.1 C 0 km/h
1453 31-12-2005 02:13:24 -2.1 C 3.43 g/m*3 -2.1 C 0 km/h
1454 31-12-2005 02:23:23 -2.1 C 3.43 g/m*3 -2.1 C 0 km/h
1455 31-12-2005 02:33:23 -2.1 C 3.47 g/m*3 -2.1 C 0 km/h
1456 31-12-2005 02:43:23 -2.1 C 3.47 g/m*3 -2.1 C 0 km/h
1457 31-12-2005 02:54:25 -2 C 3.54 g/m*3 -2 C 0 km/h
1458 31-12-2005 03:04:25 -1.9 C 3.57 g/m*3 -1.9 C 0 km/h
1459 31-12-2005 03:14:25 -1.9 C 3.57 g/m*3 -1.9 C 0 km/h
1460 31-12-2005 03:24:25 -1.9 C 3.61 g/m*3 -1.9 C 0 km/h
1461 31-12-2005 03:34:25 -1.8 C 3.63 g/m*3 -1.8 C 0 km/h
1462 31-12-2005 03:44:25 -0.7 C 4.02 g/m*3 -0.7 C 0 km/h
1463 31-12-2005 03:54:25 -0.6 C 4.04 g/m*3 -0.6 C 0 km/h
1464 31-12-2005 04:04:25 -0.5 C 4.07 g/m*3 -0.5 C 0 km/h
1465 31-12-2005 04:14:25 -0.1 C 4.23 g/m*3 -0.1 C 0 km/h
1466 31-12-2005 04:24:25 0.2 C 4.32 g/m*3 0.2 C 0 km/h
1467 31-12-2005 04:34:25 0.6 C 4.49 g/m*3 0.6 C 0 km/h
1468 31-12-2005 04:44:25 0.7 C 4.53 g/m*3 0.7 C 0 km/h
1469 31-12-2005 04:54:25 1 C 4.62 g/m*3 1 C 0 km/h
1470 31-12-2005 05:04:25 1.4 C 4.8 g/m*3 1.4 C 0 km/h
1471 31-12-2005 05:14:25 1.7 C 4.9 g/m*3 1.7 C 0 km/h
1472 31-12-2005 05:24:25 1.6 C 4.81 g/m*3 1.6 C 0 km/h
1473 31-12-2005 05:34:25 1.9 C 4.91 g/m*3 1.9 C 0 km/h
1474 31-12-2005 05:44:25 1.8 C 4.88 g/m*3 1.8 C 0 km/h
1475 31-12-2005 05:54:25 1.9 C 4.97 g/m*3 1.9 C 0 km/h
Sensor: Nr:Datum:Temp:Abs-Feuchte:Windchill:Wind:
Aussen-T/F 1476 31-12-2005 06:04:25 1.9 C 4.97 g/m*3 1.9 C 0 km/h
1477 31-12-2005 06:14:25 2 C 5 g/m*3 2 C 0 km/h
1478 31-12-2005 06:24:25 1.9 C 5.02 g/m*3 1.9 C 0 km/h
1479 31-12-2005 06:34:25 1.9 C 5.08 g/m*3 1.9 C 0 km/h
1480 31-12-2005 06:44:25 1.9 C 5.08 g/m*3 1.9 C 0 km/h
1481 31-12-2005 06:54:25 1.8 C 5.04 g/m*3 1.8 C 0 km/h
1482 31-12-2005 07:04:25 1.6 C 5.03 g/m*3 1.6 C 0 km/h
1483 31-12-2005 07:14:25 1.5 C 4.99 g/m*3 1.5 C 0 km/h
1484 31-12-2005 07:24:25 1.5 C 4.99 g/m*3 1.5 C 0 km/h
1485 31-12-2005 07:34:25 1.6 C 5.03 g/m*3 1.6 C 0 km/h
1486 31-12-2005 07:44:25 1.6 C 5.08 g/m*3 1.6 C 0 km/h
1487 31-12-2005 07:54:25 1.7 C 5.12 g/m*3 1.7 C 0 km/h
1488 31-12-2005 08:04:25 2 C 5.22 g/m*3 2 C 0 km/h
1489 31-12-2005 08:14:25 1.9 C 5.24 g/m*3 1.9 C 0 km/h
1490 31-12-2005 08:24:25 2.3 C 5.33 g/m*3 2.3 C 0 km/h
1491 31-12-2005 08:34:25 2.3 C 5.39 g/m*3 2.3 C 0 km/h
1492 31-12-2005 08:44:25 2.2 C 5.35 g/m*3 2.2 C 0 km/h
1493 31-12-2005 08:54:25 2.2 C 5.35 g/m*3 2.2 C 0 km/h
1494 31-12-2005 09:04:25 2.1 C 5.31 g/m*3 2.1 C 0 km/h
1495 31-12-2005 09:14:25 2.2 C 5.35 g/m*3 2.2 C 0 km/h
1496 31-12-2005 09:24:25 2.9 C 5.61 g/m*3 2.9 C 0 km/h
1497 31-12-2005 09:34:25 3.4 C 5.8 g/m*3 3.4 C 0 km/h
1498 31-12-2005 09:44:25 4.1 C 6.08 g/m*3 4.1 C 0 km/h
1499 31-12-2005 09:54:25 3.8 C 5.96 g/m*3 3.8 C 0 km/h
1500 31-12-2005 10:04:26 4 C 5.98 g/m*3 4 C 0 km/h
Sensor: Nr:Datum:Temp:Abs-Feuchte:Windchill:Wind:
Aussen-T/F 1501 31-12-2005 10:14:26 4.2 C 6.06 g/m*3 4.2 C 0 km/h
1502 31-12-2005 10:24:26 4.4 C 6.01 g/m*3 4.4 C 0 km/h
1503 31-12-2005 10:34:26 4.8 C 6.1 g/m*3 4.8 C 0 km/h
1504 31-12-2005 10:44:26 4.9 C 5.94 g/m*3 4.9 C 0 km/h
1505 31-12-2005 10:54:26 4.9 C 5.81 g/m*3 4.9 C 0 km/h
1506 31-12-2005 11:04:26 5.3 C 5.82 g/m*3 5.3 C 0 km/h
1507 31-12-2005 11:14:26 5.3 C 5.68 g/m*3 5.3 C 0 km/h
1508 31-12-2005 11:24:25 5.4 C 5.65 g/m*3 5.4 C 0 km/h
1509 31-12-2005 11:34:26 5.1 C 5.54 g/m*3 5.1 C 0 km/h
1510 31-12-2005 11:44:26 5.1 C 5.54 g/m*3 5.1 C 0 km/h
1511 31-12-2005 11:54:25 5.4 C 5.65 g/m*3 5.4 C 0 km/h
1512 31-12-2005 12:04:26 5.6 C 5.66 g/m*3 5.6 C 0 km/h
1513 31-12-2005 12:14:26 5.6 C 5.59 g/m*3 5.6 C 0 km/h
1514 31-12-2005 12:24:26 5.6 C 5.51 g/m*3 5.6 C 0 km/h
1515 31-12-2005 12:34:26 5.5 C 5.48 g/m*3 5.5 C 0 km/h
1516 31-12-2005 12:44:27 5.9 C 5.62 g/m*3 5.9 C 0 km/h
1517 31-12-2005 12:54:26 6 C 5.52 g/m*3 6 C 0 km/h
1518 31-12-2005 13:04:26 5.8 C 5.44 g/m*3 5.8 C 0 km/h
1519 31-12-2005 13:14:26 6.3 C 5.48 g/m*3 6.3 C 0 km/h
1520 31-12-2005 13:24:26 6.4 C 5.36 g/m*3 6.4 C 0 km/h
1521 31-12-2005 13:34:26 6.6 C 5.36 g/m*3 6.6 C 0 km/h
1522 31-12-2005 13:44:27 6.8 C 5.35 g/m*3 6.8 C 0 km/h
1523 31-12-2005 13:54:26 6.8 C 5.35 g/m*3 6.8 C 0 km/h
1524 31-12-2005 14:04:26 6.9 C 5.31 g/m*3 6.9 C 0 km/h
1525 31-12-2005 14:14:26 6.8 C 5.28 g/m*3 6.8 C 0 km/h
Sensor: Nr:Datum:Temp:Abs-Feuchte:Windchill:Wind:
Aussen-T/F 1526 31-12-2005 14:24:26 6.8 C 5.28 g/m*3 6.8 C 0 km/h
1527 31-12-2005 14:34:26 6.8 C 5.35 g/m*3 6.8 C 0 km/h
1528 31-12-2005 14:44:26 6.7 C 5.32 g/m*3 6.7 C 0 km/h
1529 31-12-2005 14:54:26 6.6 C 5.28 g/m*3 6.6 C 0 km/h
1530 31-12-2005 15:04:26 6.4 C 5.29 g/m*3 6.4 C 0 km/h
1531 31-12-2005 15:14:26 6.3 C 5.26 g/m*3 6.3 C 0 km/h
1532 31-12-2005 15:24:26 6.2 C 5.29 g/m*3 6.2 C 0 km/h
1533 31-12-2005 15:34:26 6.1 C 5.26 g/m*3 6.1 C 0 km/h
1534 31-12-2005 15:44:26 5.9 C 5.34 g/m*3 5.9 C 0 km/h
1535 31-12-2005 15:54:26 5.7 C 5.27 g/m*3 5.7 C 0 km/h
1536 31-12-2005 16:04:26 5.5 C 5.27 g/m*3 5.5 C 0 km/h
1537 31-12-2005 16:14:26 5.5 C 5.27 g/m*3 5.5 C 0 km/h
1538 31-12-2005 16:24:26 5.3 C 5.13 g/m*3 5.3 C 0 km/h
1539 31-12-2005 16:34:26 5.3 C 5.2 g/m*3 5.3 C 0 km/h
1540 31-12-2005 16:44:26 5.2 C 5.16 g/m*3 5.2 C 0 km/h
1541 31-12-2005 16:54:26 5.2 C 5.23 g/m*3 5.2 C 0 km/h
1542 31-12-2005 17:04:27 5.3 C 5.34 g/m*3 5.3 C 0 km/h
1543 31-12-2005 17:14:27 5.1 C 5.13 g/m*3 5.1 C 0 km/h
1544 31-12-2005 17:24:26 4.9 C 5.13 g/m*3 4.9 C 0 km/h
1545 31-12-2005 17:34:26 4.7 C 5.13 g/m*3 4.7 C 0 km/h
1546 31-12-2005 17:44:26 4.5 C 5.06 g/m*3 4.5 C 0 km/h
1547 31-12-2005 17:54:27 4.3 C 5.06 g/m*3 4.3 C 0 km/h
1548 31-12-2005 18:04:27 4.3 C 5.06 g/m*3 4.3 C 0 km/h
1549 31-12-2005 18:14:27 4.2 C 5.09 g/m*3 4.2 C 0 km/h
1550 31-12-2005 18:24:26 4.1 C 5.06 g/m*3 4.1 C 0 km/h
Sensor: Nr:Datum:Temp:Abs-Feuchte:Windchill:Wind:
Aussen-T/F 1551 31-12-2005 18:34:26 4.1 C 5.12 g/m*3 4.1 C 0 km/h
1552 31-12-2005 18:44:26 3.9 C 5.05 g/m*3 3.9 C 0 km/h
1553 31-12-2005 18:54:27 3.8 C 5.08 g/m*3 3.8 C 0 km/h
1554 31-12-2005 19:04:27 3.8 C 5.14 g/m*3 3.8 C 0 km/h
1555 31-12-2005 19:14:27 3.7 C 5.17 g/m*3 3.7 C 0 km/h
1556 31-12-2005 19:24:26 3.6 C 5.14 g/m*3 3.6 C 0 km/h
1557 31-12-2005 19:34:26 3.6 C 5.14 g/m*3 3.6 C 0 km/h
1558 31-12-2005 19:44:26 3.8 C 5.27 g/m*3 3.8 C 0 km/h
1559 31-12-2005 19:54:27 3.9 C 5.31 g/m*3 3.9 C 0 km/h
1560 31-12-2005 20:04:26 3.8 C 5.21 g/m*3 3.8 C 0 km/h
1561 31-12-2005 20:14:26 3.7 C 5.23 g/m*3 3.7 C 0 km/h
1562 31-12-2005 20:24:26 3.6 C 5.26 g/m*3 3.6 C 0 km/h
1563 31-12-2005 20:34:27 3.4 C 5.31 g/m*3 3.4 C 0 km/h
1564 31-12-2005 20:44:27 3.4 C 5.37 g/m*3 3.4 C 0 km/h
1565 31-12-2005 20:54:26 3.4 C 5.37 g/m*3 3.4 C 0 km/h
1566 31-12-2005 21:04:27 3.2 C 5.3 g/m*3 3.2 C 0 km/h
1567 31-12-2005 21:14:27 3.2 C 5.36 g/m*3 3.2 C 0 km/h
1568 31-12-2005 21:24:27 3 C 5.29 g/m*3 3 C 0 km/h
1569 31-12-2005 21:34:27 3 C 5.29 g/m*3 3 C 0 km/h
1570 31-12-2005 21:44:27 3.1 C 5.39 g/m*3 3.1 C 0 km/h
1571 31-12-2005 21:54:27 3 C 5.35 g/m*3 3 C 0 km/h
1572 31-12-2005 22:04:27 2.9 C 5.37 g/m*3 2.9 C 0 km/h
1573 31-12-2005 22:14:27 2.8 C 5.34 g/m*3 2.8 C 0 km/h
1574 31-12-2005 22:24:26 2.8 C 5.34 g/m*3 2.8 C 0 km/h
1575 31-12-2005 22:34:26 2.9 C 5.37 g/m*3 2.9 C 0 km/h
Sensor: Nr:Datum:Temp:Abs-Feuchte:Windchill:Wind:
Aussen-T/F 1576 31-12-2005 22:44:26 2.9 C 5.43 g/m*3 2.9 C 0 km/h
1577 31-12-2005 22:54:27 2.9 C 5.43 g/m*3 2.9 C 0 km/h
1578 31-12-2005 23:04:26 3 C 5.41 g/m*3 3 C 0 km/h
1579 31-12-2005 23:14:26 3 C 5.41 g/m*3 3 C 0 km/h
1580 31-12-2005 23:24:27 3.1 C 5.45 g/m*3 3.1 C 0 km/h
1581 31-12-2005 23:34:27 3.2 C 5.48 g/m*3 3.2 C 0 km/h
1582 31-12-2005 23:44:27 3.1 C 5.45 g/m*3 3.1 C 0 km/h
1583 31-12-2005 23:55:28 3.3 C 5.46 g/m*3 3.3 C 0 km/h
1584 01-01-2006 00:05:28 3.5 C 5.53 g/m*3 3.5 C 0 km/h
1585 01-01-2006 00:15:28 3.5 C 5.47 g/m*3 3.5 C 0 km/h
1586 01-01-2006 00:25:28 3.3 C 5.34 g/m*3 3.3 C 0 km/h
1587 01-01-2006 00:35:28 3.4 C 5.37 g/m*3 3.4 C 0 km/h
1588 01-01-2006 00:45:28 3.3 C 5.28 g/m*3 3.3 C 0 km/h
1589 01-01-2006 00:55:28 3.2 C 5.24 g/m*3 3.2 C 0 km/h
1590 01-01-2006 01:05:28 3.1 C 5.21 g/m*3 3.1 C 0 km/h
1591 01-01-2006 01:15:28 3.1 C 5.21 g/m*3 3.1 C 0 km/h
1592 01-01-2006 01:25:28 3.1 C 5.21 g/m*3 3.1 C 0 km/h
1593 01-01-2006 01:35:28 3.1 C 5.21 g/m*3 3.1 C 0 km/h
1594 01-01-2006 01:45:28 3 C 5.23 g/m*3 3 C 0 km/h
1595 01-01-2006 01:55:28 3.1 C 5.27 g/m*3 3.1 C 0 km/h
1596 01-01-2006 02:05:28 3 C 5.23 g/m*3 3 C 0 km/h
1597 01-01-2006 02:15:29 2.9 C 5.2 g/m*3 2.9 C 0 km/h
1598 01-01-2006 02:25:29 2.8 C 5.16 g/m*3 2.8 C 0 km/h
1599 01-01-2006 02:35:29 2.9 C 5.2 g/m*3 2.9 C 0 km/h
1600 01-01-2006 02:45:29 2.9 C 5.2 g/m*3 2.9 C 0 km/h
Sensor: Nr:Datum:Temp:Abs-Feuchte:Windchill:Wind:
Aussen-T/F 1601 01-01-2006 02:55:29 3 C 5.17 g/m*3 3 C 0 km/h
1602 01-01-2006 03:05:29 3 C 5.17 g/m*3 3 C 0 km/h
1603 01-01-2006 03:15:28 2.5 C 5 g/m*3 2.5 C 0 km/h
1604 01-01-2006 03:25:28 2.6 C 5.03 g/m*3 2.6 C 0 km/h
1605 01-01-2006 03:35:28 2.8 C 5.16 g/m*3 2.8 C 0 km/h
1606 01-01-2006 03:45:28 3 C 5.23 g/m*3 3 C 0 km/h
1607 01-01-2006 03:55:28 3.2 C 5.24 g/m*3 3.2 C 0 km/h
1608 01-01-2006 04:05:27 3.1 C 5.15 g/m*3 3.1 C 0 km/h
1609 01-01-2006 04:15:27 2.9 C 5.14 g/m*3 2.9 C 0 km/h
1610 01-01-2006 04:25:28 2.7 C 5.07 g/m*3 2.7 C 0 km/h
1611 01-01-2006 04:35:28 2.8 C 5.16 g/m*3 2.8 C 0 km/h
1612 01-01-2006 04:45:28 2.8 C 5.16 g/m*3 2.8 C 0 km/h
1613 01-01-2006 04:55:28 3 C 5.23 g/m*3 3 C 0 km/h
1614 01-01-2006 05:05:28 3.5 C 5.41 g/m*3 3.5 C 0 km/h
1615 01-01-2006 05:15:28 3.7 C 5.36 g/m*3 3.7 C 0 km/h
1616 01-01-2006 05:25:28 4.1 C 5.25 g/m*3 4.1 C 0 km/h
1617 01-01-2006 05:35:28 4.3 C 5.19 g/m*3 4.3 C 0 km/h
1618 01-01-2006 05:45:28 4.2 C 4.96 g/m*3 4.2 C 0 km/h
1619 01-01-2006 05:55:28 4.1 C 4.93 g/m*3 4.1 C 0 km/h
1620 01-01-2006 06:05:28 3.9 C 4.93 g/m*3 3.9 C 0 km/h
1621 01-01-2006 06:15:28 4 C 4.9 g/m*3 4 C 0 km/h
1622 01-01-2006 06:25:28 3.8 C 4.89 g/m*3 3.8 C 0 km/h
1623 01-01-2006 06:35:28 3.9 C 4.99 g/m*3 3.9 C 0 km/h
1624 01-01-2006 06:45:28 4 C 4.96 g/m*3 4 C 0 km/h
1625 01-01-2006 06:55:28 4.2 C 4.96 g/m*3 4.2 C 0 km/h
Sensor: Nr:Datum:Temp:Abs-Feuchte:Windchill:Wind:
Aussen-T/F 1626 01-01-2006 07:05:28 4.1 C 4.93 g/m*3 4.1 C 0 km/h
1627 01-01-2006 07:15:28 4.1 C 4.93 g/m*3 4.1 C 0 km/h
1628 01-01-2006 07:25:28 3.9 C 4.93 g/m*3 3.9 C 0 km/h
1629 01-01-2006 07:35:28 4.3 C 4.99 g/m*3 4.3 C 0 km/h
1630 01-01-2006 07:45:29 4.3 C 4.93 g/m*3 4.3 C 0 km/h
1631 01-01-2006 07:55:28 4.3 C 4.93 g/m*3 4.3 C 0 km/h
1632 01-01-2006 08:05:28 4.3 C 4.86 g/m*3 4.3 C 0 km/h
1633 01-01-2006 08:15:28 4.4 C 4.83 g/m*3 4.4 C 0 km/h
1634 01-01-2006 08:25:28 4.5 C 4.86 g/m*3 4.5 C 0 km/h
1635 01-01-2006 08:35:29 4.6 C 4.9 g/m*3 4.6 C 0 km/h
1636 01-01-2006 08:45:29 4.6 C 4.83 g/m*3 4.6 C 0 km/h
1637 01-01-2006 08:55:28 4.8 C 4.76 g/m*3 4.8 C 0 km/h
1638 01-01-2006 09:05:29 4.8 C 4.69 g/m*3 4.8 C 0 km/h
1639 01-01-2006 09:15:29 5 C 4.69 g/m*3 5 C 0 km/h
1640 01-01-2006 09:25:28 5 C 4.69 g/m*3 5 C 0 km/h
1641 01-01-2006 09:35:29 5 C 4.76 g/m*3 5 C 0 km/h
1642 01-01-2006 09:45:29 4.9 C 4.86 g/m*3 4.9 C 0 km/h
1643 01-01-2006 09:55:28 4.8 C 4.9 g/m*3 4.8 C 0 km/h
1644 01-01-2006 10:05:29 4.8 C 4.9 g/m*3 4.8 C 0 km/h
1645 01-01-2006 10:15:29 4.8 C 4.9 g/m*3 4.8 C 0 km/h
1646 01-01-2006 10:25:29 4.6 C 4.9 g/m*3 4.6 C 0 km/h
1647 01-01-2006 10:35:29 4.6 C 4.9 g/m*3 4.6 C 0 km/h
1648 01-01-2006 10:45:29 4.6 C 4.9 g/m*3 4.6 C 0 km/h
1649 01-01-2006 10:55:29 4.6 C 4.96 g/m*3 4.6 C 0 km/h
1650 01-01-2006 11:05:28 4.5 C 5 g/m*3 4.5 C 0 km/h
Sensor: Nr:Datum:Temp:Abs-Feuchte:Windchill:Wind:
Aussen-T/F 1651 01-01-2006 11:15:28 4.4 C 5.03 g/m*3 4.4 C 0 km/h
1652 01-01-2006 11:25:28 4.3 C 4.99 g/m*3 4.3 C 0 km/h
1653 01-01-2006 11:35:29 4.3 C 5.06 g/m*3 4.3 C 0 km/h
1654 01-01-2006 11:45:29 4.4 C 5.09 g/m*3 4.4 C 0 km/h
1655 01-01-2006 11:55:29 4.3 C 4.99 g/m*3 4.3 C 0 km/h
1656 01-01-2006 12:05:28 4.2 C 5.09 g/m*3 4.2 C 0 km/h
1657 01-01-2006 12:15:28 4.2 C 5.22 g/m*3 4.2 C 0 km/h
1658 01-01-2006 12:25:29 4.3 C 5.25 g/m*3 4.3 C 0 km/h
1659 01-01-2006 12:35:29 4.7 C 5.46 g/m*3 4.7 C 0 km/h
1660 01-01-2006 12:45:29 5 C 5.5 g/m*3 5 C 0 km/h
1661 01-01-2006 12:55:29 5.1 C 5.47 g/m*3 5.1 C 0 km/h
1662 01-01-2006 13:05:29 5.3 C 5.48 g/m*3 5.3 C 0 km/h
1663 01-01-2006 13:15:29 5.3 C 5.34 g/m*3 5.3 C 0 km/h
1664 01-01-2006 13:25:29 5.4 C 5.23 g/m*3 5.4 C 0 km/h
1665 01-01-2006 13:35:29 5.8 C 5.37 g/m*3 5.8 C 0 km/h
1666 01-01-2006 13:45:29 5.8 C 5.3 g/m*3 5.8 C 0 km/h
1667 01-01-2006 13:55:29 5.7 C 4.98 g/m*3 5.7 C 0 km/h
1668 01-01-2006 14:05:29 5.8 C 5.09 g/m*3 5.8 C 0 km/h
1669 01-01-2006 14:15:29 5.8 C 5.09 g/m*3 5.8 C 0 km/h
1670 01-01-2006 14:25:29 5.9 C 5.12 g/m*3 5.9 C 0 km/h
1671 01-01-2006 14:35:29 6 C 5.08 g/m*3 6 C 0 km/h
1672 01-01-2006 14:45:29 6.2 C 5.15 g/m*3 6.2 C 0 km/h
1673 01-01-2006 14:55:29 6.2 C 4.93 g/m*3 6.2 C 0 km/h
1674 01-01-2006 15:05:29 6 C 4.79 g/m*3 6 C 0 km/h
1675 01-01-2006 15:15:29 5.8 C 4.8 g/m*3 5.8 C 0 km/h
Sensor: Nr:Datum:Temp:Abs-Feuchte:Windchill:Wind:
Aussen-T/F 1676 01-01-2006 15:25:29 5.3 C 4.78 g/m*3 5.3 C 0 km/h
1677 01-01-2006 15:35:29 5.1 C 4.92 g/m*3 5.1 C 0 km/h
1678 01-01-2006 15:45:29 5 C 5.03 g/m*3 5 C 0 km/h
1679 01-01-2006 15:55:29 4.9 C 5.13 g/m*3 4.9 C 0 km/h
1680 01-01-2006 16:05:30 4.7 C 5.2 g/m*3 4.7 C 0 km/h
1681 01-01-2006 16:15:30 4.5 C 5.13 g/m*3 4.5 C 0 km/h
1682 01-01-2006 16:25:29 4.4 C 5.16 g/m*3 4.4 C 0 km/h
1683 01-01-2006 16:35:29 4.3 C 5.12 g/m*3 4.3 C 0 km/h
1684 01-01-2006 16:45:29 4.2 C 5.15 g/m*3 4.2 C 0 km/h
1685 01-01-2006 16:55:29 3.9 C 5.12 g/m*3 3.9 C 0 km/h
1686 01-01-2006 17:05:29 3.8 C 5.08 g/m*3 3.8 C 0 km/h
1687 01-01-2006 17:15:29 3.7 C 5.11 g/m*3 3.7 C 0 km/h
1688 01-01-2006 17:25:29 3.8 C 5.21 g/m*3 3.8 C 0 km/h
1689 01-01-2006 17:35:29 3.8 C 5.21 g/m*3 3.8 C 0 km/h
1690 01-01-2006 17:45:29 3.8 C 5.14 g/m*3 3.8 C 0 km/h
1691 01-01-2006 17:55:29 3.8 C 5.14 g/m*3 3.8 C 0 km/h
1692 01-01-2006 18:05:30 3.9 C 5.18 g/m*3 3.9 C 0 km/h
1693 01-01-2006 18:15:30 3.9 C 5.18 g/m*3 3.9 C 0 km/h
1694 01-01-2006 18:25:29 4 C 5.15 g/m*3 4 C 0 km/h
1695 01-01-2006 18:35:29 4 C 5.15 g/m*3 4 C 0 km/h
1696 01-01-2006 18:45:29 4 C 5.15 g/m*3 4 C 0 km/h
1697 01-01-2006 18:55:29 4 C 5.15 g/m*3 4 C 0 km/h
1698 01-01-2006 19:05:29 3.9 C 5.18 g/m*3 3.9 C 0 km/h
1699 01-01-2006 19:15:29 3.7 C 5.11 g/m*3 3.7 C 0 km/h
1700 01-01-2006 19:25:30 3.4 C 5.01 g/m*3 3.4 C 0 km/h
Sensor: Nr:Datum:Temp:Abs-Feuchte:Windchill:Wind:
Aussen-T/F 1701 01-01-2006 19:35:30 3.2 C 4.94 g/m*3 3.2 C 0 km/h
1702 01-01-2006 19:45:30 3.2 C 5 g/m*3 3.2 C 0 km/h
1703 01-01-2006 19:55:29 3.5 C 5.16 g/m*3 3.5 C 0 km/h
1704 01-01-2006 20:05:30 3.5 C 5.16 g/m*3 3.5 C 0 km/h
1705 01-01-2006 20:15:30 3.5 C 5.16 g/m*3 3.5 C 0 km/h
1706 01-01-2006 20:25:30 3.5 C 5.16 g/m*3 3.5 C 0 km/h
1707 01-01-2006 20:35:29 3.4 C 5.13 g/m*3 3.4 C 0 km/h
1708 01-01-2006 20:45:29 3.1 C 5.03 g/m*3 3.1 C 0 km/h
1709 01-01-2006 20:55:30 2.8 C 4.99 g/m*3 2.8 C 0 km/h
1710 01-01-2006 21:05:30 2.6 C 4.92 g/m*3 2.6 C 0 km/h
1711 01-01-2006 21:15:30 2.5 C 4.94 g/m*3 2.5 C 0 km/h
1712 01-01-2006 21:25:30 2.3 C 4.88 g/m*3 2.3 C 0 km/h
1713 01-01-2006 21:35:29 2.2 C 4.9 g/m*3 2.2 C 0 km/h
1714 01-01-2006 21:45:29 2.1 C 4.87 g/m*3 2.1 C 0 km/h
1715 01-01-2006 21:55:29 2.1 C 4.87 g/m*3 2.1 C 0 km/h
1716 01-01-2006 22:05:30 2 C 4.83 g/m*3 2 C 0 km/h
1717 01-01-2006 22:15:30 1.9 C 4.86 g/m*3 1.9 C 0 km/h
1718 01-01-2006 22:25:30 1.8 C 4.82 g/m*3 1.8 C 0 km/h
1719 01-01-2006 22:35:30 1.8 C 4.82 g/m*3 1.8 C 0 km/h
1720 01-01-2006 22:45:30 1.8 C 4.82 g/m*3 1.8 C 0 km/h
1721 01-01-2006 22:55:30 2 C 4.95 g/m*3 2 C 0 km/h
1722 01-01-2006 23:05:30 2.2 C 5.01 g/m*3 2.2 C 0 km/h
1723 01-01-2006 23:15:30 2.4 C 5.14 g/m*3 2.4 C 0 km/h
1724 01-01-2006 23:25:29 2.4 C 5.14 g/m*3 2.4 C 0 km/h
1725 01-01-2006 23:35:30 2.5 C 5.17 g/m*3 2.5 C 0 km/h
Sensor: Nr:Datum:Temp:Abs-Feuchte:Windchill:Wind:
Aussen-T/F 1726 01-01-2006 23:45:30 2.7 C 5.24 g/m*3 2.7 C 0 km/h
1727 01-01-2006 23:55:30 2.8 C 5.28 g/m*3 2.8 C 0 km/h
1728 02-01-2006 00:05:30 2.8 C 5.28 g/m*3 2.8 C 0 km/h
1729 02-01-2006 00:15:30 2.9 C 5.32 g/m*3 2.9 C 0 km/h
1730 02-01-2006 00:25:31 3.1 C 5.33 g/m*3 3.1 C 0 km/h
1731 02-01-2006 00:35:31 3 C 5.29 g/m*3 3 C 0 km/h
1732 02-01-2006 00:45:31 3 C 5.29 g/m*3 3 C 0 km/h
1733 02-01-2006 00:55:30 3 C 5.29 g/m*3 3 C 0 km/h
1734 02-01-2006 01:05:30 3.1 C 5.33 g/m*3 3.1 C 0 km/h
1735 02-01-2006 01:15:30 3.2 C 5.36 g/m*3 3.2 C 0 km/h
1736 02-01-2006 01:25:30 3.1 C 5.27 g/m*3 3.1 C 0 km/h
1737 02-01-2006 01:35:30 3.1 C 5.27 g/m*3 3.1 C 0 km/h
1738 02-01-2006 01:45:31 3.1 C 5.27 g/m*3 3.1 C 0 km/h
1739 02-01-2006 01:55:31 3.1 C 5.27 g/m*3 3.1 C 0 km/h
1740 02-01-2006 02:05:30 3.2 C 5.3 g/m*3 3.2 C 0 km/h
1741 02-01-2006 02:15:30 3.2 C 5.3 g/m*3 3.2 C 0 km/h
1742 02-01-2006 02:25:31 3.2 C 5.3 g/m*3 3.2 C 0 km/h
1743 02-01-2006 02:35:31 3.3 C 5.34 g/m*3 3.3 C 0 km/h
1744 02-01-2006 02:45:31 3.3 C 5.34 g/m*3 3.3 C 0 km/h
1745 02-01-2006 02:56:31 3.3 C 5.28 g/m*3 3.3 C 0 km/h
1746 02-01-2006 03:06:31 3.4 C 5.31 g/m*3 3.4 C 0 km/h
1747 02-01-2006 03:16:32 3.3 C 5.28 g/m*3 3.3 C 0 km/h
1748 02-01-2006 03:26:32 3.2 C 5.24 g/m*3 3.2 C 0 km/h
1749 02-01-2006 03:36:32 3.1 C 5.15 g/m*3 3.1 C 0 km/h
1750 02-01-2006 03:46:32 3 C 5.11 g/m*3 3 C 0 km/h
Sensor: Nr:Datum:Temp:Abs-Feuchte:Windchill:Wind:
Aussen-T/F 1751 02-01-2006 03:56:32 2.7 C 5.07 g/m*3 2.7 C 0 km/h
1752 02-01-2006 04:06:32 2.4 C 4.91 g/m*3 2.4 C 0 km/h
1753 02-01-2006 04:16:32 2.1 C 4.81 g/m*3 2.1 C 0 km/h
1754 02-01-2006 04:26:32 2 C 4.78 g/m*3 2 C 0 km/h
1755 02-01-2006 04:36:32 1.8 C 4.77 g/m*3 1.8 C 0 km/h
1756 02-01-2006 04:46:32 1.7 C 4.74 g/m*3 1.7 C 0 km/h
1757 02-01-2006 04:56:32 1.8 C 4.82 g/m*3 1.8 C 0 km/h
1758 02-01-2006 05:06:32 1.8 C 4.82 g/m*3 1.8 C 0 km/h
1759 02-01-2006 05:16:32 2 C 4.89 g/m*3 2 C 0 km/h
1760 02-01-2006 05:26:32 2 C 4.89 g/m*3 2 C 0 km/h
1761 02-01-2006 05:36:32 2.1 C 4.98 g/m*3 2.1 C 0 km/h
1762 02-01-2006 05:46:32 2.1 C 4.98 g/m*3 2.1 C 0 km/h
1763 02-01-2006 05:56:32 2.1 C 4.98 g/m*3 2.1 C 0 km/h
1764 02-01-2006 06:06:32 1.9 C 4.91 g/m*3 1.9 C 0 km/h
1765 02-01-2006 06:16:32 1.9 C 4.91 g/m*3 1.9 C 0 km/h
1766 02-01-2006 06:26:32 1.8 C 4.88 g/m*3 1.8 C 0 km/h
1767 02-01-2006 06:36:32 1.8 C 4.88 g/m*3 1.8 C 0 km/h
1768 02-01-2006 06:46:32 1.7 C 4.85 g/m*3 1.7 C 0 km/h
1769 02-01-2006 06:56:32 2 C 4.95 g/m*3 2 C 0 km/h
1770 02-01-2006 07:06:32 2.4 C 5.08 g/m*3 2.4 C 0 km/h
1771 02-01-2006 07:16:32 2.5 C 5.12 g/m*3 2.5 C 0 km/h
1772 02-01-2006 07:26:32 2.6 C 5.15 g/m*3 2.6 C 0 km/h
1773 02-01-2006 07:36:33 2.6 C 5.09 g/m*3 2.6 C 0 km/h
1774 02-01-2006 07:46:32 2.6 C 5.09 g/m*3 2.6 C 0 km/h
1775 02-01-2006 07:56:32 2.7 C 5.07 g/m*3 2.7 C 0 km/h
Sensor: Nr:Datum:Temp:Abs-Feuchte:Windchill:Wind:
Aussen-T/F 1776 02-01-2006 08:06:33 2.7 C 5.07 g/m*3 2.7 C 0 km/h
1777 02-01-2006 08:16:32 2.7 C 5.07 g/m*3 2.7 C 0 km/h
1778 02-01-2006 08:26:32 2.7 C 5.07 g/m*3 2.7 C 0 km/h
1779 02-01-2006 08:36:32 2.7 C 5.01 g/m*3 2.7 C 0 km/h
1780 02-01-2006 08:46:32 2.7 C 5.01 g/m*3 2.7 C 0 km/h
1781 02-01-2006 08:56:32 2.6 C 4.98 g/m*3 2.6 C 0 km/h
1782 02-01-2006 09:06:32 2.6 C 4.98 g/m*3 2.6 C 0 km/h
1783 02-01-2006 09:16:33 2.6 C 4.98 g/m*3 2.6 C 0 km/h
1784 02-01-2006 09:26:33 2.8 C 5.04 g/m*3 2.8 C 0 km/h
1785 02-01-2006 09:36:33 2.8 C 5.04 g/m*3 2.8 C 0 km/h
1786 02-01-2006 09:46:33 3 C 4.99 g/m*3 3 C 0 km/h
1787 02-01-2006 09:56:33 3.1 C 4.97 g/m*3 3.1 C 0 km/h
1788 02-01-2006 10:06:33 3.2 C 5 g/m*3 3.2 C 0 km/h
1789 02-01-2006 10:16:32 3.3 C 4.97 g/m*3 3.3 C 0 km/h
1790 02-01-2006 10:26:32 3.5 C 5.04 g/m*3 3.5 C 0 km/h
1791 02-01-2006 10:36:32 3.5 C 4.98 g/m*3 3.5 C 0 km/h
1792 02-01-2006 10:46:32 3.5 C 4.98 g/m*3 3.5 C 0 km/h
1793 02-01-2006 10:56:32 3.5 C 4.92 g/m*3 3.5 C 0 km/h
1794 02-01-2006 11:06:33 3.6 C 4.89 g/m*3 3.6 C 0 km/h
1795 02-01-2006 11:16:33 3.3 C 4.73 g/m*3 3.3 C 0 km/h
1796 02-01-2006 11:26:33 3.1 C 4.73 g/m*3 3.1 C 0 km/h
1797 02-01-2006 11:36:33 3.2 C 4.82 g/m*3 3.2 C 0 km/h
1798 02-01-2006 11:46:33 3.2 C 4.82 g/m*3 3.2 C 0 km/h
1799 02-01-2006 11:56:33 3.1 C 4.79 g/m*3 3.1 C 0 km/h
1800 02-01-2006 12:06:33 2.9 C 4.78 g/m*3 2.9 C 0 km/h
Sensor: Nr:Datum:Temp:Abs-Feuchte:Windchill:Wind:
Aussen-T/F 1801 02-01-2006 12:16:32 3 C 4.82 g/m*3 3 C 0 km/h
1802 02-01-2006 12:26:32 2.8 C 4.81 g/m*3 2.8 C 0 km/h
1803 02-01-2006 12:36:33 2.8 C 4.81 g/m*3 2.8 C 0 km/h
1804 02-01-2006 12:46:32 2.8 C 4.81 g/m*3 2.8 C 0 km/h
1805 02-01-2006 12:56:32 2.8 C 4.81 g/m*3 2.8 C 0 km/h
1806 02-01-2006 13:06:33 3.1 C 4.91 g/m*3 3.1 C 0 km/h
1807 02-01-2006 13:16:33 3.6 C 5.01 g/m*3 3.6 C 0 km/h
1808 02-01-2006 13:26:33 3.8 C 4.96 g/m*3 3.8 C 0 km/h
1809 02-01-2006 13:36:33 3.7 C 4.86 g/m*3 3.7 C 0 km/h
1810 02-01-2006 13:46:33 3.6 C 4.83 g/m*3 3.6 C 0 km/h
1811 02-01-2006 13:56:34 3.6 C 4.83 g/m*3 3.6 C 0 km/h
1812 02-01-2006 14:06:33 3.5 C 4.8 g/m*3 3.5 C 0 km/h
1813 02-01-2006 14:16:32 3.6 C 4.83 g/m*3 3.6 C 0 km/h
1814 02-01-2006 14:26:32 3.7 C 4.86 g/m*3 3.7 C 0 km/h
1815 02-01-2006 14:36:33 3.6 C 4.89 g/m*3 3.6 C 0 km/h
1816 02-01-2006 14:46:33 3.7 C 4.92 g/m*3 3.7 C 0 km/h
1817 02-01-2006 14:56:33 3.7 C 4.92 g/m*3 3.7 C 0 km/h
1818 02-01-2006 15:06:33 3.7 C 4.92 g/m*3 3.7 C 0 km/h
1819 02-01-2006 15:16:33 3.8 C 4.96 g/m*3 3.8 C 0 km/h
1820 02-01-2006 15:26:33 3.8 C 4.96 g/m*3 3.8 C 0 km/h
1821 02-01-2006 15:36:33 3.8 C 4.96 g/m*3 3.8 C 0 km/h
1822 02-01-2006 15:46:33 3.9 C 4.99 g/m*3 3.9 C 0 km/h
1823 02-01-2006 15:56:33 3.9 C 4.99 g/m*3 3.9 C 0 km/h
1824 02-01-2006 16:06:34 3.9 C 4.99 g/m*3 3.9 C 0 km/h
1825 02-01-2006 16:16:33 3.9 C 5.05 g/m*3 3.9 C 0 km/h
Sensor: Nr:Datum:Temp:Abs-Feuchte:Windchill:Wind:
Aussen-T/F 1826 02-01-2006 16:26:33 3.9 C 5.05 g/m*3 3.9 C 0 km/h
1827 02-01-2006 16:36:33 3.9 C 4.99 g/m*3 3.9 C 0 km/h
1828 02-01-2006 16:46:34 3.9 C 4.93 g/m*3 3.9 C 0 km/h
1829 02-01-2006 16:56:34 3.9 C 4.93 g/m*3 3.9 C 0 km/h
1830 02-01-2006 17:06:34 3.9 C 4.99 g/m*3 3.9 C 0 km/h
1831 02-01-2006 17:16:33 3.9 C 4.99 g/m*3 3.9 C 0 km/h
1832 02-01-2006 17:26:33 3.9 C 4.99 g/m*3 3.9 C 0 km/h
1833 02-01-2006 17:36:34 3.8 C 4.96 g/m*3 3.8 C 0 km/h
1834 02-01-2006 17:46:33 3.8 C 4.96 g/m*3 3.8 C 0 km/h
1835 02-01-2006 17:56:33 3.9 C 4.99 g/m*3 3.9 C 0 km/h
1836 02-01-2006 18:06:33 3.9 C 4.99 g/m*3 3.9 C 0 km/h
1837 02-01-2006 18:16:33 3.9 C 4.99 g/m*3 3.9 C 0 km/h
1838 02-01-2006 18:26:33 3.8 C 4.89 g/m*3 3.8 C 0 km/h
1839 02-01-2006 18:36:33 3.8 C 4.96 g/m*3 3.8 C 0 km/h
1840 02-01-2006 18:46:33 3.8 C 4.89 g/m*3 3.8 C 0 km/h
1841 02-01-2006 18:56:33 3.7 C 4.86 g/m*3 3.7 C 0 km/h
1842 02-01-2006 19:06:34 3.7 C 4.8 g/m*3 3.7 C 0 km/h
1843 02-01-2006 19:16:34 3.6 C 4.64 g/m*3 3.6 C 0 km/h
1844 02-01-2006 19:26:34 3.5 C 4.55 g/m*3 3.5 C 0 km/h
1845 02-01-2006 19:36:33 3.5 C 4.55 g/m*3 3.5 C 0 km/h
1846 02-01-2006 19:46:34 3.4 C 4.52 g/m*3 3.4 C 0 km/h
1847 02-01-2006 19:56:34 3.4 C 4.52 g/m*3 3.4 C 0 km/h
1848 02-01-2006 20:06:34 3.5 C 4.61 g/m*3 3.5 C 0 km/h
1849 02-01-2006 20:16:34 3.5 C 4.61 g/m*3 3.5 C 0 km/h
1850 02-01-2006 20:26:34 3.4 C 4.58 g/m*3 3.4 C 0 km/h
Sensor: Nr:Datum:Temp:Abs-Feuchte:Windchill:Wind:
Aussen-T/F 1851 02-01-2006 20:36:34 3.5 C 4.61 g/m*3 3.5 C 0 km/h
1852 02-01-2006 20:46:33 3.4 C 4.58 g/m*3 3.4 C 0 km/h
1853 02-01-2006 20:56:33 3.4 C 4.64 g/m*3 3.4 C 0 km/h
1854 02-01-2006 21:06:35 3.3 C 4.61 g/m*3 3.3 C 0 km/h
1855 02-01-2006 21:16:34 3.3 C 4.61 g/m*3 3.3 C 0 km/h
1856 02-01-2006 21:26:34 3.3 C 4.61 g/m*3 3.3 C 0 km/h
1857 02-01-2006 21:36:34 3.3 C 4.61 g/m*3 3.3 C 0 km/h
1858 02-01-2006 21:46:33 3.3 C 4.67 g/m*3 3.3 C 0 km/h
1859 02-01-2006 21:56:33 3.2 C 4.64 g/m*3 3.2 C 0 km/h
1860 02-01-2006 22:06:34 3.3 C 4.67 g/m*3 3.3 C 0 km/h
1861 02-01-2006 22:16:33 3.3 C 4.67 g/m*3 3.3 C 0 km/h
1862 02-01-2006 22:26:33 3.2 C 4.64 g/m*3 3.2 C 0 km/h
1863 02-01-2006 22:36:33 3.2 C 4.64 g/m*3 3.2 C 0 km/h
1864 02-01-2006 22:46:34 3.2 C 4.64 g/m*3 3.2 C 0 km/h
1865 02-01-2006 22:56:34 3.2 C 4.7 g/m*3 3.2 C 0 km/h
1866 02-01-2006 23:06:34 3.2 C 4.7 g/m*3 3.2 C 0 km/h
1867 02-01-2006 23:16:34 3.2 C 4.7 g/m*3 3.2 C 0 km/h
1868 02-01-2006 23:26:34 3.2 C 4.7 g/m*3 3.2 C 0 km/h
1869 02-01-2006 23:36:33 3.2 C 4.7 g/m*3 3.2 C 0 km/h
1870 02-01-2006 23:46:34 3.2 C 4.7 g/m*3 3.2 C 0 km/h
1871 02-01-2006 23:56:34 3.2 C 4.7 g/m*3 3.2 C 0 km/h
1872 03-01-2006 00:06:34 3.2 C 4.7 g/m*3 3.2 C 0 km/h
1873 03-01-2006 00:16:35 3.2 C 4.7 g/m*3 3.2 C 0 km/h
1874 03-01-2006 00:26:35 3.2 C 4.7 g/m*3 3.2 C 0 km/h
1875 03-01-2006 00:36:34 3.1 C 4.73 g/m*3 3.1 C 0 km/h
Sensor: Nr:Datum:Temp:Abs-Feuchte:Windchill:Wind:
Aussen-T/F 1876 03-01-2006 00:46:35 3.1 C 4.73 g/m*3 3.1 C 0 km/h
1877 03-01-2006 00:56:35 3.1 C 4.73 g/m*3 3.1 C 0 km/h
1878 03-01-2006 01:06:34 3.1 C 4.73 g/m*3 3.1 C 0 km/h
1879 03-01-2006 01:16:35 3.1 C 4.67 g/m*3 3.1 C 0 km/h
1880 03-01-2006 01:26:35 3.1 C 4.73 g/m*3 3.1 C 0 km/h
1881 03-01-2006 01:36:34 3.2 C 4.76 g/m*3 3.2 C 0 km/h
1882 03-01-2006 01:46:34 3.1 C 4.73 g/m*3 3.1 C 0 km/h
1883 03-01-2006 01:56:34 3 C 4.7 g/m*3 3 C 0 km/h
1884 03-01-2006 02:06:34 3 C 4.7 g/m*3 3 C 0 km/h
1885 03-01-2006 02:16:34 3 C 4.76 g/m*3 3 C 0 km/h
1886 03-01-2006 02:26:34 3 C 4.76 g/m*3 3 C 0 km/h
1887 03-01-2006 02:36:34 3 C 4.82 g/m*3 3 C 0 km/h
1888 03-01-2006 02:47:36 3 C 4.82 g/m*3 3 C 0 km/h
1889 03-01-2006 02:57:36 2.8 C 4.81 g/m*3 2.8 C 0 km/h
1890 03-01-2006 03:07:36 2.7 C 4.78 g/m*3 2.7 C 0 km/h
1891 03-01-2006 03:17:36 2.8 C 4.87 g/m*3 2.8 C 0 km/h
1892 03-01-2006 03:27:36 2.8 C 4.87 g/m*3 2.8 C 0 km/h
1893 03-01-2006 03:37:37 2.8 C 4.87 g/m*3 2.8 C 0 km/h
1894 03-01-2006 03:47:37 2.8 C 4.87 g/m*3 2.8 C 0 km/h
1895 03-01-2006 03:57:37 2.7 C 4.89 g/m*3 2.7 C 0 km/h
1896 03-01-2006 04:07:36 2.7 C 4.89 g/m*3 2.7 C 0 km/h
1897 03-01-2006 04:17:36 2.7 C 4.89 g/m*3 2.7 C 0 km/h
1898 03-01-2006 04:27:36 2.7 C 4.89 g/m*3 2.7 C 0 km/h
1899 03-01-2006 04:37:36 2.7 C 4.89 g/m*3 2.7 C 0 km/h
1900 03-01-2006 04:47:36 2.8 C 4.99 g/m*3 2.8 C 0 km/h
Sensor: Nr:Datum:Temp:Abs-Feuchte:Windchill:Wind:
Aussen-T/F 1901 03-01-2006 04:57:36 2.9 C 5.02 g/m*3 2.9 C 0 km/h
1902 03-01-2006 05:07:36 2.8 C 4.99 g/m*3 2.8 C 0 km/h
1903 03-01-2006 05:17:36 2.7 C 4.95 g/m*3 2.7 C 0 km/h
1904 03-01-2006 05:27:36 2.4 C 4.8 g/m*3 2.4 C 0 km/h
1905 03-01-2006 05:37:36 2.3 C 4.82 g/m*3 2.3 C 0 km/h
1906 03-01-2006 05:47:36 2.2 C 4.84 g/m*3 2.2 C 0 km/h
1907 03-01-2006 05:57:36 2.4 C 4.97 g/m*3 2.4 C 0 km/h
1908 03-01-2006 06:07:36 2.5 C 5 g/m*3 2.5 C 0 km/h
1909 03-01-2006 06:17:36 2.7 C 5.07 g/m*3 2.7 C 0 km/h
1910 03-01-2006 06:27:36 2.7 C 5.07 g/m*3 2.7 C 0 km/h
1911 03-01-2006 06:37:36 2.8 C 5.1 g/m*3 2.8 C 0 km/h
1912 03-01-2006 06:47:36 2.9 C 5.08 g/m*3 2.9 C 0 km/h
1913 03-01-2006 06:57:36 2.9 C 5.08 g/m*3 2.9 C 0 km/h
1914 03-01-2006 07:07:36 2.8 C 5.04 g/m*3 2.8 C 0 km/h
1915 03-01-2006 07:17:36 2.9 C 5.02 g/m*3 2.9 C 0 km/h
1916 03-01-2006 07:27:37 3 C 4.99 g/m*3 3 C 0 km/h
1917 03-01-2006 07:37:36 3 C 4.99 g/m*3 3 C 0 km/h
1918 03-01-2006 07:47:36 2.9 C 5.02 g/m*3 2.9 C 0 km/h
1919 03-01-2006 07:57:36 2.9 C 5.02 g/m*3 2.9 C 0 km/h
1920 03-01-2006 08:07:37 2.9 C 5.02 g/m*3 2.9 C 0 km/h
1921 03-01-2006 08:17:37 3 C 4.99 g/m*3 3 C 0 km/h
1922 03-01-2006 08:27:37 2.9 C 5.02 g/m*3 2.9 C 0 km/h
1923 03-01-2006 08:37:36 3 C 4.99 g/m*3 3 C 0 km/h
1924 03-01-2006 08:47:36 3 C 4.99 g/m*3 3 C 0 km/h
1925 03-01-2006 08:57:36 2.9 C 5.02 g/m*3 2.9 C 0 km/h
Sensor: Nr:Datum:Temp:Abs-Feuchte:Windchill:Wind:
Aussen-T/F 1926 03-01-2006 09:07:36 2.8 C 4.99 g/m*3 2.8 C 0 km/h
1927 03-01-2006 09:17:36 2.7 C 4.95 g/m*3 2.7 C 0 km/h
1928 03-01-2006 09:27:36 2.7 C 4.95 g/m*3 2.7 C 0 km/h
1929 03-01-2006 09:37:37 2.7 C 5.01 g/m*3 2.7 C 0 km/h
1930 03-01-2006 09:47:36 2.7 C 5.01 g/m*3 2.7 C 0 km/h
1931 03-01-2006 09:57:36 2.7 C 5.07 g/m*3 2.7 C 0 km/h
1932 03-01-2006 10:07:37 2.7 C 5.07 g/m*3 2.7 C 0 km/h
1933 03-01-2006 10:17:37 2.6 C 4.98 g/m*3 2.6 C 0 km/h
1934 03-01-2006 10:27:37 2.5 C 4.83 g/m*3 2.5 C 0 km/h
1935 03-01-2006 10:37:37 2.5 C 4.83 g/m*3 2.5 C 0 km/h
1936 03-01-2006 10:47:36 2.6 C 4.86 g/m*3 2.6 C 0 km/h
1937 03-01-2006 10:57:36 2.6 C 4.75 g/m*3 2.6 C 0 km/h
1938 03-01-2006 11:07:37 2.7 C 4.72 g/m*3 2.7 C 0 km/h
1939 03-01-2006 11:17:37 2.8 C 4.69 g/m*3 2.8 C 0 km/h
1940 03-01-2006 11:27:37 2.8 C 4.63 g/m*3 2.8 C 0 km/h
1941 03-01-2006 11:37:36 2.8 C 4.52 g/m*3 2.8 C 0 km/h
1942 03-01-2006 11:47:37 2.9 C 4.43 g/m*3 2.9 C 0 km/h
1943 03-01-2006 11:57:38 3.1 C 4.49 g/m*3 3.1 C 0 km/h
1944 03-01-2006 12:07:36 3.1 C 4.43 g/m*3 3.1 C 0 km/h
1945 03-01-2006 12:17:36 3.4 C 4.52 g/m*3 3.4 C 0 km/h
1946 03-01-2006 12:27:36 3.3 C 4.49 g/m*3 3.3 C 0 km/h
1947 03-01-2006 12:37:37 3.5 C 4.55 g/m*3 3.5 C 0 km/h
1948 03-01-2006 12:47:37 3.3 C 4.37 g/m*3 3.3 C 0 km/h
1949 03-01-2006 12:57:37 3.2 C 4.34 g/m*3 3.2 C 0 km/h
1950 03-01-2006 13:07:37 3 C 4.28 g/m*3 3 C 0 km/h
Sensor: Nr:Datum:Temp:Abs-Feuchte:Windchill:Wind:
Aussen-T/F 1951 03-01-2006 13:17:37 3 C 4.34 g/m*3 3 C 0 km/h
1952 03-01-2006 13:27:37 3.1 C 4.31 g/m*3 3.1 C 0 km/h
1953 03-01-2006 13:37:36 3.2 C 4.28 g/m*3 3.2 C 0 km/h
1954 03-01-2006 13:47:36 3 C 4.16 g/m*3 3 C 0 km/h
1955 03-01-2006 13:57:36 3.1 C 4.25 g/m*3 3.1 C 0 km/h
1956 03-01-2006 14:07:37 3.1 C 4.19 g/m*3 3.1 C 0 km/h
1957 03-01-2006 14:17:37 3.1 C 4.19 g/m*3 3.1 C 0 km/h
1958 03-01-2006 14:27:37 3.5 C 4.3 g/m*3 3.5 C 0 km/h
1959 03-01-2006 14:37:37 3.4 C 4.15 g/m*3 3.4 C 0 km/h
1960 03-01-2006 14:47:37 3.5 C 4.18 g/m*3 3.5 C 0 km/h
1961 03-01-2006 14:57:37 3.6 C 4.21 g/m*3 3.6 C 0 km/h
1962 03-01-2006 15:07:37 3.6 C 4.21 g/m*3 3.6 C 0 km/h
1963 03-01-2006 15:17:37 3.4 C 4.09 g/m*3 3.4 C 0 km/h
1964 03-01-2006 15:27:37 3.4 C 4.15 g/m*3 3.4 C 0 km/h
1965 03-01-2006 15:37:37 3.5 C 4.24 g/m*3 3.5 C 0 km/h
1966 03-01-2006 15:47:37 3.5 C 4.24 g/m*3 3.5 C 0 km/h
1967 03-01-2006 15:57:37 3.4 C 4.15 g/m*3 3.4 C 0 km/h
1968 03-01-2006 16:07:37 3.2 C 4.1 g/m*3 3.2 C 0 km/h
1969 03-01-2006 16:17:37 3.1 C 4.07 g/m*3 3.1 C 0 km/h
1970 03-01-2006 16:27:37 3.1 C 4.13 g/m*3 3.1 C 0 km/h
1971 03-01-2006 16:37:38 2.9 C 4.13 g/m*3 2.9 C 0 km/h
1972 03-01-2006 16:47:37 2.9 C 4.19 g/m*3 2.9 C 0 km/h
1973 03-01-2006 16:57:37 2.8 C 4.11 g/m*3 2.8 C 0 km/h
1974 03-01-2006 17:07:37 2.8 C 4.16 g/m*3 2.8 C 0 km/h
1975 03-01-2006 17:17:37 2.7 C 4.14 g/m*3 2.7 C 0 km/h
Sensor: Nr:Datum:Temp:Abs-Feuchte:Windchill:Wind:
Aussen-T/F 1976 03-01-2006 17:27:38 2.4 C 4 g/m*3 2.4 C 0 km/h
1977 03-01-2006 17:37:37 2.3 C 3.97 g/m*3 2.3 C 0 km/h
1978 03-01-2006 17:47:37 2.3 C 3.97 g/m*3 2.3 C 0 km/h
1979 03-01-2006 17:57:37 2.2 C 3.94 g/m*3 2.2 C 0 km/h
1980 03-01-2006 18:07:38 2.2 C 3.94 g/m*3 2.2 C 0 km/h
1981 03-01-2006 18:17:37 2.3 C 3.97 g/m*3 2.3 C 0 km/h
1982 03-01-2006 18:27:37 2.3 C 3.97 g/m*3 2.3 C 0 km/h
1983 03-01-2006 18:37:37 2.3 C 3.97 g/m*3 2.3 C 0 km/h
1984 03-01-2006 18:47:37 2.2 C 3.94 g/m*3 2.2 C 0 km/h
1985 03-01-2006 18:57:37 2.2 C 3.94 g/m*3 2.2 C 0 km/h
1986 03-01-2006 19:07:38 2.1 C 3.86 g/m*3 2.1 C 0 km/h
1987 03-01-2006 19:17:37 2 C 3.83 g/m*3 2 C 0 km/h
1988 03-01-2006 19:27:37 1.7 C 3.81 g/m*3 1.7 C 0 km/h
1989 03-01-2006 19:37:38 1.2 C 3.74 g/m*3 1.2 C 0 km/h
1990 03-01-2006 19:47:37 0.9 C 3.76 g/m*3 0.9 C 0 km/h
1991 03-01-2006 19:57:37 0.7 C 3.81 g/m*3 0.7 C 0 km/h
1992 03-01-2006 20:07:37 0.5 C 3.76 g/m*3 0.5 C 0 km/h
1993 03-01-2006 20:17:38 0.3 C 3.76 g/m*3 0.3 C 0 km/h
1994 03-01-2006 20:27:38 0.2 C 3.78 g/m*3 0.2 C 0 km/h
1995 03-01-2006 20:37:38 0.1 C 3.81 g/m*3 0.1 C 0 km/h
1996 03-01-2006 20:47:37 0 C 3.78 g/m*3 0 C 0 km/h
1997 03-01-2006 20:57:37 -0.1 C 3.75 g/m*3 -0.1 C 0 km/h
1998 03-01-2006 21:07:39 -0.1 C 3.75 g/m*3 -0.1 C 0 km/h
1999 03-01-2006 21:17:37 -0.2 C 3.78 g/m*3 -0.2 C 0 km/h
2000 03-01-2006 21:27:37 -0.2 C 3.78 g/m*3 -0.2 C 0 km/h
Sensor: Nr:Datum:Temp:Abs-Feuchte:Windchill:Wind:
Aussen-T/F 2001 03-01-2006 21:37:38 -0.3 C 3.75 g/m*3 -0.3 C 0 km/h
2002 03-01-2006 21:47:37 -0.3 C 3.75 g/m*3 -0.3 C 0 km/h
2003 03-01-2006 21:57:37 -0.2 C 3.82 g/m*3 -0.2 C 0 km/h
2004 03-01-2006 22:07:37 -0.3 C 3.8 g/m*3 -0.3 C 0 km/h
2005 03-01-2006 22:17:37 -0.3 C 3.8 g/m*3 -0.3 C 0 km/h
2006 03-01-2006 22:27:37 -0.4 C 3.77 g/m*3 -0.4 C 0 km/h
2007 03-01-2006 22:37:38 -0.5 C 3.74 g/m*3 -0.5 C 0 km/h
2008 03-01-2006 22:47:38 -0.6 C 3.76 g/m*3 -0.6 C 0 km/h
2009 03-01-2006 22:57:39 -0.6 C 3.76 g/m*3 -0.6 C 0 km/h
2010 03-01-2006 23:07:38 -0.5 C 3.79 g/m*3 -0.5 C 0 km/h
2011 03-01-2006 23:17:37 -0.3 C 3.89 g/m*3 -0.3 C 0 km/h
2012 03-01-2006 23:27:37 -0.2 C 3.87 g/m*3 -0.2 C 0 km/h
2013 03-01-2006 23:37:38 -0.1 C 3.9 g/m*3 -0.1 C 0 km/h
2014 03-01-2006 23:47:37 -0.1 C 3.9 g/m*3 -0.1 C 0 km/h
2015 03-01-2006 23:57:37 -0.1 C 3.9 g/m*3 -0.1 C 0 km/h
2016 04-01-2006 00:07:38 -0.2 C 3.82 g/m*3 -0.2 C 0 km/h
2017 04-01-2006 00:17:38 -0.4 C 3.77 g/m*3 -0.4 C 0 km/h
2018 04-01-2006 00:27:38 -0.4 C 3.82 g/m*3 -0.4 C 0 km/h
2019 04-01-2006 00:37:39 -0.4 C 3.82 g/m*3 -0.4 C 0 km/h
2020 04-01-2006 00:47:38 -0.5 C 3.79 g/m*3 -0.5 C 0 km/h
2021 04-01-2006 00:57:38 -0.5 C 3.79 g/m*3 -0.5 C 0 km/h
2022 04-01-2006 01:07:38 -0.5 C 3.79 g/m*3 -0.5 C 0 km/h
2023 04-01-2006 01:17:39 -0.5 C 3.79 g/m*3 -0.5 C 0 km/h
2024 04-01-2006 01:27:39 -0.5 C 3.84 g/m*3 -0.5 C 0 km/h
2025 04-01-2006 01:37:38 -0.5 C 3.84 g/m*3 -0.5 C 0 km/h
Sensor: Nr:Datum:Temp:Abs-Feuchte:Windchill:Wind:
Aussen-T/F 2026 04-01-2006 01:47:39 -0.6 C 3.81 g/m*3 -0.6 C 0 km/h
2027 04-01-2006 01:57:39 -0.7 C 3.78 g/m*3 -0.7 C 0 km/h
2028 04-01-2006 02:07:39 -0.8 C 3.76 g/m*3 -0.8 C 0 km/h
2029 04-01-2006 02:17:38 -0.9 C 3.73 g/m*3 -0.9 C 0 km/h
2030 04-01-2006 02:27:38 -1 C 3.71 g/m*3 -1 C 0 km/h
2031 04-01-2006 02:37:38 -1 C 3.75 g/m*3 -1 C 0 km/h
2032 04-01-2006 02:48:39 -0.9 C 3.78 g/m*3 -0.9 C 0 km/h
2033 04-01-2006 02:58:39 -0.8 C 3.85 g/m*3 -0.8 C 0 km/h
2034 04-01-2006 03:08:39 -0.5 C 3.93 g/m*3 -0.5 C 0 km/h
2035 04-01-2006 03:18:39 -0.4 C 3.96 g/m*3 -0.4 C 0 km/h
2036 04-01-2006 03:28:39 -0.4 C 3.96 g/m*3 -0.4 C 0 km/h
2037 04-01-2006 03:38:40 -0.4 C 3.96 g/m*3 -0.4 C 0 km/h
2038 04-01-2006 03:48:40 -0.3 C 3.99 g/m*3 -0.3 C 0 km/h
2039 04-01-2006 03:58:40 -0.3 C 3.99 g/m*3 -0.3 C 0 km/h
2040 04-01-2006 04:08:40 -0.4 C 3.91 g/m*3 -0.4 C 0 km/h
2041 04-01-2006 04:18:39 -0.4 C 3.91 g/m*3 -0.4 C 0 km/h
2042 04-01-2006 04:28:39 -0.5 C 3.88 g/m*3 -0.5 C 0 km/h
2043 04-01-2006 04:38:39 -0.7 C 3.83 g/m*3 -0.7 C 0 km/h
2044 04-01-2006 04:48:40 -1 C 3.75 g/m*3 -1 C 0 km/h
2045 04-01-2006 04:58:40 -1.1 C 3.73 g/m*3 -1.1 C 0 km/h
2046 04-01-2006 05:08:39 -1.1 C 3.77 g/m*3 -1.1 C 0 km/h
2047 04-01-2006 05:18:39 -1 C 3.8 g/m*3 -1 C 0 km/h
2048 04-01-2006 05:28:39 -1 C 3.8 g/m*3 -1 C 0 km/h
2049 04-01-2006 05:38:39 -1.1 C 3.77 g/m*3 -1.1 C 0 km/h
2050 04-01-2006 05:48:40 -1.1 C 3.77 g/m*3 -1.1 C 0 km/h
Sensor: Nr:Datum:Temp:Abs-Feuchte:Windchill:Wind:
Aussen-T/F 2051 04-01-2006 05:58:40 -1.2 C 3.74 g/m*3 -1.2 C 0 km/h
2052 04-01-2006 06:08:39 -1.3 C 3.72 g/m*3 -1.3 C 0 km/h
2053 04-01-2006 06:18:39 -1.4 C 3.65 g/m*3 -1.4 C 0 km/h
2054 04-01-2006 06:28:39 -1.7 C 3.57 g/m*3 -1.7 C 0 km/h
2055 04-01-2006 06:38:39 -1.8 C 3.55 g/m*3 -1.8 C 0 km/h
2056 04-01-2006 06:48:39 -2 C 3.5 g/m*3 -2 C 0 km/h
2057 04-01-2006 06:58:39 -2.1 C 3.47 g/m*3 -2.1 C 0 km/h
2058 04-01-2006 07:08:40 -2.1 C 3.52 g/m*3 -2.1 C 0 km/h
2059 04-01-2006 07:18:40 -1.9 C 3.57 g/m*3 -1.9 C 0 km/h
2060 04-01-2006 07:28:40 -1.7 C 3.66 g/m*3 -1.7 C 0 km/h
2061 04-01-2006 07:38:40 -1.3 C 3.81 g/m*3 -1.3 C 0 km/h
2062 04-01-2006 07:48:39 -1.2 C 3.83 g/m*3 -1.2 C 0 km/h
2063 04-01-2006 07:58:39 -1.1 C 3.86 g/m*3 -1.1 C 0 km/h
2064 04-01-2006 08:08:40 -1 C 3.89 g/m*3 -1 C 0 km/h
2065 04-01-2006 08:18:40 -0.8 C 3.94 g/m*3 -0.8 C 0 km/h
2066 04-01-2006 08:28:40 -0.7 C 3.97 g/m*3 -0.7 C 0 km/h
2067 04-01-2006 08:38:40 -0.6 C 4 g/m*3 -0.6 C 0 km/h
2068 04-01-2006 08:48:40 -0.6 C 4 g/m*3 -0.6 C 0 km/h
2069 04-01-2006 08:58:40 -0.5 C 4.03 g/m*3 -0.5 C 0 km/h
2070 04-01-2006 09:08:40 -0.5 C 4.03 g/m*3 -0.5 C 0 km/h
2071 04-01-2006 09:18:40 -0.4 C 4.01 g/m*3 -0.4 C 0 km/h
2072 04-01-2006 09:28:40 -0.3 C 3.89 g/m*3 -0.3 C 0 km/h
2073 04-01-2006 09:38:40 -0.2 C 3.82 g/m*3 -0.2 C 0 km/h
2074 04-01-2006 09:48:39 -0.1 C 3.8 g/m*3 -0.1 C 0 km/h
2075 04-01-2006 09:58:39 0 C 3.78 g/m*3 0 C 0 km/h
Sensor: Nr:Datum:Temp:Abs-Feuchte:Windchill:Wind:
Aussen-T/F 2076 04-01-2006 10:08:40 0 C 3.68 g/m*3 0 C 0 km/h
2077 04-01-2006 10:18:40 0.1 C 3.66 g/m*3 0.1 C 0 km/h
2078 04-01-2006 10:28:40 0.2 C 3.54 g/m*3 0.2 C 0 km/h
2079 04-01-2006 10:38:40 0.3 C 3.51 g/m*3 0.3 C 0 km/h
2080 04-01-2006 10:48:40 0.5 C 3.56 g/m*3 0.5 C 0 km/h
2081 04-01-2006 10:58:40 0.6 C 3.53 g/m*3 0.6 C 0 km/h
2082 04-01-2006 11:08:40 0.7 C 3.51 g/m*3 0.7 C 0 km/h
2083 04-01-2006 11:18:40 1 C 3.53 g/m*3 1 C 0 km/h
2084 04-01-2006 11:28:40 1.1 C 3.5 g/m*3 1.1 C 0 km/h
2085 04-01-2006 11:38:40 1.3 C 3.5 g/m*3 1.3 C 0 km/h
2086 04-01-2006 11:48:40 1.3 C 3.5 g/m*3 1.3 C 0 km/h
2087 04-01-2006 11:58:40 1.3 C 3.44 g/m*3 1.3 C 0 km/h
2088 04-01-2006 12:08:40 1.3 C 3.5 g/m*3 1.3 C 0 km/h
2089 04-01-2006 12:18:40 1.5 C 3.49 g/m*3 1.5 C 0 km/h
2090 04-01-2006 12:28:40 1.9 C 3.59 g/m*3 1.9 C 0 km/h
2091 04-01-2006 12:38:40 2 C 3.5 g/m*3 2 C 0 km/h
2092 04-01-2006 12:48:40 2 C 3.45 g/m*3 2 C 0 km/h
2093 04-01-2006 12:58:40 2 C 3.5 g/m*3 2 C 0 km/h
2094 04-01-2006 13:08:41 2 C 3.5 g/m*3 2 C 0 km/h
2095 04-01-2006 13:18:40 1.7 C 3.43 g/m*3 1.7 C 0 km/h
2096 04-01-2006 13:28:40 1.2 C 3.47 g/m*3 1.2 C 0 km/h
2097 04-01-2006 13:38:40 1.1 C 3.5 g/m*3 1.1 C 0 km/h
2098 04-01-2006 13:48:40 0.9 C 3.61 g/m*3 0.9 C 0 km/h
2099 04-01-2006 13:58:40 0.8 C 3.58 g/m*3 0.8 C 0 km/h
2100 04-01-2006 14:08:40 0.8 C 3.63 g/m*3 0.8 C 0 km/h
Sensor: Nr:Datum:Temp:Abs-Feuchte:Windchill:Wind:
Aussen-T/F 2101 04-01-2006 14:18:40 0.9 C 3.71 g/m*3 0.9 C 0 km/h
2102 04-01-2006 14:28:40 1.3 C 3.76 g/m*3 1.3 C 0 km/h
2103 04-01-2006 14:38:41 1.7 C 3.87 g/m*3 1.7 C 0 km/h
2104 04-01-2006 14:48:41 1.8 C 3.73 g/m*3 1.8 C 0 km/h
2105 04-01-2006 14:58:41 1.9 C 3.64 g/m*3 1.9 C 0 km/h
2106 04-01-2006 15:08:41 1.8 C 3.62 g/m*3 1.8 C 0 km/h
2107 04-01-2006 15:18:40 1.6 C 3.62 g/m*3 1.6 C 0 km/h
2108 04-01-2006 15:28:40 1.3 C 3.66 g/m*3 1.3 C 0 km/h
2109 04-01-2006 15:38:40 1.2 C 3.68 g/m*3 1.2 C 0 km/h
2110 04-01-2006 15:48:40 1.3 C 3.76 g/m*3 1.3 C 0 km/h
2111 04-01-2006 15:58:40 1.5 C 3.87 g/m*3 1.5 C 0 km/h
2112 04-01-2006 16:08:40 1.6 C 3.89 g/m*3 1.6 C 0 km/h
2113 04-01-2006 16:18:41 1.5 C 3.87 g/m*3 1.5 C 0 km/h
2114 04-01-2006 16:28:41 1.5 C 3.92 g/m*3 1.5 C 0 km/h
2115 04-01-2006 16:38:41 1.4 C 3.89 g/m*3 1.4 C 0 km/h
2116 04-01-2006 16:48:41 1.3 C 3.81 g/m*3 1.3 C 0 km/h
2117 04-01-2006 16:58:41 1.3 C 3.81 g/m*3 1.3 C 0 km/h
2118 04-01-2006 17:08:41 1.2 C 3.79 g/m*3 1.2 C 0 km/h
2119 04-01-2006 17:18:40 1.2 C 3.79 g/m*3 1.2 C 0 km/h
2120 04-01-2006 17:28:40 1.3 C 3.76 g/m*3 1.3 C 0 km/h
2121 04-01-2006 17:38:40 1.3 C 3.71 g/m*3 1.3 C 0 km/h
2122 04-01-2006 17:48:41 1.3 C 3.71 g/m*3 1.3 C 0 km/h
2123 04-01-2006 17:58:41 1.2 C 3.68 g/m*3 1.2 C 0 km/h
2124 04-01-2006 18:08:41 1.2 C 3.68 g/m*3 1.2 C 0 km/h
2125 04-01-2006 18:18:41 1.2 C 3.68 g/m*3 1.2 C 0 km/h
Sensor: Nr:Datum:Temp:Abs-Feuchte:Windchill:Wind:
Aussen-T/F 2126 04-01-2006 18:28:41 1.1 C 3.66 g/m*3 1.1 C 0 km/h
2127 04-01-2006 18:38:41 1.1 C 3.71 g/m*3 1.1 C 0 km/h
2128 04-01-2006 18:48:40 1.1 C 3.71 g/m*3 1.1 C 0 km/h
2129 04-01-2006 18:58:40 1.1 C 3.71 g/m*3 1.1 C 0 km/h
2130 04-01-2006 19:08:41 1.1 C 3.76 g/m*3 1.1 C 0 km/h
2131 04-01-2006 19:18:41 1.1 C 3.71 g/m*3 1.1 C 0 km/h
2132 04-01-2006 19:28:41 1 C 3.69 g/m*3 1 C 0 km/h
2133 04-01-2006 19:38:41 0.7 C 3.66 g/m*3 0.7 C 0 km/h
2134 04-01-2006 19:48:41 0.6 C 3.64 g/m*3 0.6 C 0 km/h
2135 04-01-2006 19:58:41 0.6 C 3.69 g/m*3 0.6 C 0 km/h
2136 04-01-2006 20:08:41 0.6 C 3.69 g/m*3 0.6 C 0 km/h
2137 04-01-2006 20:18:41 0.6 C 3.69 g/m*3 0.6 C 0 km/h
2138 04-01-2006 20:28:41 0.6 C 3.69 g/m*3 0.6 C 0 km/h
2139 04-01-2006 20:38:41 0.7 C 3.66 g/m*3 0.7 C 0 km/h
2140 04-01-2006 20:48:41 0.8 C 3.69 g/m*3 0.8 C 0 km/h
2141 04-01-2006 20:58:41 0.8 C 3.69 g/m*3 0.8 C 0 km/h
2142 04-01-2006 21:08:41 0.8 C 3.69 g/m*3 0.8 C 0 km/h
2143 04-01-2006 21:18:41 0.8 C 3.69 g/m*3 0.8 C 0 km/h
2144 04-01-2006 21:28:41 0.7 C 3.71 g/m*3 0.7 C 0 km/h
2145 04-01-2006 21:38:42 0.7 C 3.71 g/m*3 0.7 C 0 km/h
2146 04-01-2006 21:48:41 0.7 C 3.71 g/m*3 0.7 C 0 km/h
2147 04-01-2006 21:58:41 0.8 C 3.69 g/m*3 0.8 C 0 km/h
2148 04-01-2006 22:08:41 0.8 C 3.69 g/m*3 0.8 C 0 km/h
2149 04-01-2006 22:18:42 0.9 C 3.71 g/m*3 0.9 C 0 km/h
2150 04-01-2006 22:28:42 1 C 3.69 g/m*3 1 C 0 km/h
Sensor: Nr:Datum:Temp:Abs-Feuchte:Windchill:Wind:
Aussen-T/F 2151 04-01-2006 22:38:41 0.9 C 3.71 g/m*3 0.9 C 0 km/h
2152 04-01-2006 22:48:42 0.9 C 3.66 g/m*3 0.9 C 0 km/h
2153 04-01-2006 22:58:42 0.9 C 3.66 g/m*3 0.9 C 0 km/h
2154 04-01-2006 23:08:41 1 C 3.63 g/m*3 1 C 0 km/h
2155 04-01-2006 23:18:41 1 C 3.58 g/m*3 1 C 0 km/h
2156 04-01-2006 23:28:41 1 C 3.53 g/m*3 1 C 0 km/h
2157 04-01-2006 23:38:41 1 C 3.53 g/m*3 1 C 0 km/h
2158 04-01-2006 23:48:41 1 C 3.53 g/m*3 1 C 0 km/h
2159 04-01-2006 23:58:41 1 C 3.53 g/m*3 1 C 0 km/h
2160 05-01-2006 00:08:42 1.1 C 3.5 g/m*3 1.1 C 0 km/h
2161 05-01-2006 00:18:41 1.1 C 3.5 g/m*3 1.1 C 0 km/h
2162 05-01-2006 00:28:41 1.1 C 3.5 g/m*3 1.1 C 0 km/h
2163 05-01-2006 00:38:41 1.1 C 3.5 g/m*3 1.1 C 0 km/h
2164 05-01-2006 00:48:41 1.1 C 3.5 g/m*3 1.1 C 0 km/h
2165 05-01-2006 00:58:42 1.1 C 3.5 g/m*3 1.1 C 0 km/h
2166 05-01-2006 01:08:41 1.1 C 3.45 g/m*3 1.1 C 0 km/h
2167 05-01-2006 01:18:41 1.1 C 3.5 g/m*3 1.1 C 0 km/h
2168 05-01-2006 01:28:41 1 C 3.58 g/m*3 1 C 0 km/h
2169 05-01-2006 01:38:41 1 C 3.58 g/m*3 1 C 0 km/h
2170 05-01-2006 01:48:41 1 C 3.58 g/m*3 1 C 0 km/h
2171 05-01-2006 01:58:41 0.9 C 3.61 g/m*3 0.9 C 0 km/h
2172 05-01-2006 02:08:41 1 C 3.63 g/m*3 1 C 0 km/h
2173 05-01-2006 02:18:42 0.8 C 3.63 g/m*3 0.8 C 0 km/h
2174 05-01-2006 02:28:43 0.8 C 3.69 g/m*3 0.8 C 0 km/h
2175 05-01-2006 02:38:42 0.8 C 3.63 g/m*3 0.8 C 0 km/h
Sensor: Nr:Datum:Temp:Abs-Feuchte:Windchill:Wind:
Aussen-T/F 2176 05-01-2006 02:49:43 0.8 C 3.58 g/m*3 0.8 C 0 km/h
2177 05-01-2006 02:59:44 0.8 C 3.53 g/m*3 0.8 C 0 km/h
2178 05-01-2006 03:09:44 0.9 C 3.56 g/m*3 0.9 C 0 km/h
2179 05-01-2006 03:19:43 0.9 C 3.51 g/m*3 0.9 C 0 km/h
2180 05-01-2006 03:29:43 0.9 C 3.51 g/m*3 0.9 C 0 km/h
2181 05-01-2006 03:39:43 0.9 C 3.51 g/m*3 0.9 C 0 km/h
2182 05-01-2006 03:49:43 0.9 C 3.51 g/m*3 0.9 C 0 km/h
2183 05-01-2006 03:59:43 1 C 3.48 g/m*3 1 C 0 km/h
2184 05-01-2006 04:09:44 1 C 3.48 g/m*3 1 C 0 km/h
2185 05-01-2006 04:19:44 1 C 3.48 g/m*3 1 C 0 km/h
2186 05-01-2006 04:29:44 1 C 3.48 g/m*3 1 C 0 km/h
2187 05-01-2006 04:39:44 1 C 3.48 g/m*3 1 C 0 km/h
2188 05-01-2006 04:49:44 1 C 3.48 g/m*3 1 C 0 km/h
2189 05-01-2006 04:59:44 0.9 C 3.45 g/m*3 0.9 C 0 km/h
2190 05-01-2006 05:09:43 1 C 3.43 g/m*3 1 C 0 km/h
2191 05-01-2006 05:19:44 1 C 3.43 g/m*3 1 C 0 km/h
2192 05-01-2006 05:29:44 1 C 3.48 g/m*3 1 C 0 km/h
2193 05-01-2006 05:39:44 1 C 3.43 g/m*3 1 C 0 km/h
2194 05-01-2006 05:49:43 1 C 3.43 g/m*3 1 C 0 km/h
2195 05-01-2006 05:59:44 1 C 3.43 g/m*3 1 C 0 km/h
2196 05-01-2006 06:09:43 0.9 C 3.45 g/m*3 0.9 C 0 km/h
2197 05-01-2006 06:19:43 0.8 C 3.43 g/m*3 0.8 C 0 km/h
2198 05-01-2006 06:29:43 0.8 C 3.43 g/m*3 0.8 C 0 km/h
2199 05-01-2006 06:39:44 0.9 C 3.4 g/m*3 0.9 C 0 km/h
2200 05-01-2006 06:49:44 0.9 C 3.4 g/m*3 0.9 C 0 km/h
Sensor: Nr:Datum:Temp:Abs-Feuchte:Windchill:Wind:
Aussen-T/F 2201 05-01-2006 06:59:44 0.8 C 3.43 g/m*3 0.8 C 0 km/h
2202 05-01-2006 07:09:44 0.8 C 3.43 g/m*3 0.8 C 0 km/h
2203 05-01-2006 07:19:43 0.8 C 3.43 g/m*3 0.8 C 0 km/h
2204 05-01-2006 07:29:43 0.8 C 3.43 g/m*3 0.8 C 0 km/h
2205 05-01-2006 07:39:43 0.8 C 3.43 g/m*3 0.8 C 0 km/h
2206 05-01-2006 07:49:44 0.8 C 3.43 g/m*3 0.8 C 0 km/h
2207 05-01-2006 07:59:45 0.9 C 3.45 g/m*3 0.9 C 0 km/h
2208 05-01-2006 08:09:43 0.9 C 3.45 g/m*3 0.9 C 0 km/h
2209 05-01-2006 08:19:43 1 C 3.48 g/m*3 1 C 0 km/h
2210 05-01-2006 08:29:43 1 C 3.48 g/m*3 1 C 0 km/h
2211 05-01-2006 08:39:44 1 C 3.53 g/m*3 1 C 0 km/h
2212 05-01-2006 08:49:44 1 C 3.53 g/m*3 1 C 0 km/h
2213 05-01-2006 08:59:44 1 C 3.53 g/m*3 1 C 0 km/h
2214 05-01-2006 09:09:44 1 C 3.53 g/m*3 1 C 0 km/h
2215 05-01-2006 09:19:44 1 C 3.53 g/m*3 1 C 0 km/h
2216 05-01-2006 09:29:44 1.1 C 3.55 g/m*3 1.1 C 0 km/h
2217 05-01-2006 09:39:43 1.1 C 3.55 g/m*3 1.1 C 0 km/h
2218 05-01-2006 09:49:44 1.2 C 3.58 g/m*3 1.2 C 0 km/h
2219 05-01-2006 09:59:44 1.2 C 3.58 g/m*3 1.2 C 0 km/h
2220 05-01-2006 10:09:44 1.3 C 3.6 g/m*3 1.3 C 0 km/h
2221 05-01-2006 10:19:44 1.3 C 3.6 g/m*3 1.3 C 0 km/h
2222 05-01-2006 10:29:44 1.3 C 3.6 g/m*3 1.3 C 0 km/h
2223 05-01-2006 10:39:44 1.4 C 3.63 g/m*3 1.4 C 0 km/h
2224 05-01-2006 10:49:44 1.4 C 3.63 g/m*3 1.4 C 0 km/h
2225 05-01-2006 10:59:44 1.4 C 3.63 g/m*3 1.4 C 0 km/h
Sensor: Nr:Datum:Temp:Abs-Feuchte:Windchill:Wind:
Aussen-T/F 2226 05-01-2006 11:09:44 1.4 C 3.68 g/m*3 1.4 C 0 km/h
2227 05-01-2006 11:19:44 1.4 C 3.68 g/m*3 1.4 C 0 km/h
2228 05-01-2006 11:29:44 1.4 C 3.73 g/m*3 1.4 C 0 km/h
2229 05-01-2006 11:39:44 1.5 C 3.76 g/m*3 1.5 C 0 km/h
2230 05-01-2006 11:49:44 1.5 C 3.76 g/m*3 1.5 C 0 km/h
2231 05-01-2006 11:59:44 1.5 C 3.76 g/m*3 1.5 C 0 km/h
2232 05-01-2006 12:09:44 1.5 C 3.81 g/m*3 1.5 C 0 km/h
2233 05-01-2006 12:19:44 1.7 C 3.81 g/m*3 1.7 C 0 km/h
2234 05-01-2006 12:29:44 1.8 C 3.84 g/m*3 1.8 C 0 km/h
2235 05-01-2006 12:39:44 1.8 C 3.78 g/m*3 1.8 C 0 km/h
2236 05-01-2006 12:49:44 1.8 C 3.78 g/m*3 1.8 C 0 km/h
2237 05-01-2006 12:59:44 1.8 C 3.73 g/m*3 1.8 C 0 km/h
2238 05-01-2006 13:09:44 1.9 C 3.75 g/m*3 1.9 C 0 km/h
2239 05-01-2006 13:19:44 2 C 3.72 g/m*3 2 C 0 km/h
2240 05-01-2006 13:29:44 2 C 3.67 g/m*3 2 C 0 km/h
2241 05-01-2006 13:39:44 2 C 3.67 g/m*3 2 C 0 km/h
2242 05-01-2006 13:49:45 2 C 3.72 g/m*3 2 C 0 km/h
2243 05-01-2006 13:59:45 2 C 3.72 g/m*3 2 C 0 km/h
2244 05-01-2006 14:09:44 2 C 3.72 g/m*3 2 C 0 km/h
2245 05-01-2006 14:19:44 2 C 3.72 g/m*3 2 C 0 km/h
2246 05-01-2006 14:29:44 2 C 3.72 g/m*3 2 C 0 km/h
2247 05-01-2006 14:39:44 2 C 3.72 g/m*3 2 C 0 km/h
2248 05-01-2006 14:49:44 2 C 3.72 g/m*3 2 C 0 km/h
2249 05-01-2006 14:59:44 2 C 3.72 g/m*3 2 C 0 km/h
2250 05-01-2006 15:09:45 2 C 3.78 g/m*3 2 C 0 km/h
Sensor: Nr:Datum:Temp:Abs-Feuchte:Windchill:Wind:
Aussen-T/F 2251 05-01-2006 15:19:45 2 C 3.78 g/m*3 2 C 0 km/h
2252 05-01-2006 15:29:45 1.9 C 3.81 g/m*3 1.9 C 0 km/h
2253 05-01-2006 15:39:44 1.9 C 3.81 g/m*3 1.9 C 0 km/h
2254 05-01-2006 15:49:45 1.8 C 3.78 g/m*3 1.8 C 0 km/h
2255 05-01-2006 15:59:45 1.8 C 3.84 g/m*3 1.8 C 0 km/h
2256 05-01-2006 16:09:44 1.8 C 3.84 g/m*3 1.8 C 0 km/h
2257 05-01-2006 16:19:44 1.8 C 3.84 g/m*3 1.8 C 0 km/h
2258 05-01-2006 16:29:44 1.8 C 3.84 g/m*3 1.8 C 0 km/h
2259 05-01-2006 16:39:45 1.7 C 3.87 g/m*3 1.7 C 0 km/h
2260 05-01-2006 16:49:44 1.7 C 3.87 g/m*3 1.7 C 0 km/h
2261 05-01-2006 16:59:44 1.7 C 3.87 g/m*3 1.7 C 0 km/h
2262 05-01-2006 17:09:45 1.7 C 3.87 g/m*3 1.7 C 0 km/h
2263 05-01-2006 17:19:45 1.7 C 3.92 g/m*3 1.7 C 0 km/h
2264 05-01-2006 17:29:45 1.7 C 3.92 g/m*3 1.7 C 0 km/h
2265 05-01-2006 17:39:45 1.7 C 3.92 g/m*3 1.7 C 0 km/h
2266 05-01-2006 17:49:45 1.7 C 3.87 g/m*3 1.7 C 0 km/h
2267 05-01-2006 17:59:45 1.7 C 3.92 g/m*3 1.7 C 0 km/h
2268 05-01-2006 18:09:44 1.6 C 3.89 g/m*3 1.6 C 0 km/h
2269 05-01-2006 18:19:44 1.7 C 3.92 g/m*3 1.7 C 0 km/h
2270 05-01-2006 18:29:44 1.7 C 3.87 g/m*3 1.7 C 0 km/h
2271 05-01-2006 18:39:45 1.7 C 3.87 g/m*3 1.7 C 0 km/h
2272 05-01-2006 18:49:44 1.8 C 3.89 g/m*3 1.8 C 0 km/h
2273 05-01-2006 18:59:44 1.7 C 3.87 g/m*3 1.7 C 0 km/h
2274 05-01-2006 19:09:45 1.8 C 3.84 g/m*3 1.8 C 0 km/h
2275 05-01-2006 19:19:45 1.8 C 3.84 g/m*3 1.8 C 0 km/h
Sensor: Nr:Datum:Temp:Abs-Feuchte:Windchill:Wind:
Aussen-T/F 2276 05-01-2006 19:29:45 1.8 C 3.84 g/m*3 1.8 C 0 km/h
2277 05-01-2006 19:39:45 1.8 C 3.84 g/m*3 1.8 C 0 km/h
2278 05-01-2006 19:49:45 1.9 C 3.81 g/m*3 1.9 C 0 km/h
2279 05-01-2006 19:59:45 1.9 C 3.81 g/m*3 1.9 C 0 km/h
2280 05-01-2006 20:09:45 1.9 C 3.81 g/m*3 1.9 C 0 km/h
2281 05-01-2006 20:19:45 1.9 C 3.81 g/m*3 1.9 C 0 km/h
2282 05-01-2006 20:29:45 1.9 C 3.81 g/m*3 1.9 C 0 km/h
2283 05-01-2006 20:39:45 1.8 C 3.78 g/m*3 1.8 C 0 km/h
2284 05-01-2006 20:49:44 1.8 C 3.84 g/m*3 1.8 C 0 km/h
2285 05-01-2006 20:59:44 1.8 C 3.78 g/m*3 1.8 C 0 km/h
2286 05-01-2006 21:09:45 1.7 C 3.76 g/m*3 1.7 C 0 km/h
2287 05-01-2006 21:19:45 1.5 C 3.76 g/m*3 1.5 C 0 km/h
2288 05-01-2006 21:29:45 1.4 C 3.73 g/m*3 1.4 C 0 km/h
2289 05-01-2006 21:39:45 1.1 C 3.66 g/m*3 1.1 C 0 km/h
2290 05-01-2006 21:49:45 0.9 C 3.71 g/m*3 0.9 C 0 km/h
2291 05-01-2006 21:59:45 0.7 C 3.66 g/m*3 0.7 C 0 km/h
2292 05-01-2006 22:09:45 0.4 C 3.69 g/m*3 0.4 C 0 km/h
2293 05-01-2006 22:19:45 0.3 C 3.71 g/m*3 0.3 C 0 km/h
2294 05-01-2006 22:29:45 0.1 C 3.66 g/m*3 0.1 C 0 km/h
2295 05-01-2006 22:39:45 -0.1 C 3.66 g/m*3 -0.1 C 0 km/h
2296 05-01-2006 22:49:45 -0.1 C 3.71 g/m*3 -0.1 C 0 km/h
2297 05-01-2006 22:59:45 -0.1 C 3.75 g/m*3 -0.1 C 0 km/h
2298 05-01-2006 23:09:45 -0.1 C 3.75 g/m*3 -0.1 C 0 km/h
2299 05-01-2006 23:19:45 -0.1 C 3.75 g/m*3 -0.1 C 0 km/h
2300 05-01-2006 23:29:45 -0.3 C 3.75 g/m*3 -0.3 C 0 km/h
Sensor: Nr:Datum:Temp:Abs-Feuchte:Windchill:Wind:
Aussen-T/F 2301 05-01-2006 23:39:46 -0.3 C 3.75 g/m*3 -0.3 C 0 km/h
2302 05-01-2006 23:49:45 -0.5 C 3.7 g/m*3 -0.5 C 0 km/h
2303 05-01-2006 23:59:45 -0.6 C 3.72 g/m*3 -0.6 C 0 km/h
2304 06-01-2006 00:09:46 -0.6 C 3.72 g/m*3 -0.6 C 0 km/h
2305 06-01-2006 00:19:45 -0.7 C 3.74 g/m*3 -0.7 C 0 km/h
2306 06-01-2006 00:29:45 -0.8 C 3.71 g/m*3 -0.8 C 0 km/h
2307 06-01-2006 00:39:46 -0.9 C 3.69 g/m*3 -0.9 C 0 km/h
2308 06-01-2006 00:49:46 -1.1 C 3.64 g/m*3 -1.1 C 0 km/h
2309 06-01-2006 00:59:46 -1.1 C 3.68 g/m*3 -1.1 C 0 km/h
2310 06-01-2006 01:09:45 -1.3 C 3.63 g/m*3 -1.3 C 0 km/h
2311 06-01-2006 01:19:46 -1.3 C 3.63 g/m*3 -1.3 C 0 km/h
2312 06-01-2006 01:29:46 -1.5 C 3.58 g/m*3 -1.5 C 0 km/h
2313 06-01-2006 01:39:46 -1.4 C 3.6 g/m*3 -1.4 C 0 km/h
2314 06-01-2006 01:49:45 -1.7 C 3.57 g/m*3 -1.7 C 0 km/h
2315 06-01-2006 01:59:45 -2 C 3.5 g/m*3 -2 C 0 km/h
2316 06-01-2006 02:09:45 -2.1 C 3.47 g/m*3 -2.1 C 0 km/h
2317 06-01-2006 02:19:45 -2 C 3.5 g/m*3 -2 C 0 km/h
2318 06-01-2006 02:29:45 -2.2 C 3.49 g/m*3 -2.2 C 0 km/h
2319 06-01-2006 02:39:45 -2.3 C 3.47 g/m*3 -2.3 C 0 km/h
2320 06-01-2006 02:50:48 -2.5 C 3.42 g/m*3 -2.5 C 0 km/h
2321 06-01-2006 03:00:48 -2.6 C 3.39 g/m*3 -2.6 C 0 km/h
2322 06-01-2006 03:10:48 -2.4 C 3.44 g/m*3 -2.4 C 0 km/h
2323 06-01-2006 03:20:47 -2.5 C 3.46 g/m*3 -2.5 C 0 km/h
2324 06-01-2006 03:30:47 -2.5 C 3.46 g/m*3 -2.5 C 0 km/h
2325 06-01-2006 03:40:47 -2.4 C 3.48 g/m*3 -2.4 C 0 km/h
Sensor: Nr:Datum:Temp:Abs-Feuchte:Windchill:Wind:
Aussen-T/F 2326 06-01-2006 03:50:47 -2.6 C 3.43 g/m*3 -2.6 C 0 km/h
2327 06-01-2006 04:00:47 -2.7 C 3.41 g/m*3 -2.7 C 0 km/h
2328 06-01-2006 04:10:47 -2.5 C 3.46 g/m*3 -2.5 C 0 km/h
2329 06-01-2006 04:20:47 -2.5 C 3.5 g/m*3 -2.5 C 0 km/h
2330 06-01-2006 04:30:47 -2.7 C 3.45 g/m*3 -2.7 C 0 km/h
2331 06-01-2006 04:40:47 -2.8 C 3.43 g/m*3 -2.8 C 0 km/h
2332 06-01-2006 04:50:47 -2.8 C 3.43 g/m*3 -2.8 C 0 km/h
2333 06-01-2006 05:00:47 -2.8 C 3.43 g/m*3 -2.8 C 0 km/h
2334 06-01-2006 05:10:47 -2.9 C 3.4 g/m*3 -2.9 C 0 km/h
2335 06-01-2006 05:20:47 -3.1 C 3.35 g/m*3 -3.1 C 0 km/h
2336 06-01-2006 05:30:47 -3 C 3.38 g/m*3 -3 C 0 km/h
2337 06-01-2006 05:40:47 -2.9 C 3.44 g/m*3 -2.9 C 0 km/h
2338 06-01-2006 05:50:47 -3.2 C 3.37 g/m*3 -3.2 C 0 km/h
2339 06-01-2006 06:00:47 -3.2 C 3.37 g/m*3 -3.2 C 0 km/h
2340 06-01-2006 06:10:47 -3.2 C 3.37 g/m*3 -3.2 C 0 km/h
2341 06-01-2006 06:20:47 -3.4 C 3.32 g/m*3 -3.4 C 0 km/h
2342 06-01-2006 06:30:47 -3.4 C 3.32 g/m*3 -3.4 C 0 km/h
2343 06-01-2006 06:40:48 -3.4 C 3.32 g/m*3 -3.4 C 0 km/h
2344 06-01-2006 06:50:48 -3.5 C 3.3 g/m*3 -3.5 C 0 km/h
2345 06-01-2006 07:00:48 -3.2 C 3.41 g/m*3 -3.2 C 0 km/h
2346 06-01-2006 07:10:48 -2.8 C 3.51 g/m*3 -2.8 C 0 km/h
2347 06-01-2006 07:20:47 -2.6 C 3.6 g/m*3 -2.6 C 0 km/h
2348 06-01-2006 07:30:47 -2.4 C 3.65 g/m*3 -2.4 C 0 km/h
2349 06-01-2006 07:40:47 -2.4 C 3.65 g/m*3 -2.4 C 0 km/h
2350 06-01-2006 07:50:47 -2.1 C 3.77 g/m*3 -2.1 C 0 km/h
Sensor: Nr:Datum:Temp:Abs-Feuchte:Windchill:Wind:
Aussen-T/F 2351 06-01-2006 08:00:48 -2 C 3.79 g/m*3 -2 C 0 km/h
2352 06-01-2006 08:10:47 -1.9 C 3.82 g/m*3 -1.9 C 0 km/h
2353 06-01-2006 08:20:48 -1.8 C 3.85 g/m*3 -1.8 C 0 km/h
2354 06-01-2006 08:30:48 -1.7 C 3.87 g/m*3 -1.7 C 0 km/h
2355 06-01-2006 08:40:48 -1.6 C 3.9 g/m*3 -1.6 C 0 km/h
2356 06-01-2006 08:50:48 -1.5 C 3.97 g/m*3 -1.5 C 0 km/h
2357 06-01-2006 09:00:48 -1.4 C 4 g/m*3 -1.4 C 0 km/h
2358 06-01-2006 09:10:48 -1.3 C 4.03 g/m*3 -1.3 C 0 km/h
2359 06-01-2006 09:20:48 -1.2 C 4.06 g/m*3 -1.2 C 0 km/h
2360 06-01-2006 09:30:48 -1.1 C 4.09 g/m*3 -1.1 C 0 km/h
2361 06-01-2006 09:40:47 -1.1 C 4.09 g/m*3 -1.1 C 0 km/h
2362 06-01-2006 09:50:47 -1.1 C 4.04 g/m*3 -1.1 C 0 km/h
2363 06-01-2006 10:00:47 -1 C 4.07 g/m*3 -1 C 0 km/h
2364 06-01-2006 10:10:48 -1 C 4.02 g/m*3 -1 C 0 km/h
2365 06-01-2006 10:20:48 -1 C 4.02 g/m*3 -1 C 0 km/h
2366 06-01-2006 10:30:48 -0.9 C 4.05 g/m*3 -0.9 C 0 km/h
2367 06-01-2006 10:40:48 -0.8 C 4.03 g/m*3 -0.8 C 0 km/h
2368 06-01-2006 10:50:48 -0.7 C 4.06 g/m*3 -0.7 C 0 km/h
2369 06-01-2006 11:00:48 -0.6 C 4.04 g/m*3 -0.6 C 0 km/h
2370 06-01-2006 11:10:48 -0.6 C 4.04 g/m*3 -0.6 C 0 km/h
2371 06-01-2006 11:20:47 -0.4 C 4.1 g/m*3 -0.4 C 0 km/h
2372 06-01-2006 11:30:47 -0.3 C 4.13 g/m*3 -0.3 C 0 km/h
2373 06-01-2006 11:40:48 -0.3 C 4.08 g/m*3 -0.3 C 0 km/h
2374 06-01-2006 11:50:47 -0.2 C 4.11 g/m*3 -0.2 C 0 km/h
2375 06-01-2006 12:00:47 0 C 4.12 g/m*3 0 C 0 km/h
Sensor: Nr:Datum:Temp:Abs-Feuchte:Windchill:Wind:
Aussen-T/F 2376 06-01-2006 12:10:48 0.1 C 4.15 g/m*3 0.1 C 0 km/h
2377 06-01-2006 12:20:48 0.4 C 4.28 g/m*3 0.4 C 0 km/h
2378 06-01-2006 12:30:49 0.5 C 4.31 g/m*3 0.5 C 0 km/h
2379 06-01-2006 12:40:48 0.8 C 4.35 g/m*3 0.8 C 0 km/h
2380 06-01-2006 12:50:48 1 C 4.36 g/m*3 1 C 0 km/h
2381 06-01-2006 13:00:48 1.1 C 4.39 g/m*3 1.1 C 0 km/h
2382 06-01-2006 13:10:48 1.2 C 4.42 g/m*3 1.2 C 0 km/h
2383 06-01-2006 13:20:48 1.2 C 4.42 g/m*3 1.2 C 0 km/h
2384 06-01-2006 13:30:48 1.3 C 4.45 g/m*3 1.3 C 0 km/h
2385 06-01-2006 13:40:48 1.3 C 4.4 g/m*3 1.3 C 0 km/h
2386 06-01-2006 13:50:48 1.3 C 4.4 g/m*3 1.3 C 0 km/h
2387 06-01-2006 14:00:48 1.3 C 4.4 g/m*3 1.3 C 0 km/h
2388 06-01-2006 14:10:48 1.4 C 4.43 g/m*3 1.4 C 0 km/h
2389 06-01-2006 14:20:48 1.4 C 4.43 g/m*3 1.4 C 0 km/h
2390 06-01-2006 14:30:48 1.5 C 4.4 g/m*3 1.5 C 0 km/h
2391 06-01-2006 14:40:49 1.5 C 4.4 g/m*3 1.5 C 0 km/h
2392 06-01-2006 14:50:48 1.4 C 4.37 g/m*3 1.4 C 0 km/h
2393 06-01-2006 15:00:48 1.4 C 4.37 g/m*3 1.4 C 0 km/h
2394 06-01-2006 15:10:48 1.4 C 4.37 g/m*3 1.4 C 0 km/h
2395 06-01-2006 15:20:48 1.4 C 4.37 g/m*3 1.4 C 0 km/h
2396 06-01-2006 15:30:49 1.3 C 4.34 g/m*3 1.3 C 0 km/h
2397 06-01-2006 15:40:48 1.3 C 4.34 g/m*3 1.3 C 0 km/h
2398 06-01-2006 15:50:48 1.2 C 4.31 g/m*3 1.2 C 0 km/h
2399 06-01-2006 16:00:48 1.2 C 4.31 g/m*3 1.2 C 0 km/h
2400 06-01-2006 16:10:48 1.3 C 4.34 g/m*3 1.3 C 0 km/h
Sensor: Nr:Datum:Temp:Abs-Feuchte:Windchill:Wind:
Aussen-T/F 2401 06-01-2006 16:20:49 1.3 C 4.34 g/m*3 1.3 C 0 km/h
2402 06-01-2006 16:30:49 1.3 C 4.34 g/m*3 1.3 C 0 km/h
2403 06-01-2006 16:40:49 1.3 C 4.34 g/m*3 1.3 C 0 km/h
2404 06-01-2006 16:50:49 1.3 C 4.34 g/m*3 1.3 C 0 km/h
2405 06-01-2006 17:00:49 1.3 C 4.34 g/m*3 1.3 C 0 km/h
2406 06-01-2006 17:10:48 1.3 C 4.34 g/m*3 1.3 C 0 km/h
2407 06-01-2006 17:20:48 1.3 C 4.29 g/m*3 1.3 C 0 km/h
2408 06-01-2006 17:30:48 1.3 C 4.29 g/m*3 1.3 C 0 km/h
2409 06-01-2006 17:40:49 1.3 C 4.29 g/m*3 1.3 C 0 km/h
2410 06-01-2006 17:50:48 1.3 C 4.29 g/m*3 1.3 C 0 km/h
2411 06-01-2006 18:00:48 1.3 C 4.29 g/m*3 1.3 C 0 km/h
2412 06-01-2006 18:10:49 1.3 C 4.29 g/m*3 1.3 C 0 km/h
2413 06-01-2006 18:20:49 1.4 C 4.32 g/m*3 1.4 C 0 km/h
2414 06-01-2006 18:30:49 1.4 C 4.32 g/m*3 1.4 C 0 km/h
2415 06-01-2006 18:40:48 1.4 C 4.32 g/m*3 1.4 C 0 km/h
2416 06-01-2006 18:50:48 1.4 C 4.32 g/m*3 1.4 C 0 km/h
2417 06-01-2006 19:00:48 1.4 C 4.32 g/m*3 1.4 C 0 km/h
2418 06-01-2006 19:10:49 1.4 C 4.32 g/m*3 1.4 C 0 km/h
2419 06-01-2006 19:20:49 1.5 C 4.35 g/m*3 1.5 C 0 km/h
2420 06-01-2006 19:30:49 1.5 C 4.35 g/m*3 1.5 C 0 km/h
2421 06-01-2006 19:40:48 1.5 C 4.35 g/m*3 1.5 C 0 km/h
2422 06-01-2006 19:50:49 1.6 C 4.38 g/m*3 1.6 C 0 km/h
2423 06-01-2006 20:00:49 1.7 C 4.41 g/m*3 1.7 C 0 km/h
2424 06-01-2006 20:10:49 1.7 C 4.36 g/m*3 1.7 C 0 km/h
2425 06-01-2006 20:20:48 1.7 C 4.36 g/m*3 1.7 C 0 km/h
Sensor: Nr:Datum:Temp:Abs-Feuchte:Windchill:Wind:
Aussen-T/F 2426 06-01-2006 20:30:48 1.7 C 4.36 g/m*3 1.7 C 0 km/h
2427 06-01-2006 20:40:49 1.6 C 4.33 g/m*3 1.6 C 0 km/h
2428 06-01-2006 20:50:49 1.6 C 4.33 g/m*3 1.6 C 0 km/h
2429 06-01-2006 21:00:49 1.6 C 4.38 g/m*3 1.6 C 0 km/h
2430 06-01-2006 21:10:49 1.6 C 4.38 g/m*3 1.6 C 0 km/h
2431 06-01-2006 21:20:49 1.5 C 4.35 g/m*3 1.5 C 0 km/h
2432 06-01-2006 21:30:49 1.6 C 4.38 g/m*3 1.6 C 0 km/h
2433 06-01-2006 21:40:49 1.6 C 4.38 g/m*3 1.6 C 0 km/h
2434 06-01-2006 21:50:49 1.6 C 4.38 g/m*3 1.6 C 0 km/h
2435 06-01-2006 22:00:49 1.6 C 4.38 g/m*3 1.6 C 0 km/h
2436 06-01-2006 22:10:49 1.6 C 4.38 g/m*3 1.6 C 0 km/h
2437 06-01-2006 22:20:49 1.6 C 4.38 g/m*3 1.6 C 0 km/h
2438 06-01-2006 22:30:49 1.6 C 4.38 g/m*3 1.6 C 0 km/h
2439 06-01-2006 22:40:49 1.6 C 4.38 g/m*3 1.6 C 0 km/h
2440 06-01-2006 22:50:49 1.7 C 4.46 g/m*3 1.7 C 0 km/h
2441 06-01-2006 23:00:49 1.7 C 4.46 g/m*3 1.7 C 0 km/h
2442 06-01-2006 23:10:49 1.8 C 4.49 g/m*3 1.8 C 0 km/h
2443 06-01-2006 23:20:49 1.8 C 4.49 g/m*3 1.8 C 0 km/h
2444 06-01-2006 23:30:49 1.9 C 4.47 g/m*3 1.9 C 0 km/h
2445 06-01-2006 23:40:50 2 C 4.45 g/m*3 2 C 0 km/h
2446 06-01-2006 23:50:50 2 C 4.45 g/m*3 2 C 0 km/h
2447 07-01-2006 00:00:50 1.9 C 4.47 g/m*3 1.9 C 0 km/h
2448 07-01-2006 00:10:49 1.9 C 4.47 g/m*3 1.9 C 0 km/h
2449 07-01-2006 00:20:49 1.9 C 4.47 g/m*3 1.9 C 0 km/h
2450 07-01-2006 00:30:49 1.9 C 4.47 g/m*3 1.9 C 0 km/h
Sensor: Nr:Datum:Temp:Abs-Feuchte:Windchill:Wind:
Aussen-T/F 2451 07-01-2006 00:40:49 1.9 C 4.47 g/m*3 1.9 C 0 km/h
2452 07-01-2006 00:50:49 1.9 C 4.47 g/m*3 1.9 C 0 km/h
2453 07-01-2006 01:00:49 1.9 C 4.47 g/m*3 1.9 C 0 km/h
2454 07-01-2006 01:10:49 1.8 C 4.44 g/m*3 1.8 C 0 km/h
2455 07-01-2006 01:20:49 1.9 C 4.47 g/m*3 1.9 C 0 km/h
2456 07-01-2006 01:30:49 2 C 4.5 g/m*3 2 C 0 km/h
2457 07-01-2006 01:40:49 2 C 4.5 g/m*3 2 C 0 km/h
2458 07-01-2006 01:50:50 2 C 4.5 g/m*3 2 C 0 km/h
2459 07-01-2006 02:00:50 1.9 C 4.47 g/m*3 1.9 C 0 km/h
2460 07-01-2006 02:10:50 1.9 C 4.47 g/m*3 1.9 C 0 km/h
2461 07-01-2006 02:20:50 1.9 C 4.47 g/m*3 1.9 C 0 km/h
2462 07-01-2006 02:30:50 1.9 C 4.47 g/m*3 1.9 C 0 km/h
2463 07-01-2006 02:40:50 1.9 C 4.47 g/m*3 1.9 C 0 km/h
2464 07-01-2006 02:51:51 1.9 C 4.47 g/m*3 1.9 C 0 km/h
2465 07-01-2006 03:01:52 1.8 C 4.44 g/m*3 1.8 C 0 km/h
2466 07-01-2006 03:11:51 1.8 C 4.44 g/m*3 1.8 C 0 km/h
2467 07-01-2006 03:21:51 1.8 C 4.44 g/m*3 1.8 C 0 km/h
2468 07-01-2006 03:31:51 1.8 C 4.44 g/m*3 1.8 C 0 km/h
2469 07-01-2006 03:41:51 1.8 C 4.44 g/m*3 1.8 C 0 km/h
2470 07-01-2006 03:51:51 1.8 C 4.44 g/m*3 1.8 C 0 km/h
2471 07-01-2006 04:01:51 1.8 C 4.49 g/m*3 1.8 C 0 km/h
2472 07-01-2006 04:11:51 1.8 C 4.49 g/m*3 1.8 C 0 km/h
2473 07-01-2006 04:21:51 1.8 C 4.44 g/m*3 1.8 C 0 km/h
2474 07-01-2006 04:31:52 1.8 C 4.44 g/m*3 1.8 C 0 km/h
2475 07-01-2006 04:41:51 1.8 C 4.44 g/m*3 1.8 C 0 km/h
Sensor: Nr:Datum:Temp:Abs-Feuchte:Windchill:Wind:
Aussen-T/F 2476 07-01-2006 04:51:51 1.8 C 4.49 g/m*3 1.8 C 0 km/h
2477 07-01-2006 05:01:51 1.8 C 4.49 g/m*3 1.8 C 0 km/h
2478 07-01-2006 05:11:51 1.8 C 4.49 g/m*3 1.8 C 0 km/h
2479 07-01-2006 05:21:51 1.8 C 4.49 g/m*3 1.8 C 0 km/h
2480 07-01-2006 05:31:51 1.8 C 4.49 g/m*3 1.8 C 0 km/h
2481 07-01-2006 05:41:51 1.8 C 4.49 g/m*3 1.8 C 0 km/h
2482 07-01-2006 05:51:52 1.9 C 4.53 g/m*3 1.9 C 0 km/h
2483 07-01-2006 06:01:52 1.9 C 4.53 g/m*3 1.9 C 0 km/h
2484 07-01-2006 06:11:51 2 C 4.5 g/m*3 2 C 0 km/h
2485 07-01-2006 06:21:51 2 C 4.5 g/m*3 2 C 0 km/h
2486 07-01-2006 06:31:51 2 C 4.5 g/m*3 2 C 0 km/h
2487 07-01-2006 06:41:51 2 C 4.5 g/m*3 2 C 0 km/h
2488 07-01-2006 06:51:51 2.1 C 4.48 g/m*3 2.1 C 0 km/h
2489 07-01-2006 07:01:51 2.1 C 4.48 g/m*3 2.1 C 0 km/h
2490 07-01-2006 07:11:51 2.1 C 4.42 g/m*3 2.1 C 0 km/h
2491 07-01-2006 07:21:52 2.2 C 4.45 g/m*3 2.2 C 0 km/h
2492 07-01-2006 07:31:52 2.2 C 4.39 g/m*3 2.2 C 0 km/h
2493 07-01-2006 07:41:51 2.1 C 4.36 g/m*3 2.1 C 0 km/h
2494 07-01-2006 07:51:52 2.1 C 4.42 g/m*3 2.1 C 0 km/h
2495 07-01-2006 08:01:52 2.1 C 4.42 g/m*3 2.1 C 0 km/h
2496 07-01-2006 08:11:51 2.1 C 4.42 g/m*3 2.1 C 0 km/h
2497 07-01-2006 08:21:51 2 C 4.39 g/m*3 2 C 0 km/h
2498 07-01-2006 08:31:51 2 C 4.39 g/m*3 2 C 0 km/h
2499 07-01-2006 08:41:52 2 C 4.39 g/m*3 2 C 0 km/h
2500 07-01-2006 08:51:51 2 C 4.39 g/m*3 2 C 0 km/h
Sensor: Nr:Datum:Temp:Abs-Feuchte:Windchill:Wind:
Aussen-T/F 2501 07-01-2006 09:01:51 2 C 4.45 g/m*3 2 C 0 km/h
2502 07-01-2006 09:11:52 2.1 C 4.48 g/m*3 2.1 C 0 km/h
2503 07-01-2006 09:21:52 2.1 C 4.48 g/m*3 2.1 C 0 km/h
2504 07-01-2006 09:31:53 2.2 C 4.51 g/m*3 2.2 C 0 km/h
2505 07-01-2006 09:41:51 2.3 C 4.54 g/m*3 2.3 C 0 km/h
2506 07-01-2006 09:51:51 2.3 C 4.54 g/m*3 2.3 C 0 km/h
2507 07-01-2006 10:01:51 2.4 C 4.57 g/m*3 2.4 C 0 km/h
2508 07-01-2006 10:11:51 2.5 C 4.54 g/m*3 2.5 C 0 km/h
2509 07-01-2006 10:21:52 2.6 C 4.57 g/m*3 2.6 C 0 km/h
2510 07-01-2006 10:31:52 2.7 C 4.6 g/m*3 2.7 C 0 km/h
2511 07-01-2006 10:41:52 2.8 C 4.58 g/m*3 2.8 C 0 km/h
2512 07-01-2006 10:51:52 2.9 C 4.61 g/m*3 2.9 C 0 km/h
2513 07-01-2006 11:01:52 3 C 4.58 g/m*3 3 C 0 km/h
2514 07-01-2006 11:11:52 3.1 C 4.61 g/m*3 3.1 C 0 km/h
2515 07-01-2006 11:21:52 3.1 C 4.55 g/m*3 3.1 C 0 km/h
2516 07-01-2006 11:31:52 3.2 C 4.52 g/m*3 3.2 C 0 km/h
2517 07-01-2006 11:41:52 3.2 C 4.46 g/m*3 3.2 C 0 km/h
2518 07-01-2006 11:51:51 3.4 C 4.52 g/m*3 3.4 C 0 km/h
2519 07-01-2006 12:01:51 3.5 C 4.49 g/m*3 3.5 C 0 km/h
2520 07-01-2006 12:11:52 3.5 C 4.43 g/m*3 3.5 C 0 km/h
2521 07-01-2006 12:21:52 3.6 C 4.46 g/m*3 3.6 C 0 km/h
2522 07-01-2006 12:31:52 3.6 C 4.39 g/m*3 3.6 C 0 km/h
2523 07-01-2006 12:41:52 3.7 C 4.42 g/m*3 3.7 C 0 km/h
2524 07-01-2006 12:51:52 3.7 C 4.42 g/m*3 3.7 C 0 km/h
2525 07-01-2006 13:01:52 3.7 C 4.42 g/m*3 3.7 C 0 km/h
Sensor: Nr:Datum:Temp:Abs-Feuchte:Windchill:Wind:
Aussen-T/F 2526 07-01-2006 13:11:52 3.7 C 4.36 g/m*3 3.7 C 0 km/h
2527 07-01-2006 13:21:52 3.7 C 4.42 g/m*3 3.7 C 0 km/h
2528 07-01-2006 13:31:52 3.7 C 4.36 g/m*3 3.7 C 0 km/h
2529 07-01-2006 13:41:52 3.8 C 4.45 g/m*3 3.8 C 0 km/h
2530 07-01-2006 13:51:52 3.8 C 4.45 g/m*3 3.8 C 0 km/h
2531 07-01-2006 14:01:52 3.8 C 4.39 g/m*3 3.8 C 0 km/h
2532 07-01-2006 14:11:52 3.8 C 4.39 g/m*3 3.8 C 0 km/h
2533 07-01-2006 14:21:52 3.8 C 4.39 g/m*3 3.8 C 0 km/h
2534 07-01-2006 14:31:52 3.8 C 4.39 g/m*3 3.8 C 0 km/h
2535 07-01-2006 14:41:52 3.9 C 4.48 g/m*3 3.9 C 0 km/h
2536 07-01-2006 14:51:52 3.9 C 4.42 g/m*3 3.9 C 0 km/h
2537 07-01-2006 15:01:52 3.9 C 4.42 g/m*3 3.9 C 0 km/h
2538 07-01-2006 15:11:52 4 C 4.39 g/m*3 4 C 0 km/h
2539 07-01-2006 15:21:53 3.9 C 4.42 g/m*3 3.9 C 0 km/h
2540 07-01-2006 15:31:53 3.8 C 4.39 g/m*3 3.8 C 0 km/h
2541 07-01-2006 15:41:52 3.8 C 4.39 g/m*3 3.8 C 0 km/h
2542 07-01-2006 15:51:53 3.7 C 4.42 g/m*3 3.7 C 0 km/h
2543 07-01-2006 16:01:53 3.6 C 4.39 g/m*3 3.6 C 0 km/h
2544 07-01-2006 16:11:52 3.5 C 4.43 g/m*3 3.5 C 0 km/h
2545 07-01-2006 16:21:52 3.4 C 4.4 g/m*3 3.4 C 0 km/h
2546 07-01-2006 16:31:52 3.3 C 4.37 g/m*3 3.3 C 0 km/h
2547 07-01-2006 16:41:52 3.3 C 4.43 g/m*3 3.3 C 0 km/h
2548 07-01-2006 16:51:52 3.3 C 4.43 g/m*3 3.3 C 0 km/h
2549 07-01-2006 17:01:52 3.2 C 4.4 g/m*3 3.2 C 0 km/h
2550 07-01-2006 17:11:52 3.2 C 4.4 g/m*3 3.2 C 0 km/h
Sensor: Nr:Datum:Temp:Abs-Feuchte:Windchill:Wind:
Aussen-T/F 2551 07-01-2006 17:21:53 3.2 C 4.4 g/m*3 3.2 C 0 km/h
2552 07-01-2006 17:31:53 3.1 C 4.43 g/m*3 3.1 C 0 km/h
2553 07-01-2006 17:41:53 3.1 C 4.43 g/m*3 3.1 C 0 km/h
2554 07-01-2006 17:51:52 3 C 4.4 g/m*3 3 C 0 km/h
2555 07-01-2006 18:01:52 3 C 4.4 g/m*3 3 C 0 km/h
2556 07-01-2006 18:11:53 3 C 4.4 g/m*3 3 C 0 km/h
2557 07-01-2006 18:21:53 3 C 4.4 g/m*3 3 C 0 km/h
2558 07-01-2006 18:31:53 3 C 4.4 g/m*3 3 C 0 km/h
2559 07-01-2006 18:41:53 3 C 4.4 g/m*3 3 C 0 km/h
2560 07-01-2006 18:51:52 3 C 4.4 g/m*3 3 C 0 km/h
2561 07-01-2006 19:01:52 3 C 4.46 g/m*3 3 C 0 km/h
2562 07-01-2006 19:11:52 2.9 C 4.43 g/m*3 2.9 C 0 km/h
2563 07-01-2006 19:21:53 2.8 C 4.4 g/m*3 2.8 C 0 km/h
2564 07-01-2006 19:31:53 2.8 C 4.4 g/m*3 2.8 C 0 km/h
2565 07-01-2006 19:41:53 2.8 C 4.46 g/m*3 2.8 C 0 km/h
2566 07-01-2006 19:51:53 2.7 C 4.43 g/m*3 2.7 C 0 km/h
2567 07-01-2006 20:01:53 2.7 C 4.43 g/m*3 2.7 C 0 km/h
2568 07-01-2006 20:11:53 2.8 C 4.46 g/m*3 2.8 C 0 km/h
2569 07-01-2006 20:21:53 2.8 C 4.46 g/m*3 2.8 C 0 km/h
2570 07-01-2006 20:31:53 2.8 C 4.4 g/m*3 2.8 C 0 km/h
2571 07-01-2006 20:41:52 2.8 C 4.4 g/m*3 2.8 C 0 km/h
2572 07-01-2006 20:51:53 2.8 C 4.34 g/m*3 2.8 C 0 km/h
2573 07-01-2006 21:01:53 2.8 C 4.28 g/m*3 2.8 C 0 km/h
2574 07-01-2006 21:11:52 2.9 C 4.31 g/m*3 2.9 C 0 km/h
2575 07-01-2006 21:21:52 2.8 C 4.28 g/m*3 2.8 C 0 km/h
Sensor: Nr:Datum:Temp:Abs-Feuchte:Windchill:Wind:
Aussen-T/F 2576 07-01-2006 21:31:52 2.8 C 4.28 g/m*3 2.8 C 0 km/h
2577 07-01-2006 21:41:52 2.8 C 4.28 g/m*3 2.8 C 0 km/h
2578 07-01-2006 21:51:53 2.8 C 4.28 g/m*3 2.8 C 0 km/h
2579 07-01-2006 22:01:53 2.8 C 4.28 g/m*3 2.8 C 0 km/h
2580 07-01-2006 22:11:53 2.8 C 4.28 g/m*3 2.8 C 0 km/h
2581 07-01-2006 22:21:53 2.8 C 4.28 g/m*3 2.8 C 0 km/h
2582 07-01-2006 22:31:53 2.8 C 4.28 g/m*3 2.8 C 0 km/h
2583 07-01-2006 22:41:53 2.8 C 4.28 g/m*3 2.8 C 0 km/h
2584 07-01-2006 22:51:53 2.8 C 4.28 g/m*3 2.8 C 0 km/h
2585 07-01-2006 23:01:53 2.8 C 4.28 g/m*3 2.8 C 0 km/h
2586 07-01-2006 23:11:53 2.8 C 4.28 g/m*3 2.8 C 0 km/h
2587 07-01-2006 23:21:53 2.8 C 4.28 g/m*3 2.8 C 0 km/h
2588 07-01-2006 23:31:53 2.8 C 4.28 g/m*3 2.8 C 0 km/h
2589 07-01-2006 23:41:53 2.8 C 4.28 g/m*3 2.8 C 0 km/h
2590 07-01-2006 23:51:53 2.8 C 4.22 g/m*3 2.8 C 0 km/h
2591 08-01-2006 00:01:54 2.8 C 4.22 g/m*3 2.8 C 0 km/h
2592 08-01-2006 00:11:53 2.8 C 4.11 g/m*3 2.8 C 0 km/h
2593 08-01-2006 00:21:53 2.9 C 4.13 g/m*3 2.9 C 0 km/h
2594 08-01-2006 00:31:53 2.8 C 4.16 g/m*3 2.8 C 0 km/h
2595 08-01-2006 00:41:53 2.8 C 4.11 g/m*3 2.8 C 0 km/h
2596 08-01-2006 00:51:54 2.8 C 4.16 g/m*3 2.8 C 0 km/h
2597 08-01-2006 01:01:54 2.8 C 4.16 g/m*3 2.8 C 0 km/h
2598 08-01-2006 01:11:53 2.8 C 4.11 g/m*3 2.8 C 0 km/h
2599 08-01-2006 01:21:54 2.8 C 4.05 g/m*3 2.8 C 0 km/h
2600 08-01-2006 01:31:54 2.8 C 4.11 g/m*3 2.8 C 0 km/h
Sensor: Nr:Datum:Temp:Abs-Feuchte:Windchill:Wind:
Aussen-T/F 2601 08-01-2006 01:41:54 2.8 C 4.11 g/m*3 2.8 C 0 km/h
2602 08-01-2006 01:51:53 2.8 C 4.11 g/m*3 2.8 C 0 km/h
2603 08-01-2006 02:01:53 2.8 C 4.11 g/m*3 2.8 C 0 km/h
2604 08-01-2006 02:11:53 2.9 C 4.07 g/m*3 2.9 C 0 km/h
2605 08-01-2006 02:21:53 2.8 C 4.05 g/m*3 2.8 C 0 km/h
2606 08-01-2006 02:31:54 2.8 C 4.11 g/m*3 2.8 C 0 km/h
2607 08-01-2006 02:41:53 2.7 C 4.08 g/m*3 2.7 C 0 km/h
2608 08-01-2006 02:52:55 2.7 C 4.14 g/m*3 2.7 C 0 km/h
2609 08-01-2006 03:02:55 2.8 C 4.11 g/m*3 2.8 C 0 km/h
2610 08-01-2006 03:12:55 2.8 C 4.05 g/m*3 2.8 C 0 km/h
2611 08-01-2006 03:22:55 2.8 C 4.05 g/m*3 2.8 C 0 km/h
2612 08-01-2006 03:32:55 2.7 C 4.08 g/m*3 2.7 C 0 km/h
2613 08-01-2006 03:42:55 2.7 C 4.14 g/m*3 2.7 C 0 km/h
2614 08-01-2006 03:52:55 2.7 C 4.2 g/m*3 2.7 C 0 km/h
2615 08-01-2006 04:02:55 2.6 C 4.17 g/m*3 2.6 C 0 km/h
2616 08-01-2006 04:12:55 2.5 C 4.2 g/m*3 2.5 C 0 km/h
2617 08-01-2006 04:22:55 2.5 C 4.2 g/m*3 2.5 C 0 km/h
2618 08-01-2006 04:32:55 2.5 C 4.2 g/m*3 2.5 C 0 km/h
2619 08-01-2006 04:42:55 2.5 C 4.2 g/m*3 2.5 C 0 km/h
2620 08-01-2006 04:52:55 2.5 C 4.2 g/m*3 2.5 C 0 km/h
2621 08-01-2006 05:02:55 2.5 C 4.2 g/m*3 2.5 C 0 km/h
2622 08-01-2006 05:12:55 2.5 C 4.2 g/m*3 2.5 C 0 km/h
2623 08-01-2006 05:22:55 2.5 C 4.2 g/m*3 2.5 C 0 km/h
2624 08-01-2006 05:32:55 2.5 C 4.25 g/m*3 2.5 C 0 km/h
2625 08-01-2006 05:42:55 2.5 C 4.25 g/m*3 2.5 C 0 km/h
Sensor: Nr:Datum:Temp:Abs-Feuchte:Windchill:Wind:
Aussen-T/F 2626 08-01-2006 05:52:55 2.5 C 4.25 g/m*3 2.5 C 0 km/h
2627 08-01-2006 06:02:55 2.5 C 4.25 g/m*3 2.5 C 0 km/h
2628 08-01-2006 06:12:55 2.6 C 4.22 g/m*3 2.6 C 0 km/h
2629 08-01-2006 06:22:56 2.6 C 4.22 g/m*3 2.6 C 0 km/h
2630 08-01-2006 06:32:55 2.6 C 4.22 g/m*3 2.6 C 0 km/h
2631 08-01-2006 06:42:55 2.5 C 4.2 g/m*3 2.5 C 0 km/h
2632 08-01-2006 06:52:56 2.6 C 4.22 g/m*3 2.6 C 0 km/h
2633 08-01-2006 07:02:56 2.7 C 4.08 g/m*3 2.7 C 0 km/h
2634 08-01-2006 07:12:56 2.9 C 4.07 g/m*3 2.9 C 0 km/h
2635 08-01-2006 07:22:55 2.8 C 4.05 g/m*3 2.8 C 0 km/h
2636 08-01-2006 07:32:55 2.9 C 4.02 g/m*3 2.9 C 0 km/h
2637 08-01-2006 07:42:55 2.9 C 4.02 g/m*3 2.9 C 0 km/h
2638 08-01-2006 07:52:55 2.9 C 4.02 g/m*3 2.9 C 0 km/h
2639 08-01-2006 08:02:55 2.9 C 4.07 g/m*3 2.9 C 0 km/h
2640 08-01-2006 08:12:55 2.9 C 4.02 g/m*3 2.9 C 0 km/h
2641 08-01-2006 08:22:56 2.9 C 4.07 g/m*3 2.9 C 0 km/h
2642 08-01-2006 08:32:56 2.8 C 4.11 g/m*3 2.8 C 0 km/h
2643 08-01-2006 08:42:56 2.8 C 4.11 g/m*3 2.8 C 0 km/h
2644 08-01-2006 08:52:56 2.9 C 4.07 g/m*3 2.9 C 0 km/h
2645 08-01-2006 09:02:56 2.9 C 4.13 g/m*3 2.9 C 0 km/h
2646 08-01-2006 09:12:56 3 C 4.04 g/m*3 3 C 0 km/h
2647 08-01-2006 09:22:55 3.1 C 4.07 g/m*3 3.1 C 0 km/h
2648 08-01-2006 09:32:56 3.2 C 4.1 g/m*3 3.2 C 0 km/h
2649 08-01-2006 09:42:56 3.2 C 4.1 g/m*3 3.2 C 0 km/h
2650 08-01-2006 09:52:55 3.2 C 4.1 g/m*3 3.2 C 0 km/h
Sensor: Nr:Datum:Temp:Abs-Feuchte:Windchill:Wind:
Aussen-T/F 2651 08-01-2006 10:02:56 3.4 C 4.09 g/m*3 3.4 C 0 km/h
2652 08-01-2006 10:12:56 3.4 C 4.09 g/m*3 3.4 C 0 km/h
2653 08-01-2006 10:22:55 3.5 C 4.12 g/m*3 3.5 C 0 km/h
2654 08-01-2006 10:32:56 3.5 C 4.06 g/m*3 3.5 C 0 km/h
2655 08-01-2006 10:42:56 3.6 C 4.02 g/m*3 3.6 C 0 km/h
2656 08-01-2006 10:52:40 3.7 C 4.05 g/m*3 3.7 C 0 km/h
2657 08-01-2006 11:02:55 3.8 C 4.02 g/m*3 3.8 C 0 km/h
2658 08-01-2006 11:12:55 3.9 C 4.04 g/m*3 3.9 C 0 km/h
2659 08-01-2006 11:22:56 4 C 3.88 g/m*3 4 C 0 km/h
2660 08-01-2006 11:32:55 4.1 C 3.97 g/m*3 4.1 C 0 km/h
2661 08-01-2006 11:42:55 4.1 C 3.9 g/m*3 4.1 C 0 km/h
2662 08-01-2006 11:52:56 4.1 C 3.9 g/m*3 4.1 C 0 km/h
2663 08-01-2006 12:02:56 4.2 C 3.93 g/m*3 4.2 C 0 km/h
2664 08-01-2006 12:12:56 4.3 C 3.96 g/m*3 4.3 C 0 km/h
2665 08-01-2006 12:22:56 4.3 C 3.89 g/m*3 4.3 C 0 km/h
2666 08-01-2006 12:32:56 4.5 C 3.94 g/m*3 4.5 C 0 km/h
2667 08-01-2006 12:42:56 4.6 C 3.84 g/m*3 4.6 C 0 km/h
2668 08-01-2006 12:52:56 4.5 C 3.81 g/m*3 4.5 C 0 km/h
2669 08-01-2006 13:02:56 4.7 C 3.86 g/m*3 4.7 C 0 km/h
2670 08-01-2006 13:12:56 4.7 C 3.73 g/m*3 4.7 C 0 km/h
2671 08-01-2006 13:22:55 4.8 C 3.82 g/m*3 4.8 C 0 km/h
2672 08-01-2006 13:32:56 4.7 C 3.73 g/m*3 4.7 C 0 km/h
2673 08-01-2006 13:42:56 4.9 C 3.78 g/m*3 4.9 C 0 km/h
2674 08-01-2006 13:52:56 4.7 C 3.66 g/m*3 4.7 C 0 km/h
2675 08-01-2006 14:02:56 4.7 C 3.66 g/m*3 4.7 C 0 km/h
Sensor: Nr:Datum:Temp:Abs-Feuchte:Windchill:Wind:
Aussen-T/F 2676 08-01-2006 14:12:56 4.9 C 3.71 g/m*3 4.9 C 0 km/h
2677 08-01-2006 14:22:56 4.8 C 3.69 g/m*3 4.8 C 0 km/h
2678 08-01-2006 14:32:56 4.8 C 3.69 g/m*3 4.8 C 0 km/h
2679 08-01-2006 14:42:56 4.9 C 3.71 g/m*3 4.9 C 0 km/h
2680 08-01-2006 14:52:56 4.8 C 3.69 g/m*3 4.8 C 0 km/h
2681 08-01-2006 15:02:56 4.6 C 3.64 g/m*3 4.6 C 0 km/h
2682 08-01-2006 15:12:56 4.8 C 3.76 g/m*3 4.8 C 0 km/h
2683 08-01-2006 15:22:56 4.5 C 3.62 g/m*3 4.5 C 0 km/h
2684 08-01-2006 15:32:57 4.4 C 3.66 g/m*3 4.4 C 0 km/h
2685 08-01-2006 15:42:57 4.2 C 3.61 g/m*3 4.2 C 0 km/h
2686 08-01-2006 15:52:56 4 C 3.56 g/m*3 4 C 0 km/h
2687 08-01-2006 16:02:57 3.5 C 3.69 g/m*3 3.5 C 0 km/h
2688 08-01-2006 16:12:57 3.2 C 3.68 g/m*3 3.2 C 0 km/h
2689 08-01-2006 16:22:56 3 C 3.69 g/m*3 3 C 0 km/h
2690 08-01-2006 16:32:56 2.6 C 3.76 g/m*3 2.6 C 0 km/h
2691 08-01-2006 16:42:56 2.2 C 3.72 g/m*3 2.2 C 0 km/h
2692 08-01-2006 16:52:57 1.8 C 3.67 g/m*3 1.8 C 0 km/h
2693 08-01-2006 17:02:57 1.5 C 3.65 g/m*3 1.5 C 0 km/h
2694 08-01-2006 17:12:57 1.3 C 3.66 g/m*3 1.3 C 0 km/h
2695 08-01-2006 17:22:56 1.1 C 3.71 g/m*3 1.1 C 0 km/h
2696 08-01-2006 17:32:56 0.8 C 3.69 g/m*3 0.8 C 0 km/h
2697 08-01-2006 17:42:56 0.8 C 3.74 g/m*3 0.8 C 0 km/h
2698 08-01-2006 17:52:57 0.6 C 3.74 g/m*3 0.6 C 0 km/h
2699 08-01-2006 18:02:58 0.5 C 3.71 g/m*3 0.5 C 0 km/h
2700 08-01-2006 18:12:58 0.4 C 3.74 g/m*3 0.4 C 0 km/h
Sensor: Nr:Datum:Temp:Abs-Feuchte:Windchill:Wind:
Aussen-T/F 2701 08-01-2006 18:22:57 0.3 C 3.71 g/m*3 0.3 C 0 km/h
2702 08-01-2006 18:32:57 0.2 C 3.73 g/m*3 0.2 C 0 km/h
2703 08-01-2006 18:42:57 0 C 3.68 g/m*3 0 C 0 km/h
2704 08-01-2006 18:52:57 0 C 3.73 g/m*3 0 C 0 km/h
2705 08-01-2006 19:02:57 -0.2 C 3.68 g/m*3 -0.2 C 0 km/h
2706 08-01-2006 19:12:57 -0.3 C 3.65 g/m*3 -0.3 C 0 km/h
2707 08-01-2006 19:22:57 -0.3 C 3.7 g/m*3 -0.3 C 0 km/h
2708 08-01-2006 19:32:57 -0.4 C 3.68 g/m*3 -0.4 C 0 km/h
2709 08-01-2006 19:42:57 -0.5 C 3.65 g/m*3 -0.5 C 0 km/h
2710 08-01-2006 19:52:57 -0.6 C 3.67 g/m*3 -0.6 C 0 km/h
2711 08-01-2006 20:02:57 -0.6 C 3.67 g/m*3 -0.6 C 0 km/h
2712 08-01-2006 20:12:57 -0.9 C 3.6 g/m*3 -0.9 C 0 km/h
2713 08-01-2006 20:22:57 -1 C 3.57 g/m*3 -1 C 0 km/h
2714 08-01-2006 20:32:58 -1.1 C 3.55 g/m*3 -1.1 C 0 km/h
2715 08-01-2006 20:42:58 -1.1 C 3.55 g/m*3 -1.1 C 0 km/h
2716 08-01-2006 20:52:57 -1.2 C 3.57 g/m*3 -1.2 C 0 km/h
2717 08-01-2006 21:02:58 -1.3 C 3.54 g/m*3 -1.3 C 0 km/h
2718 08-01-2006 21:12:58 -1.4 C 3.52 g/m*3 -1.4 C 0 km/h
2719 08-01-2006 21:22:57 -1.4 C 3.52 g/m*3 -1.4 C 0 km/h
2720 08-01-2006 21:32:58 -1.5 C 3.49 g/m*3 -1.5 C 0 km/h
2721 08-01-2006 21:42:58 -1.5 C 3.54 g/m*3 -1.5 C 0 km/h
2722 08-01-2006 21:52:57 -1.5 C 3.54 g/m*3 -1.5 C 0 km/h
2723 08-01-2006 22:02:58 -1.7 C 3.49 g/m*3 -1.7 C 0 km/h
2724 08-01-2006 22:12:58 -1.8 C 3.51 g/m*3 -1.8 C 0 km/h
2725 08-01-2006 22:22:57 -1.8 C 3.51 g/m*3 -1.8 C 0 km/h
Sensor: Nr:Datum:Temp:Abs-Feuchte:Windchill:Wind:
Aussen-T/F 2726 08-01-2006 22:32:00 -1.9 C 3.48 g/m*3 -1.9 C 0 km/h
2727 08-01-2006 22:42:00 -2.1 C 3.43 g/m*3 -2.1 C 0 km/h
2728 08-01-2006 22:52:57 -2.1 C 3.43 g/m*3 -2.1 C 0 km/h
2729 08-01-2006 23:02:59 -2.3 C 3.38 g/m*3 -2.3 C 0 km/h
2730 08-01-2006 23:12:59 -2.3 C 3.43 g/m*3 -2.3 C 0 km/h
2731 08-01-2006 23:22:57 -2.4 C 3.4 g/m*3 -2.4 C 0 km/h
2732 08-01-2006 23:32:58 -2.4 C 3.4 g/m*3 -2.4 C 0 km/h
2733 08-01-2006 23:42:59 -2.5 C 3.38 g/m*3 -2.5 C 0 km/h
2734 08-01-2006 23:52:57 -2.5 C 3.38 g/m*3 -2.5 C 0 km/h
2735 09-01-2006 00:02:57 -2.6 C 3.35 g/m*3 -2.6 C 0 km/h
2736 09-01-2006 00:12:57 -2.8 C 3.31 g/m*3 -2.8 C 0 km/h
2737 09-01-2006 00:22:57 -2.8 C 3.31 g/m*3 -2.8 C 0 km/h
2738 09-01-2006 00:32:57 -2.8 C 3.31 g/m*3 -2.8 C 0 km/h
2739 09-01-2006 00:42:58 -2.8 C 3.35 g/m*3 -2.8 C 0 km/h
2740 09-01-2006 00:52:57 -2.9 C 3.32 g/m*3 -2.9 C 0 km/h
2741 09-01-2006 01:02:57 -3 C 3.3 g/m*3 -3 C 0 km/h
2742 09-01-2006 01:12:57 -3.1 C 3.28 g/m*3 -3.1 C 0 km/h
2743 09-01-2006 01:22:58 -2.9 C 3.32 g/m*3 -2.9 C 0 km/h
2744 09-01-2006 01:32:58 -3.1 C 3.28 g/m*3 -3.1 C 0 km/h
2745 09-01-2006 01:42:58 -3.2 C 3.25 g/m*3 -3.2 C 0 km/h
2746 09-01-2006 01:52:58 -3.2 C 3.25 g/m*3 -3.2 C 0 km/h
2747 09-01-2006 02:02:58 -3.2 C 3.25 g/m*3 -3.2 C 0 km/h
2748 09-01-2006 02:12:58 -3.3 C 3.23 g/m*3 -3.3 C 0 km/h
2749 09-01-2006 02:22:57 -3.3 C 3.27 g/m*3 -3.3 C 0 km/h
2750 09-01-2006 02:32:57 -3.4 C 3.21 g/m*3 -3.4 C 0 km/h
Sensor: Nr:Datum:Temp:Abs-Feuchte:Windchill:Wind:
Aussen-T/F 2751 09-01-2006 02:42:57 -3.5 C 3.18 g/m*3 -3.5 C 0 km/h
2752 09-01-2006 02:53:59 -3.3 C 3.27 g/m*3 -3.3 C 0 km/h
2753 09-01-2006 03:03:59 -3.3 C 3.27 g/m*3 -3.3 C 0 km/h
2754 09-01-2006 03:13:59 -3.2 C 3.29 g/m*3 -3.2 C 0 km/h
2755 09-01-2006 03:23:59 -3.3 C 3.27 g/m*3 -3.3 C 0 km/h
2756 09-01-2006 03:33:59 -3.3 C 3.27 g/m*3 -3.3 C 0 km/h
2757 09-01-2006 03:44:00 -3.4 C 3.25 g/m*3 -3.4 C 0 km/h
2758 09-01-2006 03:54:00 -3.6 C 3.2 g/m*3 -3.6 C 0 km/h
2759 09-01-2006 04:03:59 -3.6 C 3.2 g/m*3 -3.6 C 0 km/h
2760 09-01-2006 04:13:59 -3.8 C 3.15 g/m*3 -3.8 C 0 km/h
2761 09-01-2006 04:22:59 -3.9 C 3.13 g/m*3 -3.9 C 0 km/h
2762 09-01-2006 04:33:59 -3.9 C 3.13 g/m*3 -3.9 C 0 km/h
2763 09-01-2006 04:43:59 -3.9 C 3.13 g/m*3 -3.9 C 0 km/h
2764 09-01-2006 04:53:59 -3.9 C 3.13 g/m*3 -3.9 C 0 km/h
2765 09-01-2006 05:03:59 -3.9 C 3.13 g/m*3 -3.9 C 0 km/h
2766 09-01-2006 05:12:59 -4.1 C 3.09 g/m*3 -4.1 C 0 km/h
2767 09-01-2006 05:23:00 -4.1 C 3.09 g/m*3 -4.1 C 0 km/h
2768 09-01-2006 05:33:00 -3.9 C 3.13 g/m*3 -3.9 C 0 km/h
2769 09-01-2006 05:43:00 -4.1 C 3.09 g/m*3 -4.1 C 0 km/h
2770 09-01-2006 05:53:00 -4.2 C 3.1 g/m*3 -4.2 C 0 km/h
2771 09-01-2006 06:03:59 -4.3 C 3.08 g/m*3 -4.3 C 0 km/h
2772 09-01-2006 06:13:59 -4.4 C 3.06 g/m*3 -4.4 C 0 km/h
2773 09-01-2006 06:23:59 -4.5 C 3.04 g/m*3 -4.5 C 0 km/h
2774 09-01-2006 06:33:59 -4.5 C 3.04 g/m*3 -4.5 C 0 km/h
2775 09-01-2006 06:43:59 -4.5 C 3.04 g/m*3 -4.5 C 0 km/h
Sensor: Nr:Datum:Temp:Abs-Feuchte:Windchill:Wind:
Aussen-T/F 2776 09-01-2006 06:53:59 -4.6 C 3.01 g/m*3 -4.6 C 0 km/h
2777 09-01-2006 07:03:59 -4.7 C 2.99 g/m*3 -4.7 C 0 km/h
2778 09-01-2006 07:13:59 -4.8 C 2.97 g/m*3 -4.8 C 0 km/h
2779 09-01-2006 07:23:00 -4.7 C 2.99 g/m*3 -4.7 C 0 km/h
2780 09-01-2006 07:33:00 -4.7 C 2.99 g/m*3 -4.7 C 0 km/h
2781 09-01-2006 07:43:00 -4.7 C 2.99 g/m*3 -4.7 C 0 km/h
2782 09-01-2006 07:53:59 -4.7 C 2.99 g/m*3 -4.7 C 0 km/h
2783 09-01-2006 08:03:59 -4.7 C 2.99 g/m*3 -4.7 C 0 km/h
2784 09-01-2006 08:13:59 -4.9 C 2.95 g/m*3 -4.9 C 0 km/h
2785 09-01-2006 08:23:59 -4.9 C 2.95 g/m*3 -4.9 C 0 km/h
2786 09-01-2006 08:33:00 -4.9 C 2.95 g/m*3 -4.9 C 0 km/h
2787 09-01-2006 08:43:00 -4.8 C 2.97 g/m*3 -4.8 C 0 km/h
2788 09-01-2006 08:53:00 -4.8 C 2.97 g/m*3 -4.8 C 0 km/h
2789 09-01-2006 09:03:00 -4.7 C 2.99 g/m*3 -4.7 C 0 km/h
2790 09-01-2006 09:13:00 -4.8 C 2.97 g/m*3 -4.8 C 0 km/h
2791 09-01-2006 09:23:59 -4.7 C 2.99 g/m*3 -4.7 C 0 km/h
2792 09-01-2006 09:33:59 -4.7 C 2.99 g/m*3 -4.7 C 0 km/h
2793 09-01-2006 09:43:59 -4.6 C 3.01 g/m*3 -4.6 C 0 km/h
2794 09-01-2006 09:53:59 -4.5 C 3.04 g/m*3 -4.5 C 0 km/h
2795 09-01-2006 10:03:00 -4.4 C 3.06 g/m*3 -4.4 C 0 km/h
2796 09-01-2006 10:13:00 -4.4 C 3.06 g/m*3 -4.4 C 0 km/h
2797 09-01-2006 10:23:00 -4.2 C 3.1 g/m*3 -4.2 C 0 km/h
2798 09-01-2006 10:32:59 -3.9 C 3.17 g/m*3 -3.9 C 0 km/h
2799 09-01-2006 10:42:59 -3.7 C 3.21 g/m*3 -3.7 C 0 km/h
2800 09-01-2006 10:53:00 -3.5 C 3.26 g/m*3 -3.5 C 0 km/h
Sensor: Nr:Datum:Temp:Abs-Feuchte:Windchill:Wind:
Aussen-T/F 2801 09-01-2006 11:02:59 -3.4 C 3.28 g/m*3 -3.4 C 0 km/h
2802 09-01-2006 11:12:59 -3.1 C 3.39 g/m*3 -3.1 C 0 km/h
2803 09-01-2006 11:23:59 -2.9 C 3.44 g/m*3 -2.9 C 0 km/h
2804 09-01-2006 11:33:00 -2.7 C 3.49 g/m*3 -2.7 C 0 km/h
2805 09-01-2006 11:43:00 -2 C 3.67 g/m*3 -2 C 0 km/h
2806 09-01-2006 11:53:00 -1.6 C 3.77 g/m*3 -1.6 C 0 km/h
2807 09-01-2006 12:03:00 -1.3 C 3.76 g/m*3 -1.3 C 0 km/h
2808 09-01-2006 12:13:00 -1.1 C 3.77 g/m*3 -1.1 C 0 km/h
2809 09-01-2006 12:23:00 -0.8 C 3.85 g/m*3 -0.8 C 0 km/h
2810 09-01-2006 12:32:59 -0.9 C 3.69 g/m*3 -0.9 C 0 km/h
2811 09-01-2006 12:42:59 -0.7 C 3.65 g/m*3 -0.7 C 0 km/h
2812 09-01-2006 12:53:00 -0.5 C 3.56 g/m*3 -0.5 C 0 km/h
2813 09-01-2006 13:03:00 -0.5 C 3.56 g/m*3 -0.5 C 0 km/h
2814 09-01-2006 13:13:00 -0.3 C 3.56 g/m*3 -0.3 C 0 km/h
2815 09-01-2006 13:23:00 -0.3 C 3.51 g/m*3 -0.3 C 0 km/h
2816 09-01-2006 13:33:00 -0.5 C 3.42 g/m*3 -0.5 C 0 km/h
2817 09-01-2006 13:43:01 -0.6 C 3.35 g/m*3 -0.6 C 0 km/h
2818 09-01-2006 13:53:00 -0.4 C 3.44 g/m*3 -0.4 C 0 km/h
2819 09-01-2006 14:03:00 -0.3 C 3.42 g/m*3 -0.3 C 0 km/h
2820 09-01-2006 14:13:00 -0.1 C 3.46 g/m*3 -0.1 C 0 km/h
2821 09-01-2006 14:23:00 0 C 3.44 g/m*3 0 C 0 km/h
2822 09-01-2006 14:33:00 0.1 C 3.46 g/m*3 0.1 C 0 km/h
2823 09-01-2006 14:43:00 0.2 C 3.49 g/m*3 0.2 C 0 km/h
2824 09-01-2006 14:53:00 0.1 C 3.42 g/m*3 0.1 C 0 km/h
2825 09-01-2006 15:03:00 -0.1 C 3.37 g/m*3 -0.1 C 0 km/h
Sensor: Nr:Datum:Temp:Abs-Feuchte:Windchill:Wind:
Aussen-T/F 2826 09-01-2006 15:13:00 -0.1 C 3.42 g/m*3 -0.1 C 0 km/h
2827 09-01-2006 15:23:00 -0.1 C 3.42 g/m*3 -0.1 C 0 km/h
2828 09-01-2006 15:33:00 -0.2 C 3.39 g/m*3 -0.2 C 0 km/h
2829 09-01-2006 15:43:01 -0.3 C 3.42 g/m*3 -0.3 C 0 km/h
2830 09-01-2006 15:53:00 -0.5 C 3.37 g/m*3 -0.5 C 0 km/h
2831 09-01-2006 16:03:00 -0.6 C 3.35 g/m*3 -0.6 C 0 km/h
2832 09-01-2006 16:13:00 -0.8 C 3.35 g/m*3 -0.8 C 0 km/h
2833 09-01-2006 16:23:00 -1 C 3.35 g/m*3 -1 C 0 km/h
2834 09-01-2006 16:33:00 -1.1 C 3.32 g/m*3 -1.1 C 0 km/h
2835 09-01-2006 16:43:00 -1.3 C 3.32 g/m*3 -1.3 C 0 km/h
2836 09-01-2006 16:53:00 -1.4 C 3.3 g/m*3 -1.4 C 0 km/h
2837 09-01-2006 17:03:01 -1.4 C 3.34 g/m*3 -1.4 C 0 km/h
2838 09-01-2006 17:13:01 -1.5 C 3.32 g/m*3 -1.5 C 0 km/h
2839 09-01-2006 17:23:01 -1.5 C 3.32 g/m*3 -1.5 C 0 km/h
2840 09-01-2006 17:33:00 -1.4 C 3.34 g/m*3 -1.4 C 0 km/h
2841 09-01-2006 17:43:00 -1.4 C 3.34 g/m*3 -1.4 C 0 km/h
2842 09-01-2006 17:53:00 -1.5 C 3.32 g/m*3 -1.5 C 0 km/h
2843 09-01-2006 18:03:00 -1.6 C 3.29 g/m*3 -1.6 C 0 km/h
2844 09-01-2006 18:13:00 -1.7 C 3.27 g/m*3 -1.7 C 0 km/h
2845 09-01-2006 18:23:00 -1.8 C 3.29 g/m*3 -1.8 C 0 km/h
2846 09-01-2006 18:33:01 -1.8 C 3.29 g/m*3 -1.8 C 0 km/h
2847 09-01-2006 18:43:01 -1.6 C 3.34 g/m*3 -1.6 C 0 km/h
2848 09-01-2006 18:53:00 -1.5 C 3.41 g/m*3 -1.5 C 0 km/h
2849 09-01-2006 19:03:01 -1.4 C 3.39 g/m*3 -1.4 C 0 km/h
2850 09-01-2006 19:13:01 -1.3 C 3.36 g/m*3 -1.3 C 0 km/h
Sensor: Nr:Datum:Temp:Abs-Feuchte:Windchill:Wind:
Aussen-T/F 2851 09-01-2006 19:23:00 -1.2 C 3.39 g/m*3 -1.2 C 0 km/h
2852 09-01-2006 19:33:00 -1.2 C 3.39 g/m*3 -1.2 C 0 km/h
2853 09-01-2006 19:43:00 -1.2 C 3.34 g/m*3 -1.2 C 0 km/h
2854 09-01-2006 19:53:00 -1.1 C 3.37 g/m*3 -1.1 C 0 km/h
2855 09-01-2006 20:03:00 -1.1 C 3.37 g/m*3 -1.1 C 0 km/h
2856 09-01-2006 20:13:00 -1.2 C 3.3 g/m*3 -1.2 C 0 km/h
2857 09-01-2006 20:23:01 -1.2 C 3.3 g/m*3 -1.2 C 0 km/h
2858 09-01-2006 20:33:01 -1.2 C 3.3 g/m*3 -1.2 C 0 km/h
2859 09-01-2006 20:43:02 -1.3 C 3.28 g/m*3 -1.3 C 0 km/h
2860 09-01-2006 20:53:01 -1.3 C 3.23 g/m*3 -1.3 C 0 km/h
2861 09-01-2006 21:03:01 -1.2 C 3.25 g/m*3 -1.2 C 0 km/h
2862 09-01-2006 21:13:01 -1.3 C 3.23 g/m*3 -1.3 C 0 km/h
2863 09-01-2006 21:23:00 -1.3 C 3.23 g/m*3 -1.3 C 0 km/h
2864 09-01-2006 21:33:01 -1.4 C 3.21 g/m*3 -1.4 C 0 km/h
2865 09-01-2006 21:43:01 -1.4 C 3.21 g/m*3 -1.4 C 0 km/h
2866 09-01-2006 21:53:01 -1.4 C 3.21 g/m*3 -1.4 C 0 km/h
2867 09-01-2006 22:03:01 -1.4 C 3.21 g/m*3 -1.4 C 0 km/h
2868 09-01-2006 22:13:01 -1.4 C 3.21 g/m*3 -1.4 C 0 km/h
2869 09-01-2006 22:23:01 -1.4 C 3.21 g/m*3 -1.4 C 0 km/h
2870 09-01-2006 22:33:01 -1.4 C 3.21 g/m*3 -1.4 C 0 km/h
2871 09-01-2006 22:43:01 -1.3 C 3.23 g/m*3 -1.3 C 0 km/h
2872 09-01-2006 22:53:01 -1.4 C 3.21 g/m*3 -1.4 C 0 km/h
2873 09-01-2006 23:03:01 -1.4 C 3.21 g/m*3 -1.4 C 0 km/h
2874 09-01-2006 23:13:01 -1.5 C 3.23 g/m*3 -1.5 C 0 km/h
2875 09-01-2006 23:23:00 -1.4 C 3.25 g/m*3 -1.4 C 0 km/h
Sensor: Nr:Datum:Temp:Abs-Feuchte:Windchill:Wind:
Aussen-T/F 2876 09-01-2006 23:33:01 -1.4 C 3.25 g/m*3 -1.4 C 0 km/h
2877 09-01-2006 23:43:01 -1.4 C 3.25 g/m*3 -1.4 C 0 km/h
2878 09-01-2006 23:53:01 -1.4 C 3.25 g/m*3 -1.4 C 0 km/h
2879 10-01-2006 00:03:01 -1.4 C 3.25 g/m*3 -1.4 C 0 km/h
2880 10-01-2006 00:13:01 -1.3 C 3.32 g/m*3 -1.3 C 0 km/h
2881 10-01-2006 00:23:01 -1.3 C 3.32 g/m*3 -1.3 C 0 km/h
2882 10-01-2006 00:33:02 -1.4 C 3.3 g/m*3 -1.4 C 0 km/h
2883 10-01-2006 00:43:02 -1.3 C 3.32 g/m*3 -1.3 C 0 km/h
2884 10-01-2006 00:53:02 -1.4 C 3.3 g/m*3 -1.4 C 0 km/h
2885 10-01-2006 01:03:02 -1.4 C 3.3 g/m*3 -1.4 C 0 km/h
2886 10-01-2006 01:13:02 -1.4 C 3.3 g/m*3 -1.4 C 0 km/h
2887 10-01-2006 01:23:02 -1.5 C 3.27 g/m*3 -1.5 C 0 km/h
2888 10-01-2006 01:33:02 -1.4 C 3.3 g/m*3 -1.4 C 0 km/h
2889 10-01-2006 01:43:02 -1.4 C 3.3 g/m*3 -1.4 C 0 km/h
2890 10-01-2006 01:53:01 -1.6 C 3.25 g/m*3 -1.6 C 0 km/h
2891 10-01-2006 02:03:01 -1.5 C 3.27 g/m*3 -1.5 C 0 km/h
2892 10-01-2006 02:13:01 -1.6 C 3.25 g/m*3 -1.6 C 0 km/h
2893 10-01-2006 02:23:01 -1.6 C 3.25 g/m*3 -1.6 C 0 km/h
2894 10-01-2006 02:33:01 -1.6 C 3.21 g/m*3 -1.6 C 0 km/h
2895 10-01-2006 02:43:01 -1.7 C 3.19 g/m*3 -1.7 C 0 km/h
2896 10-01-2006 02:54:02 -1.7 C 3.19 g/m*3 -1.7 C 0 km/h
2897 10-01-2006 03:04:02 -1.7 C 3.23 g/m*3 -1.7 C 0 km/h
2898 10-01-2006 03:14:03 -1.8 C 3.21 g/m*3 -1.8 C 0 km/h
2899 10-01-2006 03:24:03 -1.7 C 3.23 g/m*3 -1.7 C 0 km/h
2900 10-01-2006 03:34:02 -1.6 C 3.25 g/m*3 -1.6 C 0 km/h
Sensor: Nr:Datum:Temp:Abs-Feuchte:Windchill:Wind:
Aussen-T/F 2901 10-01-2006 03:44:02 -1.8 C 3.21 g/m*3 -1.8 C 0 km/h
2902 10-01-2006 03:54:02 -1.6 C 3.25 g/m*3 -1.6 C 0 km/h
2903 10-01-2006 04:04:02 -1.8 C 3.16 g/m*3 -1.8 C 0 km/h
2904 10-01-2006 04:14:02 -1.8 C 3.21 g/m*3 -1.8 C 0 km/h
2905 10-01-2006 04:24:02 -1.8 C 3.21 g/m*3 -1.8 C 0 km/h
2906 10-01-2006 04:34:02 -1.7 C 3.23 g/m*3 -1.7 C 0 km/h
2907 10-01-2006 04:44:02 -1.8 C 3.21 g/m*3 -1.8 C 0 km/h
2908 10-01-2006 04:54:02 -1.8 C 3.21 g/m*3 -1.8 C 0 km/h
2909 10-01-2006 05:04:03 -1.7 C 3.23 g/m*3 -1.7 C 0 km/h
2910 10-01-2006 05:14:03 -1.8 C 3.21 g/m*3 -1.8 C 0 km/h
2911 10-01-2006 05:24:02 -1.8 C 3.21 g/m*3 -1.8 C 0 km/h
2912 10-01-2006 05:34:03 -1.9 C 3.18 g/m*3 -1.9 C 0 km/h
2913 10-01-2006 05:44:03 -1.9 C 3.18 g/m*3 -1.9 C 0 km/h
2914 10-01-2006 05:54:03 -1.9 C 3.18 g/m*3 -1.9 C 0 km/h
2915 10-01-2006 06:04:03 -1.8 C 3.21 g/m*3 -1.8 C 0 km/h
2916 10-01-2006 06:14:03 -1.8 C 3.21 g/m*3 -1.8 C 0 km/h
2917 10-01-2006 06:24:03 -1.8 C 3.21 g/m*3 -1.8 C 0 km/h
2918 10-01-2006 06:34:02 -1.8 C 3.21 g/m*3 -1.8 C 0 km/h
2919 10-01-2006 06:44:02 -1.8 C 3.21 g/m*3 -1.8 C 0 km/h
2920 10-01-2006 06:54:03 -1.9 C 3.18 g/m*3 -1.9 C 0 km/h
2921 10-01-2006 07:04:03 -1.9 C 3.18 g/m*3 -1.9 C 0 km/h
2922 10-01-2006 07:14:03 -1.8 C 3.21 g/m*3 -1.8 C 0 km/h
2923 10-01-2006 07:24:03 -1.9 C 3.18 g/m*3 -1.9 C 0 km/h
2924 10-01-2006 07:34:02 -1.9 C 3.18 g/m*3 -1.9 C 0 km/h
2925 10-01-2006 07:44:02 -1.9 C 3.14 g/m*3 -1.9 C 0 km/h
Sensor: Nr:Datum:Temp:Abs-Feuchte:Windchill:Wind:
Aussen-T/F 2926 10-01-2006 07:54:03 -1.8 C 3.21 g/m*3 -1.8 C 0 km/h
2927 10-01-2006 08:04:03 -1.8 C 3.21 g/m*3 -1.8 C 0 km/h
2928 10-01-2006 08:14:03 -1.8 C 3.16 g/m*3 -1.8 C 0 km/h
2929 10-01-2006 08:24:03 -1.9 C 3.14 g/m*3 -1.9 C 0 km/h
2930 10-01-2006 08:34:03 -1.9 C 3.1 g/m*3 -1.9 C 0 km/h
2931 10-01-2006 08:44:03 -1.9 C 3.1 g/m*3 -1.9 C 0 km/h
2932 10-01-2006 08:54:02 -1.8 C 3.12 g/m*3 -1.8 C 0 km/h
2933 10-01-2006 09:04:03 -1.7 C 3.14 g/m*3 -1.7 C 0 km/h
2934 10-01-2006 09:14:03 -1.7 C 3.14 g/m*3 -1.7 C 0 km/h
2935 10-01-2006 09:24:03 -1.6 C 3.12 g/m*3 -1.6 C 0 km/h
2936 10-01-2006 09:34:03 -1.8 C 3.08 g/m*3 -1.8 C 0 km/h
2937 10-01-2006 09:44:03 -1.7 C 3.1 g/m*3 -1.7 C 0 km/h
2938 10-01-2006 09:54:03 -1.6 C 3.12 g/m*3 -1.6 C 0 km/h
2939 10-01-2006 10:04:03 -1.8 C 3.08 g/m*3 -1.8 C 0 km/h
2940 10-01-2006 10:14:03 -1.6 C 3.16 g/m*3 -1.6 C 0 km/h
2941 10-01-2006 10:24:03 -1.5 C 3.14 g/m*3 -1.5 C 0 km/h
2942 10-01-2006 10:34:03 -1.4 C 3.12 g/m*3 -1.4 C 0 km/h
2943 10-01-2006 10:44:03 -1.2 C 3.17 g/m*3 -1.2 C 0 km/h
2944 10-01-2006 10:54:03 -1.3 C 3.1 g/m*3 -1.3 C 0 km/h
2945 10-01-2006 11:04:03 -1.2 C 3.12 g/m*3 -1.2 C 0 km/h
2946 10-01-2006 11:14:03 -1.1 C 3.14 g/m*3 -1.1 C 0 km/h
2947 10-01-2006 11:24:03 -0.9 C 3.19 g/m*3 -0.9 C 0 km/h
2948 10-01-2006 11:34:04 -0.8 C 3.16 g/m*3 -0.8 C 0 km/h
2949 10-01-2006 11:44:04 -0.7 C 3.18 g/m*3 -0.7 C 0 km/h
2950 10-01-2006 11:54:03 -0.6 C 3.21 g/m*3 -0.6 C 0 km/h
Sensor: Nr:Datum:Temp:Abs-Feuchte:Windchill:Wind:
Aussen-T/F 2951 10-01-2006 12:04:03 -0.6 C 3.21 g/m*3 -0.6 C 0 km/h
2952 10-01-2006 12:14:03 -0.6 C 3.21 g/m*3 -0.6 C 0 km/h
2953 10-01-2006 12:24:03 -0.7 C 3.18 g/m*3 -0.7 C 0 km/h
2954 10-01-2006 12:34:03 -0.6 C 3.25 g/m*3 -0.6 C 0 km/h
2955 10-01-2006 12:44:03 -0.3 C 3.32 g/m*3 -0.3 C 0 km/h
2956 10-01-2006 12:54:04 0 C 3.34 g/m*3 0 C 0 km/h
2957 10-01-2006 13:04:03 0.3 C 3.41 g/m*3 0.3 C 0 km/h
2958 10-01-2006 13:14:03 0.7 C 3.41 g/m*3 0.7 C 0 km/h
2959 10-01-2006 13:24:03 0.7 C 3.41 g/m*3 0.7 C 0 km/h
2960 10-01-2006 13:34:03 0.9 C 3.45 g/m*3 0.9 C 0 km/h
2961 10-01-2006 13:44:03 1.1 C 3.45 g/m*3 1.1 C 0 km/h
2962 10-01-2006 13:54:03 1.2 C 3.42 g/m*3 1.2 C 0 km/h
2963 10-01-2006 14:04:03 1.1 C 3.4 g/m*3 1.1 C 0 km/h
2964 10-01-2006 14:14:03 1 C 3.37 g/m*3 1 C 0 km/h
2965 10-01-2006 14:24:04 1.1 C 3.4 g/m*3 1.1 C 0 km/h
2966 10-01-2006 14:34:04 1 C 3.37 g/m*3 1 C 0 km/h
2967 10-01-2006 14:44:04 1.1 C 3.45 g/m*3 1.1 C 0 km/h
2968 10-01-2006 14:54:04 1 C 3.43 g/m*3 1 C 0 km/h
2969 10-01-2006 15:04:04 1 C 3.43 g/m*3 1 C 0 km/h
2970 10-01-2006 15:14:04 1 C 3.48 g/m*3 1 C 0 km/h
2971 10-01-2006 15:24:03 0.9 C 3.51 g/m*3 0.9 C 0 km/h
2972 10-01-2006 15:34:03 0.8 C 3.48 g/m*3 0.8 C 0 km/h
2973 10-01-2006 15:44:03 0.7 C 3.46 g/m*3 0.7 C 0 km/h
2974 10-01-2006 15:54:03 0.7 C 3.46 g/m*3 0.7 C 0 km/h
2975 10-01-2006 16:04:03 0.4 C 3.44 g/m*3 0.4 C 0 km/h
Sensor: Nr:Datum:Temp:Abs-Feuchte:Windchill:Wind:
Aussen-T/F 2976 10-01-2006 16:14:03 0.2 C 3.44 g/m*3 0.2 C 0 km/h
2977 10-01-2006 16:24:04 -0.1 C 3.42 g/m*3 -0.1 C 0 km/h
2978 10-01-2006 16:34:04 -0.4 C 3.35 g/m*3 -0.4 C 0 km/h
2979 10-01-2006 16:44:04 -0.6 C 3.35 g/m*3 -0.6 C 0 km/h
2980 10-01-2006 16:54:04 -0.8 C 3.35 g/m*3 -0.8 C 0 km/h
2981 10-01-2006 17:04:04 -1 C 3.35 g/m*3 -1 C 0 km/h
2982 10-01-2006 17:14:05 -1.2 C 3.34 g/m*3 -1.2 C 0 km/h
2983 10-01-2006 17:24:04 -1.4 C 3.3 g/m*3 -1.4 C 0 km/h
2984 10-01-2006 17:34:04 -1.5 C 3.32 g/m*3 -1.5 C 0 km/h
2985 10-01-2006 17:44:04 -1.6 C 3.34 g/m*3 -1.6 C 0 km/h
2986 10-01-2006 17:54:04 -1.8 C 3.29 g/m*3 -1.8 C 0 km/h
2987 10-01-2006 18:04:03 -1.9 C 3.31 g/m*3 -1.9 C 0 km/h
2988 10-01-2006 18:14:03 -2 C 3.29 g/m*3 -2 C 0 km/h
2989 10-01-2006 18:24:03 -2.1 C 3.26 g/m*3 -2.1 C 0 km/h
2990 10-01-2006 18:34:04 -2.3 C 3.22 g/m*3 -2.3 C 0 km/h
2991 10-01-2006 18:44:04 -2.5 C 3.21 g/m*3 -2.5 C 0 km/h
2992 10-01-2006 18:54:04 -2.6 C 3.19 g/m*3 -2.6 C 0 km/h
2993 10-01-2006 19:04:04 -2.7 C 3.17 g/m*3 -2.7 C 0 km/h
2994 10-01-2006 19:14:04 -2.8 C 3.15 g/m*3 -2.8 C 0 km/h
2995 10-01-2006 19:24:03 -2.8 C 3.15 g/m*3 -2.8 C 0 km/h
2996 10-01-2006 19:34:04 -3 C 3.14 g/m*3 -3 C 0 km/h
2997 10-01-2006 19:44:04 -3.1 C 3.12 g/m*3 -3.1 C 0 km/h
2998 10-01-2006 19:54:04 -3.1 C 3.12 g/m*3 -3.1 C 0 km/h
2999 10-01-2006 20:04:04 -3 C 3.18 g/m*3 -3 C 0 km/h
3000 10-01-2006 20:14:05 -3 C 3.18 g/m*3 -3 C 0 km/h
Sensor: Nr:Datum:Temp:Abs-Feuchte:Windchill:Wind:
Aussen-T/F 3001 10-01-2006 20:24:04 -3 C 3.18 g/m*3 -3 C 0 km/h
3002 10-01-2006 20:34:04 -2.9 C 3.24 g/m*3 -2.9 C 0 km/h
3003 10-01-2006 20:44:04 -3 C 3.22 g/m*3 -3 C 0 km/h
3004 10-01-2006 20:54:04 -3 C 3.22 g/m*3 -3 C 0 km/h
3005 10-01-2006 21:04:04 -3 C 3.22 g/m*3 -3 C 0 km/h
3006 10-01-2006 21:14:04 -2.9 C 3.28 g/m*3 -2.9 C 0 km/h
3007 10-01-2006 21:24:04 -2.8 C 3.31 g/m*3 -2.8 C 0 km/h
3008 10-01-2006 21:34:05 -3 C 3.22 g/m*3 -3 C 0 km/h
3009 10-01-2006 21:44:05 -3.1 C 3.2 g/m*3 -3.1 C 0 km/h
3010 10-01-2006 21:54:04 -3 C 3.22 g/m*3 -3 C 0 km/h
3011 10-01-2006 22:04:04 -3.1 C 3.2 g/m*3 -3.1 C 0 km/h
3012 10-01-2006 22:14:04 -3.3 C 3.15 g/m*3 -3.3 C 0 km/h
3013 10-01-2006 22:24:04 -3.3 C 3.15 g/m*3 -3.3 C 0 km/h
3014 10-01-2006 22:34:04 -3.3 C 3.15 g/m*3 -3.3 C 0 km/h
3015 10-01-2006 22:44:04 -3.4 C 3.13 g/m*3 -3.4 C 0 km/h
3016 10-01-2006 22:54:05 -3.4 C 3.13 g/m*3 -3.4 C 0 km/h
3017 10-01-2006 23:04:04 -3.4 C 3.17 g/m*3 -3.4 C 0 km/h
3018 10-01-2006 23:14:05 -3.3 C 3.19 g/m*3 -3.3 C 0 km/h
3019 10-01-2006 23:24:04 -3.3 C 3.19 g/m*3 -3.3 C 0 km/h
3020 10-01-2006 23:34:05 -3.3 C 3.19 g/m*3 -3.3 C 0 km/h
3021 10-01-2006 23:44:05 -3.3 C 3.19 g/m*3 -3.3 C 0 km/h
3022 10-01-2006 23:54:04 -3.4 C 3.17 g/m*3 -3.4 C 0 km/h
3023 11-01-2006 00:04:05 -3.6 C 3.09 g/m*3 -3.6 C 0 km/h
3024 11-01-2006 00:14:05 -3.8 C 3.04 g/m*3 -3.8 C 0 km/h
3025 11-01-2006 00:24:05 -3.8 C 3.04 g/m*3 -3.8 C 0 km/h
Sensor: Nr:Datum:Temp:Abs-Feuchte:Windchill:Wind:
Aussen-T/F 3026 11-01-2006 00:34:05 -3.9 C 3.02 g/m*3 -3.9 C 0 km/h
3027 11-01-2006 00:44:05 -3.9 C 3.02 g/m*3 -3.9 C 0 km/h
3028 11-01-2006 00:54:04 -4.1 C 2.98 g/m*3 -4.1 C 0 km/h
3029 11-01-2006 01:04:04 -4.1 C 2.98 g/m*3 -4.1 C 0 km/h
3030 11-01-2006 01:14:04 -4.1 C 3.01 g/m*3 -4.1 C 0 km/h
3031 11-01-2006 01:24:05 -4 C 3.04 g/m*3 -4 C 0 km/h
3032 11-01-2006 01:34:04 -4.1 C 3.01 g/m*3 -4.1 C 0 km/h
3033 11-01-2006 01:44:04 -4.2 C 2.99 g/m*3 -4.2 C 0 km/h
3034 11-01-2006 01:54:04 -4.3 C 2.97 g/m*3 -4.3 C 0 km/h
3035 11-01-2006 02:04:04 -4.4 C 2.95 g/m*3 -4.4 C 0 km/h
3036 11-01-2006 02:14:04 -4.5 C 2.93 g/m*3 -4.5 C 0 km/h
3037 11-01-2006 02:24:05 -4.6 C 2.91 g/m*3 -4.6 C 0 km/h
3038 11-01-2006 02:34:04 -4.6 C 2.91 g/m*3 -4.6 C 0 km/h
3039 11-01-2006 02:44:04 -4.7 C 2.89 g/m*3 -4.7 C 0 km/h
3040 11-01-2006 02:55:06 -4.8 C 2.87 g/m*3 -4.8 C 0 km/h
3041 11-01-2006 03:05:06 -4.8 C 2.87 g/m*3 -4.8 C 0 km/h
3042 11-01-2006 03:15:06 -4.8 C 2.87 g/m*3 -4.8 C 0 km/h
3043 11-01-2006 03:25:06 -4.8 C 2.87 g/m*3 -4.8 C 0 km/h
3044 11-01-2006 03:35:07 -4.8 C 2.87 g/m*3 -4.8 C 0 km/h
3045 11-01-2006 03:45:07 -5 C 2.83 g/m*3 -5 C 0 km/h
3046 11-01-2006 03:55:07 -5 C 2.83 g/m*3 -5 C 0 km/h
3047 11-01-2006 04:05:07 -5.2 C 2.79 g/m*3 -5.2 C 0 km/h
3048 11-01-2006 04:15:07 -5.3 C 2.77 g/m*3 -5.3 C 0 km/h
3049 11-01-2006 04:25:07 -5.3 C 2.77 g/m*3 -5.3 C 0 km/h
3050 11-01-2006 04:35:07 -5.4 C 2.75 g/m*3 -5.4 C 0 km/h
Sensor: Nr:Datum:Temp:Abs-Feuchte:Windchill:Wind:
Aussen-T/F 3051 11-01-2006 04:45:07 -5.5 C 2.73 g/m*3 -5.5 C 0 km/h
3052 11-01-2006 04:55:07 -5.6 C 2.71 g/m*3 -5.6 C 0 km/h
3053 11-01-2006 05:05:07 -5.6 C 2.71 g/m*3 -5.6 C 0 km/h
3054 11-01-2006 05:15:07 -5.6 C 2.71 g/m*3 -5.6 C 0 km/h
3055 11-01-2006 05:25:07 -5.7 C 2.69 g/m*3 -5.7 C 0 km/h
3056 11-01-2006 05:35:07 -5.7 C 2.72 g/m*3 -5.7 C 0 km/h
3057 11-01-2006 05:45:07 -5.7 C 2.69 g/m*3 -5.7 C 0 km/h
3058 11-01-2006 05:55:07 -5.7 C 2.72 g/m*3 -5.7 C 0 km/h
3059 11-01-2006 06:05:07 -5.8 C 2.7 g/m*3 -5.8 C 0 km/h
3060 11-01-2006 06:15:07 -5.8 C 2.7 g/m*3 -5.8 C 0 km/h
3061 11-01-2006 06:25:06 -5.9 C 2.68 g/m*3 -5.9 C 0 km/h
3062 11-01-2006 06:35:06 -5.8 C 2.7 g/m*3 -5.8 C 0 km/h
3063 11-01-2006 06:45:06 -5.8 C 2.7 g/m*3 -5.8 C 0 km/h
3064 11-01-2006 06:55:06 -5.9 C 2.68 g/m*3 -5.9 C 0 km/h
3065 11-01-2006 07:05:06 -5.8 C 2.7 g/m*3 -5.8 C 0 km/h
3066 11-01-2006 07:15:06 -5.8 C 2.7 g/m*3 -5.8 C 0 km/h
3067 11-01-2006 07:25:07 -5.9 C 2.68 g/m*3 -5.9 C 0 km/h
3068 11-01-2006 07:35:06 -5.9 C 2.68 g/m*3 -5.9 C 0 km/h
3069 11-01-2006 07:45:06 -5.9 C 2.68 g/m*3 -5.9 C 0 km/h
3070 11-01-2006 07:55:07 -6 C 2.66 g/m*3 -6 C 0 km/h
3071 11-01-2006 08:05:07 -6.1 C 2.64 g/m*3 -6.1 C 0 km/h
3072 11-01-2006 08:15:07 -6.1 C 2.64 g/m*3 -6.1 C 0 km/h
3073 11-01-2006 08:25:07 -6.1 C 2.64 g/m*3 -6.1 C 0 km/h
3074 11-01-2006 08:35:06 -6 C 2.66 g/m*3 -6 C 0 km/h
3075 11-01-2006 08:45:06 -6 C 2.66 g/m*3 -6 C 0 km/h
Sensor: Nr:Datum:Temp:Abs-Feuchte:Windchill:Wind:
Aussen-T/F 3076 11-01-2006 08:55:07 -5.9 C 2.68 g/m*3 -5.9 C 0 km/h
3077 11-01-2006 09:05:07 -5.8 C 2.73 g/m*3 -5.8 C 0 km/h
3078 11-01-2006 09:15:07 -5.8 C 2.73 g/m*3 -5.8 C 0 km/h
3079 11-01-2006 09:25:07 -5.7 C 2.75 g/m*3 -5.7 C 0 km/h
3080 11-01-2006 09:35:07 -5.5 C 2.79 g/m*3 -5.5 C 0 km/h
3081 11-01-2006 09:45:08 -5.4 C 2.81 g/m*3 -5.4 C 0 km/h
3082 11-01-2006 09:55:07 -5.2 C 2.85 g/m*3 -5.2 C 0 km/h
3083 11-01-2006 10:05:07 -5 C 2.93 g/m*3 -5 C 0 km/h
3084 11-01-2006 10:15:07 -4.9 C 2.95 g/m*3 -4.9 C 0 km/h
3085 11-01-2006 10:25:07 -4.7 C 2.99 g/m*3 -4.7 C 0 km/h
3086 11-01-2006 10:35:07 -4.5 C 3.04 g/m*3 -4.5 C 0 km/h
3087 11-01-2006 10:45:07 -4.1 C 3.12 g/m*3 -4.1 C 0 km/h
3088 11-01-2006 10:55:07 -3.7 C 3.25 g/m*3 -3.7 C 0 km/h
3089 11-01-2006 11:05:07 -3.5 C 3.3 g/m*3 -3.5 C 0 km/h
3090 11-01-2006 11:15:07 -3.2 C 3.37 g/m*3 -3.2 C 0 km/h
3091 11-01-2006 11:25:07 -3 C 3.42 g/m*3 -3 C 0 km/h
3092 11-01-2006 11:35:07 -2.5 C 3.58 g/m*3 -2.5 C 0 km/h
3093 11-01-2006 11:45:07 -2.1 C 3.68 g/m*3 -2.1 C 0 km/h
3094 11-01-2006 11:55:07 -1.8 C 3.76 g/m*3 -1.8 C 0 km/h
3095 11-01-2006 12:05:07 -1.7 C 3.79 g/m*3 -1.7 C 0 km/h
3096 11-01-2006 12:15:07 -1.5 C 3.84 g/m*3 -1.5 C 0 km/h
3097 11-01-2006 12:25:07 -1.3 C 3.9 g/m*3 -1.3 C 0 km/h
3098 11-01-2006 12:35:08 -0.8 C 3.99 g/m*3 -0.8 C 0 km/h
3099 11-01-2006 12:45:08 -0.5 C 4.03 g/m*3 -0.5 C 0 km/h
3100 11-01-2006 12:55:08 0 C 4.07 g/m*3 0 C 0 km/h
Sensor: Nr:Datum:Temp:Abs-Feuchte:Windchill:Wind:
Aussen-T/F 3101 11-01-2006 13:05:08 0.6 C 4.09 g/m*3 0.6 C 0 km/h
3102 11-01-2006 13:15:08 0.7 C 4.02 g/m*3 0.7 C 0 km/h
3103 11-01-2006 13:25:07 0.8 C 3.99 g/m*3 0.8 C 0 km/h
3104 11-01-2006 13:35:08 0.8 C 3.99 g/m*3 0.8 C 0 km/h
3105 11-01-2006 13:45:08 0.8 C 3.99 g/m*3 0.8 C 0 km/h
3106 11-01-2006 13:55:07 1 C 3.94 g/m*3 1 C 0 km/h
3107 11-01-2006 14:05:08 1.1 C 3.97 g/m*3 1.1 C 0 km/h
3108 11-01-2006 14:15:08 1.3 C 4.03 g/m*3 1.3 C 0 km/h
3109 11-01-2006 14:25:07 1.4 C 4 g/m*3 1.4 C 0 km/h
3110 11-01-2006 14:35:07 1.4 C 4 g/m*3 1.4 C 0 km/h
3111 11-01-2006 14:45:07 1.6 C 4.06 g/m*3 1.6 C 0 km/h
3112 11-01-2006 14:55:07 1.6 C 4 g/m*3 1.6 C 0 km/h
3113 11-01-2006 15:05:07 1.6 C 4 g/m*3 1.6 C 0 km/h
3114 11-01-2006 15:15:07 1.6 C 4 g/m*3 1.6 C 0 km/h
3115 11-01-2006 15:25:07 1.6 C 3.95 g/m*3 1.6 C 0 km/h
3116 11-01-2006 15:35:08 1.4 C 3.95 g/m*3 1.4 C 0 km/h
3117 11-01-2006 15:45:08 1.3 C 3.97 g/m*3 1.3 C 0 km/h
3118 11-01-2006 15:55:07 1.1 C 3.97 g/m*3 1.1 C 0 km/h
3119 11-01-2006 16:05:08 1 C 4 g/m*3 1 C 0 km/h
3120 11-01-2006 16:15:08 0.9 C 4.02 g/m*3 0.9 C 0 km/h
3121 11-01-2006 16:25:08 0.8 C 3.99 g/m*3 0.8 C 0 km/h
3122 11-01-2006 16:35:07 0.7 C 4.02 g/m*3 0.7 C 0 km/h
3123 11-01-2006 16:45:07 0.8 C 4.04 g/m*3 0.8 C 0 km/h
3124 11-01-2006 16:55:08 0.9 C 4.07 g/m*3 0.9 C 0 km/h
3125 11-01-2006 17:05:07 1 C 4.05 g/m*3 1 C 0 km/h
Sensor: Nr:Datum:Temp:Abs-Feuchte:Windchill:Wind:
Aussen-T/F 3126 11-01-2006 17:15:07 0.8 C 4.04 g/m*3 0.8 C 0 km/h
3127 11-01-2006 17:25:08 0.7 C 4.07 g/m*3 0.7 C 0 km/h
3128 11-01-2006 17:35:08 0.6 C 4.04 g/m*3 0.6 C 0 km/h
3129 11-01-2006 17:45:08 0.6 C 4.14 g/m*3 0.6 C 0 km/h
3130 11-01-2006 17:55:08 0.6 C 4.19 g/m*3 0.6 C 0 km/h
3131 11-01-2006 18:05:08 0.5 C 4.21 g/m*3 0.5 C 0 km/h
3132 11-01-2006 18:15:08 0.5 C 4.26 g/m*3 0.5 C 0 km/h
3133 11-01-2006 18:25:08 0.8 C 4.35 g/m*3 0.8 C 0 km/h
3134 11-01-2006 18:35:08 0.8 C 4.45 g/m*3 0.8 C 0 km/h
3135 11-01-2006 18:45:08 0.8 C 4.51 g/m*3 0.8 C 0 km/h
3136 11-01-2006 18:55:08 0.8 C 4.51 g/m*3 0.8 C 0 km/h
3137 11-01-2006 19:05:08 0.8 C 4.51 g/m*3 0.8 C 0 km/h
3138 11-01-2006 19:15:08 0.9 C 4.59 g/m*3 0.9 C 0 km/h
3139 11-01-2006 19:25:08 1 C 4.62 g/m*3 1 C 0 km/h
3140 11-01-2006 19:35:08 1.1 C 4.65 g/m*3 1.1 C 0 km/h
3141 11-01-2006 19:45:08 1.1 C 4.65 g/m*3 1.1 C 0 km/h
3142 11-01-2006 19:55:08 1.2 C 4.68 g/m*3 1.2 C 0 km/h
3143 11-01-2006 20:05:08 1.4 C 4.75 g/m*3 1.4 C 0 km/h
3144 11-01-2006 20:15:08 1.5 C 4.78 g/m*3 1.5 C 0 km/h
3145 11-01-2006 20:25:08 1.3 C 4.72 g/m*3 1.3 C 0 km/h
3146 11-01-2006 20:35:08 1.3 C 4.72 g/m*3 1.3 C 0 km/h
3147 11-01-2006 20:45:08 1.3 C 4.72 g/m*3 1.3 C 0 km/h
3148 11-01-2006 20:55:08 1.2 C 4.74 g/m*3 1.2 C 0 km/h
3149 11-01-2006 21:05:08 1.3 C 4.77 g/m*3 1.3 C 0 km/h
3150 11-01-2006 21:15:08 1.3 C 4.77 g/m*3 1.3 C 0 km/h
Sensor: Nr:Datum:Temp:Abs-Feuchte:Windchill:Wind:
Aussen-T/F 3151 11-01-2006 21:25:08 1.4 C 4.85 g/m*3 1.4 C 0 km/h
3152 11-01-2006 21:35:09 1.5 C 4.89 g/m*3 1.5 C 0 km/h
3153 11-01-2006 21:45:09 1.6 C 4.87 g/m*3 1.6 C 0 km/h
3154 11-01-2006 21:55:08 1.6 C 4.87 g/m*3 1.6 C 0 km/h
3155 11-01-2006 22:05:08 1.6 C 4.87 g/m*3 1.6 C 0 km/h
3156 11-01-2006 22:15:08 1.7 C 4.9 g/m*3 1.7 C 0 km/h
3157 11-01-2006 22:25:08 1.7 C 4.85 g/m*3 1.7 C 0 km/h
3158 11-01-2006 22:35:08 1.6 C 4.87 g/m*3 1.6 C 0 km/h
3159 11-01-2006 22:45:08 1.7 C 4.9 g/m*3 1.7 C 0 km/h
3160 11-01-2006 22:55:09 1.7 C 4.9 g/m*3 1.7 C 0 km/h
3161 11-01-2006 23:05:08 1.6 C 4.87 g/m*3 1.6 C 0 km/h
3162 11-01-2006 23:15:08 1.6 C 4.87 g/m*3 1.6 C 0 km/h
3163 11-01-2006 23:25:08 1.6 C 4.87 g/m*3 1.6 C 0 km/h
3164 11-01-2006 23:35:08 1.6 C 4.87 g/m*3 1.6 C 0 km/h
3165 11-01-2006 23:45:08 1.6 C 4.92 g/m*3 1.6 C 0 km/h
3166 11-01-2006 23:55:08 1.5 C 4.89 g/m*3 1.5 C 0 km/h
3167 12-01-2006 00:05:09 1.5 C 4.89 g/m*3 1.5 C 0 km/h
3168 12-01-2006 00:15:09 1.5 C 4.89 g/m*3 1.5 C 0 km/h
3169 12-01-2006 00:25:09 1.5 C 4.94 g/m*3 1.5 C 0 km/h
3170 12-01-2006 00:35:08 1.5 C 4.94 g/m*3 1.5 C 0 km/h
3171 12-01-2006 00:45:08 1.4 C 4.91 g/m*3 1.4 C 0 km/h
3172 12-01-2006 00:55:09 1.4 C 4.91 g/m*3 1.4 C 0 km/h
3173 12-01-2006 01:05:08 1.4 C 4.96 g/m*3 1.4 C 0 km/h
3174 12-01-2006 01:15:08 1.5 C 4.99 g/m*3 1.5 C 0 km/h
3175 12-01-2006 01:25:09 1.5 C 4.99 g/m*3 1.5 C 0 km/h
Sensor: Nr:Datum:Temp:Abs-Feuchte:Windchill:Wind:
Aussen-T/F 3176 12-01-2006 01:35:09 1.5 C 4.99 g/m*3 1.5 C 0 km/h
3177 12-01-2006 01:45:09 1.5 C 4.99 g/m*3 1.5 C 0 km/h
3178 12-01-2006 01:55:08 1.5 C 4.99 g/m*3 1.5 C 0 km/h
3179 12-01-2006 02:05:08 1.5 C 4.99 g/m*3 1.5 C 0 km/h
3180 12-01-2006 02:15:08 1.5 C 5.05 g/m*3 1.5 C 0 km/h
3181 12-01-2006 02:25:08 1.5 C 5.05 g/m*3 1.5 C 0 km/h
3182 12-01-2006 02:35:09 1.5 C 5.05 g/m*3 1.5 C 0 km/h
3183 12-01-2006 02:45:10 1.5 C 5.05 g/m*3 1.5 C 0 km/h
3184 12-01-2006 02:56:10 1.4 C 5.01 g/m*3 1.4 C 0 km/h
3185 12-01-2006 03:06:10 1.4 C 5.01 g/m*3 1.4 C 0 km/h
3186 12-01-2006 03:16:11 1.4 C 5.01 g/m*3 1.4 C 0 km/h
3187 12-01-2006 03:26:11 1.4 C 5.01 g/m*3 1.4 C 0 km/h
3188 12-01-2006 03:36:11 1.3 C 4.98 g/m*3 1.3 C 0 km/h
3189 12-01-2006 03:46:11 1.3 C 4.98 g/m*3 1.3 C 0 km/h
3190 12-01-2006 03:56:11 1.3 C 4.98 g/m*3 1.3 C 0 km/h
3191 12-01-2006 04:06:10 1.3 C 4.98 g/m*3 1.3 C 0 km/h
3192 12-01-2006 04:16:10 1.3 C 4.98 g/m*3 1.3 C 0 km/h
3193 12-01-2006 04:26:11 1.3 C 4.98 g/m*3 1.3 C 0 km/h
3194 12-01-2006 04:36:10 1.3 C 4.98 g/m*3 1.3 C 0 km/h
3195 12-01-2006 04:46:11 1.3 C 4.98 g/m*3 1.3 C 0 km/h
3196 12-01-2006 04:56:10 1.2 C 4.95 g/m*3 1.2 C 0 km/h
3197 12-01-2006 05:06:11 1.3 C 4.98 g/m*3 1.3 C 0 km/h
3198 12-01-2006 05:16:11 1.3 C 4.98 g/m*3 1.3 C 0 km/h
3199 12-01-2006 05:26:10 1.3 C 4.98 g/m*3 1.3 C 0 km/h
3200 12-01-2006 05:36:10 1.2 C 4.95 g/m*3 1.2 C 0 km/h
Sensor: Nr:Datum:Temp:Abs-Feuchte:Windchill:Wind:
Aussen-T/F 3201 12-01-2006 05:46:10 1.3 C 4.98 g/m*3 1.3 C 0 km/h
3202 12-01-2006 05:56:11 1.3 C 4.98 g/m*3 1.3 C 0 km/h
3203 12-01-2006 06:06:11 1.3 C 4.98 g/m*3 1.3 C 0 km/h
3204 12-01-2006 06:16:11 1.3 C 4.98 g/m*3 1.3 C 0 km/h
3205 12-01-2006 06:26:10 1.3 C 4.98 g/m*3 1.3 C 0 km/h
3206 12-01-2006 06:36:10 1.3 C 4.98 g/m*3 1.3 C 0 km/h
3207 12-01-2006 06:46:10 1.3 C 4.98 g/m*3 1.3 C 0 km/h
3208 12-01-2006 06:56:10 1.3 C 4.98 g/m*3 1.3 C 0 km/h
3209 12-01-2006 07:06:11 1.3 C 4.98 g/m*3 1.3 C 0 km/h
3210 12-01-2006 07:16:11 1.3 C 4.98 g/m*3 1.3 C 0 km/h
3211 12-01-2006 07:26:11 1.3 C 4.98 g/m*3 1.3 C 0 km/h
3212 12-01-2006 07:36:10 1.3 C 4.98 g/m*3 1.3 C 0 km/h
3213 12-01-2006 07:46:10 1.4 C 5.01 g/m*3 1.4 C 0 km/h
3214 12-01-2006 07:56:11 1.3 C 4.98 g/m*3 1.3 C 0 km/h
3215 12-01-2006 08:06:10 1.4 C 5.01 g/m*3 1.4 C 0 km/h
3216 12-01-2006 08:16:10 1.4 C 5.01 g/m*3 1.4 C 0 km/h
3217 12-01-2006 08:26:10 1.4 C 5.01 g/m*3 1.4 C 0 km/h
3218 12-01-2006 08:36:11 1.4 C 5.01 g/m*3 1.4 C 0 km/h
3219 12-01-2006 08:46:11 1.4 C 5.01 g/m*3 1.4 C 0 km/h
3220 12-01-2006 08:56:10 1.4 C 5.01 g/m*3 1.4 C 0 km/h
3221 12-01-2006 09:06:11 1.4 C 5.01 g/m*3 1.4 C 0 km/h
3222 12-01-2006 09:16:11 1.5 C 5.05 g/m*3 1.5 C 0 km/h
3223 12-01-2006 09:26:11 1.5 C 5.1 g/m*3 1.5 C 0 km/h
3224 12-01-2006 09:36:11 1.5 C 5.05 g/m*3 1.5 C 0 km/h
3225 12-01-2006 09:46:11 1.5 C 5.05 g/m*3 1.5 C 0 km/h
Sensor: Nr:Datum:Temp:Abs-Feuchte:Windchill:Wind:
Aussen-T/F 3226 12-01-2006 09:56:11 1.5 C 5.1 g/m*3 1.5 C 0 km/h
3227 12-01-2006 10:06:11 1.6 C 5.14 g/m*3 1.6 C 0 km/h
3228 12-01-2006 10:16:11 1.7 C 5.17 g/m*3 1.7 C 0 km/h
3229 12-01-2006 10:26:10 1.8 C 5.21 g/m*3 1.8 C 0 km/h
3230 12-01-2006 10:36:11 2 C 5.22 g/m*3 2 C 0 km/h
3231 12-01-2006 10:46:11 2.1 C 5.31 g/m*3 2.1 C 0 km/h
3232 12-01-2006 10:56:11 2.2 C 5.35 g/m*3 2.2 C 0 km/h
3233 12-01-2006 11:06:11 2.2 C 5.35 g/m*3 2.2 C 0 km/h
3234 12-01-2006 11:16:11 2.4 C 5.42 g/m*3 2.4 C 0 km/h
3235 12-01-2006 11:26:11 2.4 C 5.42 g/m*3 2.4 C 0 km/h
3236 12-01-2006 11:36:11 2.4 C 5.42 g/m*3 2.4 C 0 km/h
3237 12-01-2006 11:46:11 2.4 C 5.37 g/m*3 2.4 C 0 km/h
3238 12-01-2006 11:56:11 2.6 C 5.44 g/m*3 2.6 C 0 km/h
3239 12-01-2006 12:06:11 2.7 C 5.48 g/m*3 2.7 C 0 km/h
3240 12-01-2006 12:16:11 2.7 C 5.48 g/m*3 2.7 C 0 km/h
3241 12-01-2006 12:26:11 2.9 C 5.55 g/m*3 2.9 C 0 km/h
3242 12-01-2006 12:36:11 2.8 C 5.46 g/m*3 2.8 C 0 km/h
3243 12-01-2006 12:46:11 2.8 C 5.4 g/m*3 2.8 C 0 km/h
3244 12-01-2006 12:56:11 2.8 C 5.4 g/m*3 2.8 C 0 km/h